<?xml version="1.0" encoding="UTF-8" standalone="no" ?>
<gpx xmlns="http://www.topografix.com/GPX/1/1" xmlns:xsi="http://www.w3.org/2001/XMLSchema-instance" xsi:schemaLocation="http://www.topografix.com/GPX/1/1 http://www.topografix.com/GPX/1/1/gpx.xsd" version="1.1" creator="VisuGPX - https://www.visugpx.com">
  <metadata>
    <name>24 03 19 VTT</name>
    <desc><![CDATA[24 03 19 randonnée VTT, près de BRAS]]></desc>
  </metadata>
  <trk>
    <name><![CDATA[2019-01-06 14:53:14 002]]></name>
    <trkseg>
      <trkpt lat="43.2444" lon="6.00043">
        <ele>152.03</ele>
        <time>2018-12-27T11:59:27Z</time>
      </trkpt>
      <trkpt lat="43.2444" lon="6.00043">
        <ele>152.03</ele>
        <time>2018-12-27T11:59:28Z</time>
      </trkpt>
      <trkpt lat="43.2444" lon="6.00043">
        <ele>152.03</ele>
        <time>2018-12-27T11:59:29Z</time>
      </trkpt>
      <trkpt lat="43.43953" lon="5.8601">
        <ele>331.31</ele>
        <time>2018-12-27T17:00:24Z</time>
      </trkpt>
      <trkpt lat="43.43965" lon="5.8602">
        <ele>262.58</ele>
        <time>2019-01-06T10:28:36Z</time>
      </trkpt>
      <trkpt lat="43.43967" lon="5.86022">
        <ele>263.54</ele>
        <time>2019-01-06T10:28:58Z</time>
      </trkpt>
      <trkpt lat="43.43972" lon="5.86025">
        <ele>263.54</ele>
        <time>2019-01-06T10:29:23Z</time>
      </trkpt>
      <trkpt lat="43.43964" lon="5.86025">
        <ele>266.42</ele>
        <time>2019-01-06T10:29:49Z</time>
      </trkpt>
      <trkpt lat="43.43983" lon="5.86022">
        <ele>266.9</ele>
        <time>2019-01-06T10:30:09Z</time>
      </trkpt>
      <trkpt lat="43.43985" lon="5.86028">
        <ele>268.83</ele>
        <time>2019-01-06T10:30:24Z</time>
      </trkpt>
      <trkpt lat="43.43966" lon="5.86019">
        <ele>269.79</ele>
        <time>2019-01-06T10:30:43Z</time>
      </trkpt>
      <trkpt lat="43.43962" lon="5.86016">
        <ele>269.79</ele>
        <time>2019-01-06T10:31:13Z</time>
      </trkpt>
      <trkpt lat="43.43967" lon="5.86032">
        <ele>269.31</ele>
        <time>2019-01-06T10:31:28Z</time>
      </trkpt>
      <trkpt lat="43.43971" lon="5.86044">
        <ele>269.79</ele>
        <time>2019-01-06T10:31:38Z</time>
      </trkpt>
      <trkpt lat="43.4397" lon="5.86059">
        <ele>269.79</ele>
        <time>2019-01-06T10:31:51Z</time>
      </trkpt>
      <trkpt lat="43.43978" lon="5.8607">
        <ele>270.27</ele>
        <time>2019-01-06T10:32:01Z</time>
      </trkpt>
      <trkpt lat="43.43981" lon="5.86068">
        <ele>268.35</ele>
        <time>2019-01-06T10:32:11Z</time>
      </trkpt>
      <trkpt lat="43.43981" lon="5.8607">
        <ele>272.67</ele>
        <time>2019-01-06T10:32:23Z</time>
      </trkpt>
      <trkpt lat="43.43981" lon="5.86069">
        <ele>269.79</ele>
        <time>2019-01-06T10:32:26Z</time>
      </trkpt>
      <trkpt lat="43.4398" lon="5.86069">
        <ele>271.23</ele>
        <time>2019-01-06T10:32:42Z</time>
      </trkpt>
      <trkpt lat="43.43981" lon="5.86067">
        <ele>271.71</ele>
        <time>2019-01-06T10:32:47Z</time>
      </trkpt>
      <trkpt lat="43.43974" lon="5.8605">
        <ele>273.15</ele>
        <time>2019-01-06T10:32:54Z</time>
      </trkpt>
      <trkpt lat="43.4398" lon="5.86024">
        <ele>274.11</ele>
        <time>2019-01-06T10:33:00Z</time>
      </trkpt>
      <trkpt lat="43.43982" lon="5.86023">
        <ele>274.11</ele>
        <time>2019-01-06T10:33:01Z</time>
      </trkpt>
      <trkpt lat="43.43984" lon="5.86023">
        <ele>274.11</ele>
        <time>2019-01-06T10:33:02Z</time>
      </trkpt>
      <trkpt lat="43.43986" lon="5.86024">
        <ele>274.59</ele>
        <time>2019-01-06T10:33:03Z</time>
      </trkpt>
      <trkpt lat="43.43988" lon="5.86025">
        <ele>274.59</ele>
        <time>2019-01-06T10:33:04Z</time>
      </trkpt>
      <trkpt lat="43.43991" lon="5.86029">
        <ele>273.15</ele>
        <time>2019-01-06T10:33:06Z</time>
      </trkpt>
      <trkpt lat="43.44025" lon="5.86067">
        <ele>270.27</ele>
        <time>2019-01-06T10:33:13Z</time>
      </trkpt>
      <trkpt lat="43.44029" lon="5.86073">
        <ele>270.75</ele>
        <time>2019-01-06T10:33:14Z</time>
      </trkpt>
      <trkpt lat="43.44032" lon="5.86079">
        <ele>270.75</ele>
        <time>2019-01-06T10:33:15Z</time>
      </trkpt>
      <trkpt lat="43.44034" lon="5.86086">
        <ele>270.75</ele>
        <time>2019-01-06T10:33:16Z</time>
      </trkpt>
      <trkpt lat="43.44034" lon="5.86094">
        <ele>270.75</ele>
        <time>2019-01-06T10:33:17Z</time>
      </trkpt>
      <trkpt lat="43.44033" lon="5.86104">
        <ele>270.27</ele>
        <time>2019-01-06T10:33:18Z</time>
      </trkpt>
      <trkpt lat="43.44032" lon="5.86114">
        <ele>270.27</ele>
        <time>2019-01-06T10:33:19Z</time>
      </trkpt>
      <trkpt lat="43.44027" lon="5.86179">
        <ele>269.79</ele>
        <time>2019-01-06T10:33:28Z</time>
      </trkpt>
      <trkpt lat="43.44034" lon="5.86258">
        <ele>266.42</ele>
        <time>2019-01-06T10:33:36Z</time>
      </trkpt>
      <trkpt lat="43.44038" lon="5.86304">
        <ele>263.54</ele>
        <time>2019-01-06T10:33:44Z</time>
      </trkpt>
      <trkpt lat="43.44035" lon="5.86305">
        <ele>263.54</ele>
        <time>2019-01-06T10:33:45Z</time>
      </trkpt>
      <trkpt lat="43.44032" lon="5.86307">
        <ele>263.06</ele>
        <time>2019-01-06T10:33:46Z</time>
      </trkpt>
      <trkpt lat="43.44028" lon="5.86308">
        <ele>263.54</ele>
        <time>2019-01-06T10:33:47Z</time>
      </trkpt>
      <trkpt lat="43.44025" lon="5.86308">
        <ele>263.54</ele>
        <time>2019-01-06T10:33:48Z</time>
      </trkpt>
      <trkpt lat="43.44022" lon="5.86308">
        <ele>263.54</ele>
        <time>2019-01-06T10:33:49Z</time>
      </trkpt>
      <trkpt lat="43.44017" lon="5.86306">
        <ele>263.54</ele>
        <time>2019-01-06T10:33:50Z</time>
      </trkpt>
      <trkpt lat="43.44013" lon="5.86304">
        <ele>263.54</ele>
        <time>2019-01-06T10:33:51Z</time>
      </trkpt>
      <trkpt lat="43.4401" lon="5.86302">
        <ele>263.54</ele>
        <time>2019-01-06T10:33:52Z</time>
      </trkpt>
      <trkpt lat="43.44007" lon="5.86299">
        <ele>264.02</ele>
        <time>2019-01-06T10:33:53Z</time>
      </trkpt>
      <trkpt lat="43.44005" lon="5.86297">
        <ele>265.46</ele>
        <time>2019-01-06T10:33:57Z</time>
      </trkpt>
      <trkpt lat="43.44004" lon="5.86297">
        <ele>266.9</ele>
        <time>2019-01-06T10:34:21Z</time>
      </trkpt>
      <trkpt lat="43.44001" lon="5.86296">
        <ele>267.38</ele>
        <time>2019-01-06T10:34:28Z</time>
      </trkpt>
      <trkpt lat="43.43999" lon="5.86295">
        <ele>267.38</ele>
        <time>2019-01-06T10:34:29Z</time>
      </trkpt>
      <trkpt lat="43.43995" lon="5.86292">
        <ele>267.38</ele>
        <time>2019-01-06T10:34:30Z</time>
      </trkpt>
      <trkpt lat="43.43992" lon="5.86288">
        <ele>267.38</ele>
        <time>2019-01-06T10:34:31Z</time>
      </trkpt>
      <trkpt lat="43.43988" lon="5.86283">
        <ele>267.38</ele>
        <time>2019-01-06T10:34:32Z</time>
      </trkpt>
      <trkpt lat="43.43986" lon="5.86279">
        <ele>267.38</ele>
        <time>2019-01-06T10:34:33Z</time>
      </trkpt>
      <trkpt lat="43.43984" lon="5.86273">
        <ele>267.38</ele>
        <time>2019-01-06T10:34:34Z</time>
      </trkpt>
      <trkpt lat="43.43981" lon="5.86265">
        <ele>267.86</ele>
        <time>2019-01-06T10:34:35Z</time>
      </trkpt>
      <trkpt lat="43.43961" lon="5.86194">
        <ele>271.71</ele>
        <time>2019-01-06T10:34:41Z</time>
      </trkpt>
      <trkpt lat="43.43956" lon="5.8618">
        <ele>271.71</ele>
        <time>2019-01-06T10:34:42Z</time>
      </trkpt>
      <trkpt lat="43.43935" lon="5.86119">
        <ele>274.59</ele>
        <time>2019-01-06T10:34:46Z</time>
      </trkpt>
      <trkpt lat="43.439" lon="5.86037">
        <ele>277.96</ele>
        <time>2019-01-06T10:34:51Z</time>
      </trkpt>
      <trkpt lat="43.4385" lon="5.85934">
        <ele>280.84</ele>
        <time>2019-01-06T10:34:57Z</time>
      </trkpt>
      <trkpt lat="43.43832" lon="5.85899">
        <ele>281.8</ele>
        <time>2019-01-06T10:34:59Z</time>
      </trkpt>
      <trkpt lat="43.43766" lon="5.85766">
        <ele>283.25</ele>
        <time>2019-01-06T10:35:08Z</time>
      </trkpt>
      <trkpt lat="43.43762" lon="5.85754">
        <ele>283.25</ele>
        <time>2019-01-06T10:35:09Z</time>
      </trkpt>
      <trkpt lat="43.4376" lon="5.85743">
        <ele>284.21</ele>
        <time>2019-01-06T10:35:10Z</time>
      </trkpt>
      <trkpt lat="43.4376" lon="5.85733">
        <ele>284.21</ele>
        <time>2019-01-06T10:35:11Z</time>
      </trkpt>
      <trkpt lat="43.4376" lon="5.85723">
        <ele>284.21</ele>
        <time>2019-01-06T10:35:12Z</time>
      </trkpt>
      <trkpt lat="43.4376" lon="5.85682">
        <ele>284.69</ele>
        <time>2019-01-06T10:35:16Z</time>
      </trkpt>
      <trkpt lat="43.43758" lon="5.85674">
        <ele>284.69</ele>
        <time>2019-01-06T10:35:17Z</time>
      </trkpt>
      <trkpt lat="43.43756" lon="5.8567">
        <ele>284.69</ele>
        <time>2019-01-06T10:35:18Z</time>
      </trkpt>
      <trkpt lat="43.43751" lon="5.85664">
        <ele>284.69</ele>
        <time>2019-01-06T10:35:19Z</time>
      </trkpt>
      <trkpt lat="43.43746" lon="5.8566">
        <ele>284.69</ele>
        <time>2019-01-06T10:35:20Z</time>
      </trkpt>
      <trkpt lat="43.43739" lon="5.85656">
        <ele>285.65</ele>
        <time>2019-01-06T10:35:21Z</time>
      </trkpt>
      <trkpt lat="43.43719" lon="5.85641">
        <ele>285.65</ele>
        <time>2019-01-06T10:35:23Z</time>
      </trkpt>
      <trkpt lat="43.43651" lon="5.85579">
        <ele>288.05</ele>
        <time>2019-01-06T10:35:29Z</time>
      </trkpt>
      <trkpt lat="43.43612" lon="5.85535">
        <ele>289.01</ele>
        <time>2019-01-06T10:35:32Z</time>
      </trkpt>
      <trkpt lat="43.43463" lon="5.85334">
        <ele>286.61</ele>
        <time>2019-01-06T10:35:45Z</time>
      </trkpt>
      <trkpt lat="43.43434" lon="5.85283">
        <ele>286.13</ele>
        <time>2019-01-06T10:35:48Z</time>
      </trkpt>
      <trkpt lat="43.4342" lon="5.8527">
        <ele>286.13</ele>
        <time>2019-01-06T10:35:49Z</time>
      </trkpt>
      <trkpt lat="43.43402" lon="5.8526">
        <ele>286.61</ele>
        <time>2019-01-06T10:35:50Z</time>
      </trkpt>
      <trkpt lat="43.4339" lon="5.85256">
        <ele>286.13</ele>
        <time>2019-01-06T10:35:51Z</time>
      </trkpt>
      <trkpt lat="43.43374" lon="5.8525">
        <ele>286.13</ele>
        <time>2019-01-06T10:35:52Z</time>
      </trkpt>
      <trkpt lat="43.43309" lon="5.85217">
        <ele>289.97</ele>
        <time>2019-01-06T10:35:56Z</time>
      </trkpt>
      <trkpt lat="43.43246" lon="5.85171">
        <ele>293.34</ele>
        <time>2019-01-06T10:36:00Z</time>
      </trkpt>
      <trkpt lat="43.43197" lon="5.85122">
        <ele>297.18</ele>
        <time>2019-01-06T10:36:04Z</time>
      </trkpt>
      <trkpt lat="43.43184" lon="5.85107">
        <ele>297.18</ele>
        <time>2019-01-06T10:36:05Z</time>
      </trkpt>
      <trkpt lat="43.43085" lon="5.84976">
        <ele>293.82</ele>
        <time>2019-01-06T10:36:13Z</time>
      </trkpt>
      <trkpt lat="43.4296" lon="5.84846">
        <ele>296.7</ele>
        <time>2019-01-06T10:36:22Z</time>
      </trkpt>
      <trkpt lat="43.42937" lon="5.84822">
        <ele>295.74</ele>
        <time>2019-01-06T10:36:24Z</time>
      </trkpt>
      <trkpt lat="43.42873" lon="5.84756">
        <ele>297.67</ele>
        <time>2019-01-06T10:36:29Z</time>
      </trkpt>
      <trkpt lat="43.42795" lon="5.84675">
        <ele>300.55</ele>
        <time>2019-01-06T10:36:35Z</time>
      </trkpt>
      <trkpt lat="43.42731" lon="5.84609">
        <ele>303.91</ele>
        <time>2019-01-06T10:36:40Z</time>
      </trkpt>
      <trkpt lat="43.42691" lon="5.84569">
        <ele>307.76</ele>
        <time>2019-01-06T10:36:43Z</time>
      </trkpt>
      <trkpt lat="43.42639" lon="5.84515">
        <ele>311.6</ele>
        <time>2019-01-06T10:36:47Z</time>
      </trkpt>
      <trkpt lat="43.42586" lon="5.8446">
        <ele>314.97</ele>
        <time>2019-01-06T10:36:51Z</time>
      </trkpt>
      <trkpt lat="43.42527" lon="5.84388">
        <ele>318.33</ele>
        <time>2019-01-06T10:36:56Z</time>
      </trkpt>
      <trkpt lat="43.42515" lon="5.84372">
        <ele>318.33</ele>
        <time>2019-01-06T10:36:57Z</time>
      </trkpt>
      <trkpt lat="43.42455" lon="5.8429">
        <ele>321.22</ele>
        <time>2019-01-06T10:37:02Z</time>
      </trkpt>
      <trkpt lat="43.4242" lon="5.84241">
        <ele>324.1</ele>
        <time>2019-01-06T10:37:05Z</time>
      </trkpt>
      <trkpt lat="43.42351" lon="5.84143">
        <ele>327.47</ele>
        <time>2019-01-06T10:37:11Z</time>
      </trkpt>
      <trkpt lat="43.42339" lon="5.84127">
        <ele>327.47</ele>
        <time>2019-01-06T10:37:12Z</time>
      </trkpt>
      <trkpt lat="43.42282" lon="5.8405">
        <ele>324.1</ele>
        <time>2019-01-06T10:37:17Z</time>
      </trkpt>
      <trkpt lat="43.42224" lon="5.83954">
        <ele>321.22</ele>
        <time>2019-01-06T10:37:22Z</time>
      </trkpt>
      <trkpt lat="43.42194" lon="5.83898">
        <ele>319.3</ele>
        <time>2019-01-06T10:37:24Z</time>
      </trkpt>
      <trkpt lat="43.42183" lon="5.83876">
        <ele>317.85</ele>
        <time>2019-01-06T10:37:25Z</time>
      </trkpt>
      <trkpt lat="43.4215" lon="5.83806">
        <ele>314.97</ele>
        <time>2019-01-06T10:37:28Z</time>
      </trkpt>
      <trkpt lat="43.41999" lon="5.83457">
        <ele>314.97</ele>
        <time>2019-01-06T10:37:42Z</time>
      </trkpt>
      <trkpt lat="43.419" lon="5.83252">
        <ele>318.33</ele>
        <time>2019-01-06T10:37:51Z</time>
      </trkpt>
      <trkpt lat="43.41786" lon="5.83123">
        <ele>314.49</ele>
        <time>2019-01-06T10:38:00Z</time>
      </trkpt>
      <trkpt lat="43.41774" lon="5.83102">
        <ele>315.93</ele>
        <time>2019-01-06T10:38:01Z</time>
      </trkpt>
      <trkpt lat="43.4173" lon="5.83026">
        <ele>314.49</ele>
        <time>2019-01-06T10:38:05Z</time>
      </trkpt>
      <trkpt lat="43.4159" lon="5.82783">
        <ele>311.12</ele>
        <time>2019-01-06T10:38:18Z</time>
      </trkpt>
      <trkpt lat="43.41579" lon="5.82763">
        <ele>311.12</ele>
        <time>2019-01-06T10:38:19Z</time>
      </trkpt>
      <trkpt lat="43.41525" lon="5.82691">
        <ele>310.64</ele>
        <time>2019-01-06T10:38:23Z</time>
      </trkpt>
      <trkpt lat="43.4151" lon="5.8268">
        <ele>310.64</ele>
        <time>2019-01-06T10:38:24Z</time>
      </trkpt>
      <trkpt lat="43.41421" lon="5.82637">
        <ele>307.76</ele>
        <time>2019-01-06T10:38:29Z</time>
      </trkpt>
      <trkpt lat="43.41383" lon="5.82621">
        <ele>310.64</ele>
        <time>2019-01-06T10:38:31Z</time>
      </trkpt>
      <trkpt lat="43.41215" lon="5.82526">
        <ele>314.01</ele>
        <time>2019-01-06T10:38:41Z</time>
      </trkpt>
      <trkpt lat="43.41169" lon="5.82503">
        <ele>318.33</ele>
        <time>2019-01-06T10:38:44Z</time>
      </trkpt>
      <trkpt lat="43.41154" lon="5.82496">
        <ele>318.81</ele>
        <time>2019-01-06T10:38:45Z</time>
      </trkpt>
      <trkpt lat="43.41072" lon="5.82466">
        <ele>316.89</ele>
        <time>2019-01-06T10:38:50Z</time>
      </trkpt>
      <trkpt lat="43.41056" lon="5.82466">
        <ele>315.45</ele>
        <time>2019-01-06T10:38:51Z</time>
      </trkpt>
      <trkpt lat="43.40974" lon="5.82483">
        <ele>312.57</ele>
        <time>2019-01-06T10:38:56Z</time>
      </trkpt>
      <trkpt lat="43.40892" lon="5.82515">
        <ele>313.05</ele>
        <time>2019-01-06T10:39:02Z</time>
      </trkpt>
      <trkpt lat="43.40881" lon="5.82515">
        <ele>313.05</ele>
        <time>2019-01-06T10:39:03Z</time>
      </trkpt>
      <trkpt lat="43.40872" lon="5.82513">
        <ele>313.05</ele>
        <time>2019-01-06T10:39:04Z</time>
      </trkpt>
      <trkpt lat="43.40865" lon="5.82509">
        <ele>311.6</ele>
        <time>2019-01-06T10:39:05Z</time>
      </trkpt>
      <trkpt lat="43.40861" lon="5.82501">
        <ele>311.12</ele>
        <time>2019-01-06T10:39:06Z</time>
      </trkpt>
      <trkpt lat="43.40848" lon="5.82453">
        <ele>310.64</ele>
        <time>2019-01-06T10:39:09Z</time>
      </trkpt>
      <trkpt lat="43.40846" lon="5.82426">
        <ele>308.24</ele>
        <time>2019-01-06T10:39:10Z</time>
      </trkpt>
      <trkpt lat="43.40826" lon="5.82283">
        <ele>308.72</ele>
        <time>2019-01-06T10:39:16Z</time>
      </trkpt>
      <trkpt lat="43.40818" lon="5.82267">
        <ele>308.24</ele>
        <time>2019-01-06T10:39:17Z</time>
      </trkpt>
      <trkpt lat="43.40806" lon="5.82253">
        <ele>308.24</ele>
        <time>2019-01-06T10:39:18Z</time>
      </trkpt>
      <trkpt lat="43.40793" lon="5.82242">
        <ele>308.72</ele>
        <time>2019-01-06T10:39:19Z</time>
      </trkpt>
      <trkpt lat="43.40779" lon="5.82233">
        <ele>308.72</ele>
        <time>2019-01-06T10:39:20Z</time>
      </trkpt>
      <trkpt lat="43.40724" lon="5.82189">
        <ele>310.16</ele>
        <time>2019-01-06T10:39:24Z</time>
      </trkpt>
      <trkpt lat="43.40712" lon="5.82173">
        <ele>311.12</ele>
        <time>2019-01-06T10:39:25Z</time>
      </trkpt>
      <trkpt lat="43.40701" lon="5.82156">
        <ele>312.09</ele>
        <time>2019-01-06T10:39:26Z</time>
      </trkpt>
      <trkpt lat="43.40692" lon="5.82137">
        <ele>313.05</ele>
        <time>2019-01-06T10:39:27Z</time>
      </trkpt>
      <trkpt lat="43.40683" lon="5.82117">
        <ele>314.01</ele>
        <time>2019-01-06T10:39:28Z</time>
      </trkpt>
      <trkpt lat="43.40673" lon="5.82094">
        <ele>314.01</ele>
        <time>2019-01-06T10:39:29Z</time>
      </trkpt>
      <trkpt lat="43.40597" lon="5.8193">
        <ele>313.05</ele>
        <time>2019-01-06T10:39:36Z</time>
      </trkpt>
      <trkpt lat="43.40551" lon="5.81833">
        <ele>310.64</ele>
        <time>2019-01-06T10:39:40Z</time>
      </trkpt>
      <trkpt lat="43.40506" lon="5.81738">
        <ele>309.68</ele>
        <time>2019-01-06T10:39:44Z</time>
      </trkpt>
      <trkpt lat="43.40417" lon="5.81558">
        <ele>306.8</ele>
        <time>2019-01-06T10:39:52Z</time>
      </trkpt>
      <trkpt lat="43.40325" lon="5.81377">
        <ele>309.68</ele>
        <time>2019-01-06T10:40:00Z</time>
      </trkpt>
      <trkpt lat="43.403" lon="5.81329">
        <ele>311.12</ele>
        <time>2019-01-06T10:40:02Z</time>
      </trkpt>
      <trkpt lat="43.40182" lon="5.81076">
        <ele>307.76</ele>
        <time>2019-01-06T10:40:13Z</time>
      </trkpt>
      <trkpt lat="43.40126" lon="5.8096">
        <ele>305.84</ele>
        <time>2019-01-06T10:40:18Z</time>
      </trkpt>
      <trkpt lat="43.40103" lon="5.80916">
        <ele>307.76</ele>
        <time>2019-01-06T10:40:20Z</time>
      </trkpt>
      <trkpt lat="43.39973" lon="5.80657">
        <ele>304.39</ele>
        <time>2019-01-06T10:40:32Z</time>
      </trkpt>
      <trkpt lat="43.39821" lon="5.80353">
        <ele>305.84</ele>
        <time>2019-01-06T10:40:46Z</time>
      </trkpt>
      <trkpt lat="43.39751" lon="5.80215">
        <ele>309.2</ele>
        <time>2019-01-06T10:40:52Z</time>
      </trkpt>
      <trkpt lat="43.39698" lon="5.80135">
        <ele>312.09</ele>
        <time>2019-01-06T10:40:56Z</time>
      </trkpt>
      <trkpt lat="43.3957" lon="5.79992">
        <ele>311.6</ele>
        <time>2019-01-06T10:41:05Z</time>
      </trkpt>
      <trkpt lat="43.39432" lon="5.79925">
        <ele>309.2</ele>
        <time>2019-01-06T10:41:14Z</time>
      </trkpt>
      <trkpt lat="43.39331" lon="5.79857">
        <ele>311.12</ele>
        <time>2019-01-06T10:41:21Z</time>
      </trkpt>
      <trkpt lat="43.39321" lon="5.79841">
        <ele>312.09</ele>
        <time>2019-01-06T10:41:22Z</time>
      </trkpt>
      <trkpt lat="43.39312" lon="5.79824">
        <ele>312.57</ele>
        <time>2019-01-06T10:41:23Z</time>
      </trkpt>
      <trkpt lat="43.39299" lon="5.79795">
        <ele>314.97</ele>
        <time>2019-01-06T10:41:25Z</time>
      </trkpt>
      <trkpt lat="43.39295" lon="5.79782">
        <ele>314.97</ele>
        <time>2019-01-06T10:41:26Z</time>
      </trkpt>
      <trkpt lat="43.39293" lon="5.79768">
        <ele>315.45</ele>
        <time>2019-01-06T10:41:27Z</time>
      </trkpt>
      <trkpt lat="43.39292" lon="5.79754">
        <ele>315.45</ele>
        <time>2019-01-06T10:41:28Z</time>
      </trkpt>
      <trkpt lat="43.39291" lon="5.79738">
        <ele>315.45</ele>
        <time>2019-01-06T10:41:29Z</time>
      </trkpt>
      <trkpt lat="43.39278" lon="5.79598">
        <ele>315.93</ele>
        <time>2019-01-06T10:41:41Z</time>
      </trkpt>
      <trkpt lat="43.39265" lon="5.79551">
        <ele>318.33</ele>
        <time>2019-01-06T10:41:47Z</time>
      </trkpt>
      <trkpt lat="43.3926" lon="5.79546">
        <ele>319.3</ele>
        <time>2019-01-06T10:41:48Z</time>
      </trkpt>
      <trkpt lat="43.39254" lon="5.79541">
        <ele>320.26</ele>
        <time>2019-01-06T10:41:49Z</time>
      </trkpt>
      <trkpt lat="43.39234" lon="5.79518">
        <ele>323.62</ele>
        <time>2019-01-06T10:41:53Z</time>
      </trkpt>
      <trkpt lat="43.3921" lon="5.79497">
        <ele>326.5</ele>
        <time>2019-01-06T10:41:57Z</time>
      </trkpt>
      <trkpt lat="43.39002" lon="5.79542">
        <ele>327.47</ele>
        <time>2019-01-06T10:42:05Z</time>
      </trkpt>
      <trkpt lat="43.38852" lon="5.79411">
        <ele>331.79</ele>
        <time>2019-01-06T10:42:17Z</time>
      </trkpt>
      <trkpt lat="43.3883" lon="5.79383">
        <ele>332.27</ele>
        <time>2019-01-06T10:42:19Z</time>
      </trkpt>
      <trkpt lat="43.38742" lon="5.79254">
        <ele>335.64</ele>
        <time>2019-01-06T10:42:28Z</time>
      </trkpt>
      <trkpt lat="43.38732" lon="5.79233">
        <ele>336.6</ele>
        <time>2019-01-06T10:42:29Z</time>
      </trkpt>
      <trkpt lat="43.38684" lon="5.79136">
        <ele>339.48</ele>
        <time>2019-01-06T10:42:35Z</time>
      </trkpt>
      <trkpt lat="43.38676" lon="5.79097">
        <ele>340.44</ele>
        <time>2019-01-06T10:42:37Z</time>
      </trkpt>
      <trkpt lat="43.38674" lon="5.79052">
        <ele>340.92</ele>
        <time>2019-01-06T10:42:39Z</time>
      </trkpt>
      <trkpt lat="43.38668" lon="5.79033">
        <ele>341.89</ele>
        <time>2019-01-06T10:42:40Z</time>
      </trkpt>
      <trkpt lat="43.38657" lon="5.7902">
        <ele>341.41</ele>
        <time>2019-01-06T10:42:41Z</time>
      </trkpt>
      <trkpt lat="43.3861" lon="5.78976">
        <ele>342.37</ele>
        <time>2019-01-06T10:42:45Z</time>
      </trkpt>
      <trkpt lat="43.38599" lon="5.78982">
        <ele>342.37</ele>
        <time>2019-01-06T10:42:46Z</time>
      </trkpt>
      <trkpt lat="43.38589" lon="5.79005">
        <ele>342.37</ele>
        <time>2019-01-06T10:42:47Z</time>
      </trkpt>
      <trkpt lat="43.3858" lon="5.79023">
        <ele>342.37</ele>
        <time>2019-01-06T10:42:48Z</time>
      </trkpt>
      <trkpt lat="43.38498" lon="5.79122">
        <ele>342.37</ele>
        <time>2019-01-06T10:42:55Z</time>
      </trkpt>
      <trkpt lat="43.38486" lon="5.79125">
        <ele>342.37</ele>
        <time>2019-01-06T10:42:56Z</time>
      </trkpt>
      <trkpt lat="43.38472" lon="5.79122">
        <ele>342.37</ele>
        <time>2019-01-06T10:42:57Z</time>
      </trkpt>
      <trkpt lat="43.38462" lon="5.79115">
        <ele>342.37</ele>
        <time>2019-01-06T10:42:58Z</time>
      </trkpt>
      <trkpt lat="43.3845" lon="5.79101">
        <ele>342.37</ele>
        <time>2019-01-06T10:42:59Z</time>
      </trkpt>
      <trkpt lat="43.38339" lon="5.78969">
        <ele>339.48</ele>
        <time>2019-01-06T10:43:10Z</time>
      </trkpt>
      <trkpt lat="43.38242" lon="5.78892">
        <ele>338.04</ele>
        <time>2019-01-06T10:43:20Z</time>
      </trkpt>
      <trkpt lat="43.38154" lon="5.78783">
        <ele>339.48</ele>
        <time>2019-01-06T10:43:32Z</time>
      </trkpt>
      <trkpt lat="43.38036" lon="5.78671">
        <ele>341.41</ele>
        <time>2019-01-06T10:43:45Z</time>
      </trkpt>
      <trkpt lat="43.37982" lon="5.78597">
        <ele>343.81</ele>
        <time>2019-01-06T10:43:53Z</time>
      </trkpt>
      <trkpt lat="43.37951" lon="5.78559">
        <ele>346.21</ele>
        <time>2019-01-06T10:43:57Z</time>
      </trkpt>
      <trkpt lat="43.37853" lon="5.78454">
        <ele>345.25</ele>
        <time>2019-01-06T10:44:10Z</time>
      </trkpt>
      <trkpt lat="43.37818" lon="5.78434">
        <ele>344.77</ele>
        <time>2019-01-06T10:44:14Z</time>
      </trkpt>
      <trkpt lat="43.37809" lon="5.78431">
        <ele>344.77</ele>
        <time>2019-01-06T10:44:15Z</time>
      </trkpt>
      <trkpt lat="43.37646" lon="5.78477">
        <ele>340.92</ele>
        <time>2019-01-06T10:44:26Z</time>
      </trkpt>
      <trkpt lat="43.37555" lon="5.78444">
        <ele>337.56</ele>
        <time>2019-01-06T10:44:36Z</time>
      </trkpt>
      <trkpt lat="43.37476" lon="5.78428">
        <ele>338.52</ele>
        <time>2019-01-06T10:44:45Z</time>
      </trkpt>
      <trkpt lat="43.3744" lon="5.78432">
        <ele>340.44</ele>
        <time>2019-01-06T10:44:49Z</time>
      </trkpt>
      <trkpt lat="43.37312" lon="5.78498">
        <ele>340.44</ele>
        <time>2019-01-06T10:45:04Z</time>
      </trkpt>
      <trkpt lat="43.37299" lon="5.78503">
        <ele>339</ele>
        <time>2019-01-06T10:45:06Z</time>
      </trkpt>
      <trkpt lat="43.37177" lon="5.78589">
        <ele>337.56</ele>
        <time>2019-01-06T10:45:22Z</time>
      </trkpt>
      <trkpt lat="43.37148" lon="5.78596">
        <ele>337.56</ele>
        <time>2019-01-06T10:45:26Z</time>
      </trkpt>
      <trkpt lat="43.37139" lon="5.78594">
        <ele>337.56</ele>
        <time>2019-01-06T10:45:27Z</time>
      </trkpt>
      <trkpt lat="43.37134" lon="5.78592">
        <ele>337.56</ele>
        <time>2019-01-06T10:45:28Z</time>
      </trkpt>
      <trkpt lat="43.37127" lon="5.78587">
        <ele>337.56</ele>
        <time>2019-01-06T10:45:29Z</time>
      </trkpt>
      <trkpt lat="43.37121" lon="5.78581">
        <ele>337.56</ele>
        <time>2019-01-06T10:45:30Z</time>
      </trkpt>
      <trkpt lat="43.37115" lon="5.78574">
        <ele>337.56</ele>
        <time>2019-01-06T10:45:31Z</time>
      </trkpt>
      <trkpt lat="43.37109" lon="5.78567">
        <ele>337.56</ele>
        <time>2019-01-06T10:45:32Z</time>
      </trkpt>
      <trkpt lat="43.37062" lon="5.78484">
        <ele>339</ele>
        <time>2019-01-06T10:45:41Z</time>
      </trkpt>
      <trkpt lat="43.37008" lon="5.78385">
        <ele>339.96</ele>
        <time>2019-01-06T10:45:55Z</time>
      </trkpt>
      <trkpt lat="43.37001" lon="5.78381">
        <ele>339.96</ele>
        <time>2019-01-06T10:45:58Z</time>
      </trkpt>
      <trkpt lat="43.36998" lon="5.78381">
        <ele>339.96</ele>
        <time>2019-01-06T10:45:59Z</time>
      </trkpt>
      <trkpt lat="43.36997" lon="5.78382">
        <ele>339.96</ele>
        <time>2019-01-06T10:46:00Z</time>
      </trkpt>
      <trkpt lat="43.36994" lon="5.78385">
        <ele>339.96</ele>
        <time>2019-01-06T10:46:01Z</time>
      </trkpt>
      <trkpt lat="43.36992" lon="5.78388">
        <ele>339.96</ele>
        <time>2019-01-06T10:46:02Z</time>
      </trkpt>
      <trkpt lat="43.36988" lon="5.78393">
        <ele>340.44</ele>
        <time>2019-01-06T10:46:03Z</time>
      </trkpt>
      <trkpt lat="43.36985" lon="5.78397">
        <ele>340.44</ele>
        <time>2019-01-06T10:46:04Z</time>
      </trkpt>
      <trkpt lat="43.36887" lon="5.78489">
        <ele>339.96</ele>
        <time>2019-01-06T10:46:19Z</time>
      </trkpt>
      <trkpt lat="43.36792" lon="5.78535">
        <ele>339.96</ele>
        <time>2019-01-06T10:46:34Z</time>
      </trkpt>
      <trkpt lat="43.36674" lon="5.78599">
        <ele>340.44</ele>
        <time>2019-01-06T10:46:48Z</time>
      </trkpt>
      <trkpt lat="43.36557" lon="5.78688">
        <ele>340.92</ele>
        <time>2019-01-06T10:47:03Z</time>
      </trkpt>
      <trkpt lat="43.36519" lon="5.78699">
        <ele>341.89</ele>
        <time>2019-01-06T10:47:07Z</time>
      </trkpt>
      <trkpt lat="43.36508" lon="5.78698">
        <ele>341.89</ele>
        <time>2019-01-06T10:47:08Z</time>
      </trkpt>
      <trkpt lat="43.36415" lon="5.7866">
        <ele>340.92</ele>
        <time>2019-01-06T10:47:19Z</time>
      </trkpt>
      <trkpt lat="43.36334" lon="5.78601">
        <ele>339.96</ele>
        <time>2019-01-06T10:47:28Z</time>
      </trkpt>
      <trkpt lat="43.36293" lon="5.78559">
        <ele>340.92</ele>
        <time>2019-01-06T10:47:32Z</time>
      </trkpt>
      <trkpt lat="43.36168" lon="5.7843">
        <ele>343.33</ele>
        <time>2019-01-06T10:47:44Z</time>
      </trkpt>
      <trkpt lat="43.36079" lon="5.78357">
        <ele>344.29</ele>
        <time>2019-01-06T10:47:55Z</time>
      </trkpt>
      <trkpt lat="43.36015" lon="5.78304">
        <ele>345.25</ele>
        <time>2019-01-06T10:48:07Z</time>
      </trkpt>
      <trkpt lat="43.3601" lon="5.78302">
        <ele>345.73</ele>
        <time>2019-01-06T10:48:08Z</time>
      </trkpt>
      <trkpt lat="43.35927" lon="5.78252">
        <ele>348.13</ele>
        <time>2019-01-06T10:48:23Z</time>
      </trkpt>
      <trkpt lat="43.35848" lon="5.78203">
        <ele>351.5</ele>
        <time>2019-01-06T10:48:33Z</time>
      </trkpt>
      <trkpt lat="43.3581" lon="5.78179">
        <ele>354.86</ele>
        <time>2019-01-06T10:48:38Z</time>
      </trkpt>
      <trkpt lat="43.35744" lon="5.78131">
        <ele>358.23</ele>
        <time>2019-01-06T10:48:46Z</time>
      </trkpt>
      <trkpt lat="43.35738" lon="5.78124">
        <ele>357.75</ele>
        <time>2019-01-06T10:48:47Z</time>
      </trkpt>
      <trkpt lat="43.35622" lon="5.77974">
        <ele>359.67</ele>
        <time>2019-01-06T10:49:02Z</time>
      </trkpt>
      <trkpt lat="43.35567" lon="5.7788">
        <ele>363.04</ele>
        <time>2019-01-06T10:49:11Z</time>
      </trkpt>
      <trkpt lat="43.35541" lon="5.77849">
        <ele>364.96</ele>
        <time>2019-01-06T10:49:14Z</time>
      </trkpt>
      <trkpt lat="43.35475" lon="5.77764">
        <ele>364.96</ele>
        <time>2019-01-06T10:49:26Z</time>
      </trkpt>
      <trkpt lat="43.35467" lon="5.77744">
        <ele>363.52</ele>
        <time>2019-01-06T10:49:38Z</time>
      </trkpt>
      <trkpt lat="43.3547" lon="5.77747">
        <ele>367.36</ele>
        <time>2019-01-06T10:49:39Z</time>
      </trkpt>
      <trkpt lat="43.3548" lon="5.77756">
        <ele>363.04</ele>
        <time>2019-01-06T10:49:47Z</time>
      </trkpt>
      <trkpt lat="43.35481" lon="5.77757">
        <ele>366.88</ele>
        <time>2019-01-06T10:49:49Z</time>
      </trkpt>
      <trkpt lat="43.35481" lon="5.77758">
        <ele>363.04</ele>
        <time>2019-01-06T10:49:55Z</time>
      </trkpt>
      <trkpt lat="43.35482" lon="5.77758">
        <ele>366.88</ele>
        <time>2019-01-06T10:49:56Z</time>
      </trkpt>
      <trkpt lat="43.35491" lon="5.77762">
        <ele>362.55</ele>
        <time>2019-01-06T10:50:21Z</time>
      </trkpt>
      <trkpt lat="43.3549" lon="5.77763">
        <ele>365.44</ele>
        <time>2019-01-06T10:50:26Z</time>
      </trkpt>
      <trkpt lat="43.35489" lon="5.77755">
        <ele>365.92</ele>
        <time>2019-01-06T10:50:46Z</time>
      </trkpt>
      <trkpt lat="43.35491" lon="5.77744">
        <ele>367.36</ele>
        <time>2019-01-06T10:51:11Z</time>
      </trkpt>
      <trkpt lat="43.35484" lon="5.77731">
        <ele>367.36</ele>
        <time>2019-01-06T10:51:28Z</time>
      </trkpt>
      <trkpt lat="43.35476" lon="5.77719">
        <ele>368.8</ele>
        <time>2019-01-06T10:51:43Z</time>
      </trkpt>
      <trkpt lat="43.35466" lon="5.7771">
        <ele>369.76</ele>
        <time>2019-01-06T10:51:59Z</time>
      </trkpt>
      <trkpt lat="43.35458" lon="5.77696">
        <ele>369.76</ele>
        <time>2019-01-06T10:52:19Z</time>
      </trkpt>
      <trkpt lat="43.35446" lon="5.77686">
        <ele>370.73</ele>
        <time>2019-01-06T10:52:39Z</time>
      </trkpt>
      <trkpt lat="43.35445" lon="5.77693">
        <ele>371.21</ele>
        <time>2019-01-06T10:53:02Z</time>
      </trkpt>
      <trkpt lat="43.35444" lon="5.77694">
        <ele>367.84</ele>
        <time>2019-01-06T10:53:09Z</time>
      </trkpt>
      <trkpt lat="43.35443" lon="5.77695">
        <ele>372.17</ele>
        <time>2019-01-06T10:53:12Z</time>
      </trkpt>
      <trkpt lat="43.35431" lon="5.77691">
        <ele>371.21</ele>
        <time>2019-01-06T10:53:33Z</time>
      </trkpt>
      <trkpt lat="43.35429" lon="5.77691">
        <ele>372.65</ele>
        <time>2019-01-06T10:53:35Z</time>
      </trkpt>
      <trkpt lat="43.35426" lon="5.7769">
        <ele>370.73</ele>
        <time>2019-01-06T10:53:38Z</time>
      </trkpt>
      <trkpt lat="43.35422" lon="5.77689">
        <ele>372.65</ele>
        <time>2019-01-06T10:53:41Z</time>
      </trkpt>
      <trkpt lat="43.35402" lon="5.77684">
        <ele>373.13</ele>
        <time>2019-01-06T10:54:02Z</time>
      </trkpt>
      <trkpt lat="43.35378" lon="5.7768">
        <ele>375.05</ele>
        <time>2019-01-06T10:54:24Z</time>
      </trkpt>
      <trkpt lat="43.35369" lon="5.7768">
        <ele>376.01</ele>
        <time>2019-01-06T10:54:32Z</time>
      </trkpt>
      <trkpt lat="43.35367" lon="5.7768">
        <ele>376.01</ele>
        <time>2019-01-06T10:54:33Z</time>
      </trkpt>
      <trkpt lat="43.35366" lon="5.7768">
        <ele>376.01</ele>
        <time>2019-01-06T10:54:34Z</time>
      </trkpt>
      <trkpt lat="43.35365" lon="5.77679">
        <ele>376.01</ele>
        <time>2019-01-06T10:54:35Z</time>
      </trkpt>
      <trkpt lat="43.35364" lon="5.77678">
        <ele>374.57</ele>
        <time>2019-01-06T10:54:36Z</time>
      </trkpt>
      <trkpt lat="43.3536" lon="5.77674">
        <ele>376.97</ele>
        <time>2019-01-06T10:54:41Z</time>
      </trkpt>
      <trkpt lat="43.35346" lon="5.77669">
        <ele>378.42</ele>
        <time>2019-01-06T10:54:56Z</time>
      </trkpt>
      <trkpt lat="43.3534" lon="5.77666">
        <ele>378.9</ele>
        <time>2019-01-06T10:55:03Z</time>
      </trkpt>
      <trkpt lat="43.35323" lon="5.77651">
        <ele>380.34</ele>
        <time>2019-01-06T10:55:19Z</time>
      </trkpt>
      <trkpt lat="43.3531" lon="5.77642">
        <ele>380.34</ele>
        <time>2019-01-06T10:55:31Z</time>
      </trkpt>
      <trkpt lat="43.35308" lon="5.77639">
        <ele>382.26</ele>
        <time>2019-01-06T10:55:33Z</time>
      </trkpt>
      <trkpt lat="43.35299" lon="5.77632">
        <ele>383.22</ele>
        <time>2019-01-06T10:55:42Z</time>
      </trkpt>
      <trkpt lat="43.35293" lon="5.77628">
        <ele>382.74</ele>
        <time>2019-01-06T10:55:50Z</time>
      </trkpt>
      <trkpt lat="43.35288" lon="5.77625">
        <ele>385.15</ele>
        <time>2019-01-06T10:55:55Z</time>
      </trkpt>
      <trkpt lat="43.35287" lon="5.77624">
        <ele>383.22</ele>
        <time>2019-01-06T10:55:57Z</time>
      </trkpt>
      <trkpt lat="43.35285" lon="5.77621">
        <ele>384.66</ele>
        <time>2019-01-06T10:55:59Z</time>
      </trkpt>
      <trkpt lat="43.35279" lon="5.77615">
        <ele>386.59</ele>
        <time>2019-01-06T10:56:07Z</time>
      </trkpt>
      <trkpt lat="43.35273" lon="5.77611">
        <ele>386.59</ele>
        <time>2019-01-06T10:56:18Z</time>
      </trkpt>
      <trkpt lat="43.35268" lon="5.77609">
        <ele>388.03</ele>
        <time>2019-01-06T10:56:24Z</time>
      </trkpt>
      <trkpt lat="43.3526" lon="5.77602">
        <ele>388.99</ele>
        <time>2019-01-06T10:56:36Z</time>
      </trkpt>
      <trkpt lat="43.35256" lon="5.776">
        <ele>390.43</ele>
        <time>2019-01-06T10:56:42Z</time>
      </trkpt>
      <trkpt lat="43.35252" lon="5.77597">
        <ele>391.87</ele>
        <time>2019-01-06T10:56:48Z</time>
      </trkpt>
      <trkpt lat="43.35241" lon="5.7759">
        <ele>393.32</ele>
        <time>2019-01-06T10:57:00Z</time>
      </trkpt>
      <trkpt lat="43.35233" lon="5.77581">
        <ele>395.72</ele>
        <time>2019-01-06T10:57:10Z</time>
      </trkpt>
      <trkpt lat="43.35229" lon="5.77578">
        <ele>395.72</ele>
        <time>2019-01-06T10:57:14Z</time>
      </trkpt>
      <trkpt lat="43.35223" lon="5.77573">
        <ele>396.2</ele>
        <time>2019-01-06T10:57:22Z</time>
      </trkpt>
      <trkpt lat="43.35219" lon="5.77571">
        <ele>396.68</ele>
        <time>2019-01-06T10:57:26Z</time>
      </trkpt>
      <trkpt lat="43.35212" lon="5.77561">
        <ele>399.08</ele>
        <time>2019-01-06T10:57:40Z</time>
      </trkpt>
      <trkpt lat="43.35212" lon="5.77556">
        <ele>400.05</ele>
        <time>2019-01-06T10:57:44Z</time>
      </trkpt>
      <trkpt lat="43.35211" lon="5.77555">
        <ele>400.05</ele>
        <time>2019-01-06T10:57:45Z</time>
      </trkpt>
      <trkpt lat="43.35207" lon="5.77537">
        <ele>400.53</ele>
        <time>2019-01-06T10:57:58Z</time>
      </trkpt>
      <trkpt lat="43.35204" lon="5.77521">
        <ele>400.53</ele>
        <time>2019-01-06T10:58:11Z</time>
      </trkpt>
      <trkpt lat="43.35201" lon="5.77504">
        <ele>400.53</ele>
        <time>2019-01-06T10:58:23Z</time>
      </trkpt>
      <trkpt lat="43.35201" lon="5.77484">
        <ele>401.49</ele>
        <time>2019-01-06T10:58:35Z</time>
      </trkpt>
      <trkpt lat="43.35201" lon="5.7746">
        <ele>401.01</ele>
        <time>2019-01-06T10:58:49Z</time>
      </trkpt>
      <trkpt lat="43.35203" lon="5.77455">
        <ele>401.49</ele>
        <time>2019-01-06T10:58:53Z</time>
      </trkpt>
      <trkpt lat="43.35204" lon="5.77451">
        <ele>399.57</ele>
        <time>2019-01-06T10:58:56Z</time>
      </trkpt>
      <trkpt lat="43.35205" lon="5.77449">
        <ele>401.97</ele>
        <time>2019-01-06T10:58:58Z</time>
      </trkpt>
      <trkpt lat="43.35208" lon="5.77446">
        <ele>400.53</ele>
        <time>2019-01-06T10:59:01Z</time>
      </trkpt>
      <trkpt lat="43.35209" lon="5.77444">
        <ele>401.97</ele>
        <time>2019-01-06T10:59:03Z</time>
      </trkpt>
      <trkpt lat="43.35209" lon="5.77431">
        <ele>400.53</ele>
        <time>2019-01-06T10:59:13Z</time>
      </trkpt>
      <trkpt lat="43.35209" lon="5.77428">
        <ele>401.97</ele>
        <time>2019-01-06T10:59:15Z</time>
      </trkpt>
      <trkpt lat="43.3521" lon="5.7741">
        <ele>401.49</ele>
        <time>2019-01-06T10:59:25Z</time>
      </trkpt>
      <trkpt lat="43.35211" lon="5.77404">
        <ele>402.93</ele>
        <time>2019-01-06T10:59:28Z</time>
      </trkpt>
      <trkpt lat="43.35212" lon="5.77396">
        <ele>403.41</ele>
        <time>2019-01-06T10:59:32Z</time>
      </trkpt>
      <trkpt lat="43.35212" lon="5.77378">
        <ele>403.89</ele>
        <time>2019-01-06T10:59:45Z</time>
      </trkpt>
      <trkpt lat="43.35214" lon="5.77353">
        <ele>405.81</ele>
        <time>2019-01-06T10:59:59Z</time>
      </trkpt>
      <trkpt lat="43.35214" lon="5.77335">
        <ele>405.33</ele>
        <time>2019-01-06T11:00:12Z</time>
      </trkpt>
      <trkpt lat="43.35215" lon="5.77332">
        <ele>406.77</ele>
        <time>2019-01-06T11:00:14Z</time>
      </trkpt>
      <trkpt lat="43.3522" lon="5.77306">
        <ele>407.26</ele>
        <time>2019-01-06T11:00:33Z</time>
      </trkpt>
      <trkpt lat="43.35219" lon="5.77301">
        <ele>405.33</ele>
        <time>2019-01-06T11:00:36Z</time>
      </trkpt>
      <trkpt lat="43.35218" lon="5.77297">
        <ele>407.74</ele>
        <time>2019-01-06T11:00:38Z</time>
      </trkpt>
      <trkpt lat="43.35218" lon="5.77293">
        <ele>406.29</ele>
        <time>2019-01-06T11:00:41Z</time>
      </trkpt>
      <trkpt lat="43.3522" lon="5.77269">
        <ele>408.22</ele>
        <time>2019-01-06T11:01:04Z</time>
      </trkpt>
      <trkpt lat="43.35221" lon="5.77266">
        <ele>407.26</ele>
        <time>2019-01-06T11:01:08Z</time>
      </trkpt>
      <trkpt lat="43.35222" lon="5.77265">
        <ele>408.7</ele>
        <time>2019-01-06T11:01:10Z</time>
      </trkpt>
      <trkpt lat="43.35214" lon="5.77239">
        <ele>411.1</ele>
        <time>2019-01-06T11:01:30Z</time>
      </trkpt>
      <trkpt lat="43.35209" lon="5.77226">
        <ele>411.58</ele>
        <time>2019-01-06T11:01:36Z</time>
      </trkpt>
      <trkpt lat="43.35208" lon="5.77224">
        <ele>411.1</ele>
        <time>2019-01-06T11:01:37Z</time>
      </trkpt>
      <trkpt lat="43.35203" lon="5.77199">
        <ele>410.62</ele>
        <time>2019-01-06T11:01:55Z</time>
      </trkpt>
      <trkpt lat="43.35201" lon="5.77179">
        <ele>411.1</ele>
        <time>2019-01-06T11:02:10Z</time>
      </trkpt>
      <trkpt lat="43.35201" lon="5.77176">
        <ele>411.1</ele>
        <time>2019-01-06T11:02:12Z</time>
      </trkpt>
      <trkpt lat="43.35201" lon="5.77175">
        <ele>411.1</ele>
        <time>2019-01-06T11:02:13Z</time>
      </trkpt>
      <trkpt lat="43.35203" lon="5.77143">
        <ele>413.02</ele>
        <time>2019-01-06T11:02:34Z</time>
      </trkpt>
      <trkpt lat="43.35203" lon="5.77135">
        <ele>411.1</ele>
        <time>2019-01-06T11:02:38Z</time>
      </trkpt>
      <trkpt lat="43.35204" lon="5.77131">
        <ele>413.02</ele>
        <time>2019-01-06T11:02:40Z</time>
      </trkpt>
      <trkpt lat="43.35204" lon="5.77128">
        <ele>412.06</ele>
        <time>2019-01-06T11:02:43Z</time>
      </trkpt>
      <trkpt lat="43.35204" lon="5.77126">
        <ele>413.02</ele>
        <time>2019-01-06T11:02:45Z</time>
      </trkpt>
      <trkpt lat="43.35204" lon="5.77122">
        <ele>411.1</ele>
        <time>2019-01-06T11:02:49Z</time>
      </trkpt>
      <trkpt lat="43.35204" lon="5.77121">
        <ele>412.54</ele>
        <time>2019-01-06T11:02:51Z</time>
      </trkpt>
      <trkpt lat="43.35205" lon="5.77118">
        <ele>411.58</ele>
        <time>2019-01-06T11:02:54Z</time>
      </trkpt>
      <trkpt lat="43.35209" lon="5.77115">
        <ele>412.54</ele>
        <time>2019-01-06T11:02:59Z</time>
      </trkpt>
      <trkpt lat="43.35216" lon="5.77108">
        <ele>411.1</ele>
        <time>2019-01-06T11:03:06Z</time>
      </trkpt>
      <trkpt lat="43.35219" lon="5.77106">
        <ele>412.06</ele>
        <time>2019-01-06T11:03:10Z</time>
      </trkpt>
      <trkpt lat="43.35224" lon="5.77105">
        <ele>410.62</ele>
        <time>2019-01-06T11:03:14Z</time>
      </trkpt>
      <trkpt lat="43.35226" lon="5.77106">
        <ele>411.58</ele>
        <time>2019-01-06T11:03:16Z</time>
      </trkpt>
      <trkpt lat="43.35238" lon="5.77102">
        <ele>410.14</ele>
        <time>2019-01-06T11:03:25Z</time>
      </trkpt>
      <trkpt lat="43.3524" lon="5.77101">
        <ele>411.58</ele>
        <time>2019-01-06T11:03:27Z</time>
      </trkpt>
      <trkpt lat="43.35255" lon="5.77099">
        <ele>410.62</ele>
        <time>2019-01-06T11:03:39Z</time>
      </trkpt>
      <trkpt lat="43.35257" lon="5.771">
        <ele>412.06</ele>
        <time>2019-01-06T11:03:41Z</time>
      </trkpt>
      <trkpt lat="43.35271" lon="5.77095">
        <ele>412.54</ele>
        <time>2019-01-06T11:04:01Z</time>
      </trkpt>
      <trkpt lat="43.35278" lon="5.77099">
        <ele>413.5</ele>
        <time>2019-01-06T11:04:19Z</time>
      </trkpt>
      <trkpt lat="43.35279" lon="5.77102">
        <ele>412.06</ele>
        <time>2019-01-06T11:04:23Z</time>
      </trkpt>
      <trkpt lat="43.35278" lon="5.77105">
        <ele>413.5</ele>
        <time>2019-01-06T11:04:30Z</time>
      </trkpt>
      <trkpt lat="43.35283" lon="5.77106">
        <ele>413.98</ele>
        <time>2019-01-06T11:04:37Z</time>
      </trkpt>
      <trkpt lat="43.35295" lon="5.771">
        <ele>415.43</ele>
        <time>2019-01-06T11:04:49Z</time>
      </trkpt>
      <trkpt lat="43.35298" lon="5.77091">
        <ele>415.91</ele>
        <time>2019-01-06T11:05:00Z</time>
      </trkpt>
      <trkpt lat="43.35296" lon="5.77074">
        <ele>416.87</ele>
        <time>2019-01-06T11:05:13Z</time>
      </trkpt>
      <trkpt lat="43.35295" lon="5.77056">
        <ele>417.35</ele>
        <time>2019-01-06T11:05:26Z</time>
      </trkpt>
      <trkpt lat="43.35296" lon="5.77054">
        <ele>417.35</ele>
        <time>2019-01-06T11:05:27Z</time>
      </trkpt>
      <trkpt lat="43.35296" lon="5.77052">
        <ele>417.35</ele>
        <time>2019-01-06T11:05:28Z</time>
      </trkpt>
      <trkpt lat="43.35298" lon="5.77049">
        <ele>417.83</ele>
        <time>2019-01-06T11:05:29Z</time>
      </trkpt>
      <trkpt lat="43.35303" lon="5.77037">
        <ele>419.27</ele>
        <time>2019-01-06T11:05:43Z</time>
      </trkpt>
      <trkpt lat="43.35297" lon="5.77023">
        <ele>420.71</ele>
        <time>2019-01-06T11:05:58Z</time>
      </trkpt>
      <trkpt lat="43.35289" lon="5.7701">
        <ele>421.19</ele>
        <time>2019-01-06T11:06:12Z</time>
      </trkpt>
      <trkpt lat="43.35288" lon="5.77009">
        <ele>421.68</ele>
        <time>2019-01-06T11:06:13Z</time>
      </trkpt>
      <trkpt lat="43.35278" lon="5.76997">
        <ele>423.12</ele>
        <time>2019-01-06T11:06:27Z</time>
      </trkpt>
      <trkpt lat="43.3527" lon="5.76984">
        <ele>424.56</ele>
        <time>2019-01-06T11:06:42Z</time>
      </trkpt>
      <trkpt lat="43.35261" lon="5.76968">
        <ele>425.52</ele>
        <time>2019-01-06T11:06:57Z</time>
      </trkpt>
      <trkpt lat="43.35257" lon="5.76954">
        <ele>426.48</ele>
        <time>2019-01-06T11:07:10Z</time>
      </trkpt>
      <trkpt lat="43.35252" lon="5.76943">
        <ele>427.44</ele>
        <time>2019-01-06T11:07:26Z</time>
      </trkpt>
      <trkpt lat="43.3525" lon="5.76938">
        <ele>427.92</ele>
        <time>2019-01-06T11:07:31Z</time>
      </trkpt>
      <trkpt lat="43.3525" lon="5.76927">
        <ele>428.89</ele>
        <time>2019-01-06T11:07:43Z</time>
      </trkpt>
      <trkpt lat="43.35247" lon="5.76911">
        <ele>429.85</ele>
        <time>2019-01-06T11:07:58Z</time>
      </trkpt>
      <trkpt lat="43.35245" lon="5.76892">
        <ele>431.77</ele>
        <time>2019-01-06T11:08:13Z</time>
      </trkpt>
      <trkpt lat="43.35239" lon="5.76875">
        <ele>433.69</ele>
        <time>2019-01-06T11:08:27Z</time>
      </trkpt>
      <trkpt lat="43.35233" lon="5.76868">
        <ele>435.13</ele>
        <time>2019-01-06T11:08:40Z</time>
      </trkpt>
      <trkpt lat="43.35226" lon="5.7687">
        <ele>433.69</ele>
        <time>2019-01-06T11:08:47Z</time>
      </trkpt>
      <trkpt lat="43.35225" lon="5.76869">
        <ele>433.69</ele>
        <time>2019-01-06T11:08:49Z</time>
      </trkpt>
      <trkpt lat="43.35221" lon="5.76862">
        <ele>434.65</ele>
        <time>2019-01-06T11:09:01Z</time>
      </trkpt>
      <trkpt lat="43.3522" lon="5.76851">
        <ele>435.13</ele>
        <time>2019-01-06T11:09:17Z</time>
      </trkpt>
      <trkpt lat="43.35213" lon="5.76836">
        <ele>437.54</ele>
        <time>2019-01-06T11:09:34Z</time>
      </trkpt>
      <trkpt lat="43.35212" lon="5.76832">
        <ele>438.02</ele>
        <time>2019-01-06T11:09:44Z</time>
      </trkpt>
      <trkpt lat="43.35205" lon="5.76816">
        <ele>438.98</ele>
        <time>2019-01-06T11:09:54Z</time>
      </trkpt>
      <trkpt lat="43.35201" lon="5.76812">
        <ele>440.42</ele>
        <time>2019-01-06T11:09:58Z</time>
      </trkpt>
      <trkpt lat="43.35197" lon="5.76797">
        <ele>441.38</ele>
        <time>2019-01-06T11:10:06Z</time>
      </trkpt>
      <trkpt lat="43.35193" lon="5.76786">
        <ele>442.34</ele>
        <time>2019-01-06T11:10:23Z</time>
      </trkpt>
      <trkpt lat="43.35188" lon="5.76778">
        <ele>443.79</ele>
        <time>2019-01-06T11:10:36Z</time>
      </trkpt>
      <trkpt lat="43.35185" lon="5.76773">
        <ele>443.79</ele>
        <time>2019-01-06T11:10:40Z</time>
      </trkpt>
      <trkpt lat="43.35177" lon="5.76765">
        <ele>443.31</ele>
        <time>2019-01-06T11:10:48Z</time>
      </trkpt>
      <trkpt lat="43.35177" lon="5.76775">
        <ele>443.79</ele>
        <time>2019-01-06T11:11:03Z</time>
      </trkpt>
      <trkpt lat="43.35178" lon="5.76777">
        <ele>445.23</ele>
        <time>2019-01-06T11:11:06Z</time>
      </trkpt>
      <trkpt lat="43.35175" lon="5.76769">
        <ele>444.27</ele>
        <time>2019-01-06T11:11:23Z</time>
      </trkpt>
      <trkpt lat="43.35172" lon="5.76765">
        <ele>445.71</ele>
        <time>2019-01-06T11:11:26Z</time>
      </trkpt>
      <trkpt lat="43.35162" lon="5.76756">
        <ele>445.23</ele>
        <time>2019-01-06T11:11:36Z</time>
      </trkpt>
      <trkpt lat="43.35149" lon="5.76741">
        <ele>444.75</ele>
        <time>2019-01-06T11:11:50Z</time>
      </trkpt>
      <trkpt lat="43.3514" lon="5.76732">
        <ele>445.23</ele>
        <time>2019-01-06T11:12:02Z</time>
      </trkpt>
      <trkpt lat="43.35137" lon="5.76727">
        <ele>444.75</ele>
        <time>2019-01-06T11:12:05Z</time>
      </trkpt>
      <trkpt lat="43.3513" lon="5.76718">
        <ele>444.75</ele>
        <time>2019-01-06T11:12:18Z</time>
      </trkpt>
      <trkpt lat="43.35122" lon="5.76704">
        <ele>444.75</ele>
        <time>2019-01-06T11:12:36Z</time>
      </trkpt>
      <trkpt lat="43.35115" lon="5.76696">
        <ele>444.27</ele>
        <time>2019-01-06T11:12:48Z</time>
      </trkpt>
      <trkpt lat="43.35108" lon="5.76684">
        <ele>444.27</ele>
        <time>2019-01-06T11:13:02Z</time>
      </trkpt>
      <trkpt lat="43.35101" lon="5.76666">
        <ele>444.27</ele>
        <time>2019-01-06T11:13:19Z</time>
      </trkpt>
      <trkpt lat="43.35097" lon="5.76652">
        <ele>443.79</ele>
        <time>2019-01-06T11:13:31Z</time>
      </trkpt>
      <trkpt lat="43.35094" lon="5.76638">
        <ele>442.34</ele>
        <time>2019-01-06T11:13:42Z</time>
      </trkpt>
      <trkpt lat="43.35091" lon="5.76628">
        <ele>441.38</ele>
        <time>2019-01-06T11:13:52Z</time>
      </trkpt>
      <trkpt lat="43.35092" lon="5.76622">
        <ele>440.9</ele>
        <time>2019-01-06T11:14:03Z</time>
      </trkpt>
      <trkpt lat="43.35087" lon="5.76604">
        <ele>440.9</ele>
        <time>2019-01-06T11:14:17Z</time>
      </trkpt>
      <trkpt lat="43.35087" lon="5.76594">
        <ele>439.94</ele>
        <time>2019-01-06T11:14:23Z</time>
      </trkpt>
      <trkpt lat="43.35086" lon="5.76593">
        <ele>439.94</ele>
        <time>2019-01-06T11:14:24Z</time>
      </trkpt>
      <trkpt lat="43.35086" lon="5.76591">
        <ele>439.94</ele>
        <time>2019-01-06T11:14:25Z</time>
      </trkpt>
      <trkpt lat="43.35085" lon="5.76588">
        <ele>439.94</ele>
        <time>2019-01-06T11:14:27Z</time>
      </trkpt>
      <trkpt lat="43.35085" lon="5.76586">
        <ele>439.46</ele>
        <time>2019-01-06T11:14:28Z</time>
      </trkpt>
      <trkpt lat="43.35084" lon="5.76585">
        <ele>439.46</ele>
        <time>2019-01-06T11:14:29Z</time>
      </trkpt>
      <trkpt lat="43.3508" lon="5.76574">
        <ele>438.98</ele>
        <time>2019-01-06T11:14:37Z</time>
      </trkpt>
      <trkpt lat="43.35081" lon="5.76572">
        <ele>438.5</ele>
        <time>2019-01-06T11:14:38Z</time>
      </trkpt>
      <trkpt lat="43.3508" lon="5.7657">
        <ele>438.5</ele>
        <time>2019-01-06T11:14:39Z</time>
      </trkpt>
      <trkpt lat="43.3508" lon="5.76555">
        <ele>436.58</ele>
        <time>2019-01-06T11:14:50Z</time>
      </trkpt>
      <trkpt lat="43.3508" lon="5.76547">
        <ele>436.58</ele>
        <time>2019-01-06T11:14:56Z</time>
      </trkpt>
      <trkpt lat="43.3508" lon="5.76546">
        <ele>436.1</ele>
        <time>2019-01-06T11:14:57Z</time>
      </trkpt>
      <trkpt lat="43.35075" lon="5.76525">
        <ele>435.61</ele>
        <time>2019-01-06T11:15:12Z</time>
      </trkpt>
      <trkpt lat="43.35061" lon="5.76507">
        <ele>435.61</ele>
        <time>2019-01-06T11:15:27Z</time>
      </trkpt>
      <trkpt lat="43.35059" lon="5.76492">
        <ele>434.65</ele>
        <time>2019-01-06T11:15:39Z</time>
      </trkpt>
      <trkpt lat="43.35057" lon="5.76485">
        <ele>434.65</ele>
        <time>2019-01-06T11:15:44Z</time>
      </trkpt>
      <trkpt lat="43.35054" lon="5.76479">
        <ele>434.17</ele>
        <time>2019-01-06T11:15:59Z</time>
      </trkpt>
      <trkpt lat="43.35051" lon="5.76477">
        <ele>433.69</ele>
        <time>2019-01-06T11:16:06Z</time>
      </trkpt>
      <trkpt lat="43.35044" lon="5.76471">
        <ele>433.21</ele>
        <time>2019-01-06T11:16:15Z</time>
      </trkpt>
      <trkpt lat="43.35043" lon="5.76471">
        <ele>433.21</ele>
        <time>2019-01-06T11:16:16Z</time>
      </trkpt>
      <trkpt lat="43.35037" lon="5.76469">
        <ele>432.25</ele>
        <time>2019-01-06T11:16:25Z</time>
      </trkpt>
      <trkpt lat="43.35035" lon="5.7647">
        <ele>432.25</ele>
        <time>2019-01-06T11:16:28Z</time>
      </trkpt>
      <trkpt lat="43.35034" lon="5.76471">
        <ele>431.77</ele>
        <time>2019-01-06T11:16:29Z</time>
      </trkpt>
      <trkpt lat="43.35032" lon="5.76472">
        <ele>431.77</ele>
        <time>2019-01-06T11:16:30Z</time>
      </trkpt>
      <trkpt lat="43.35031" lon="5.76473">
        <ele>431.77</ele>
        <time>2019-01-06T11:16:31Z</time>
      </trkpt>
      <trkpt lat="43.35027" lon="5.76474">
        <ele>430.81</ele>
        <time>2019-01-06T11:16:36Z</time>
      </trkpt>
      <trkpt lat="43.35014" lon="5.76477">
        <ele>430.33</ele>
        <time>2019-01-06T11:16:49Z</time>
      </trkpt>
      <trkpt lat="43.35008" lon="5.76476">
        <ele>429.85</ele>
        <time>2019-01-06T11:17:00Z</time>
      </trkpt>
      <trkpt lat="43.35006" lon="5.76475">
        <ele>429.85</ele>
        <time>2019-01-06T11:17:02Z</time>
      </trkpt>
      <trkpt lat="43.35004" lon="5.76474">
        <ele>429.85</ele>
        <time>2019-01-06T11:17:03Z</time>
      </trkpt>
      <trkpt lat="43.35003" lon="5.76473">
        <ele>429.37</ele>
        <time>2019-01-06T11:17:04Z</time>
      </trkpt>
      <trkpt lat="43.35001" lon="5.76472">
        <ele>429.37</ele>
        <time>2019-01-06T11:17:05Z</time>
      </trkpt>
      <trkpt lat="43.34998" lon="5.76471">
        <ele>429.85</ele>
        <time>2019-01-06T11:17:06Z</time>
      </trkpt>
      <trkpt lat="43.34997" lon="5.76471">
        <ele>429.85</ele>
        <time>2019-01-06T11:17:07Z</time>
      </trkpt>
      <trkpt lat="43.34995" lon="5.7647">
        <ele>429.37</ele>
        <time>2019-01-06T11:17:11Z</time>
      </trkpt>
      <trkpt lat="43.34994" lon="5.76469">
        <ele>428.89</ele>
        <time>2019-01-06T11:17:12Z</time>
      </trkpt>
      <trkpt lat="43.34992" lon="5.76468">
        <ele>428.89</ele>
        <time>2019-01-06T11:17:13Z</time>
      </trkpt>
      <trkpt lat="43.3499" lon="5.76467">
        <ele>428.4</ele>
        <time>2019-01-06T11:17:14Z</time>
      </trkpt>
      <trkpt lat="43.34989" lon="5.76465">
        <ele>428.4</ele>
        <time>2019-01-06T11:17:15Z</time>
      </trkpt>
      <trkpt lat="43.34987" lon="5.76464">
        <ele>428.4</ele>
        <time>2019-01-06T11:17:16Z</time>
      </trkpt>
      <trkpt lat="43.34986" lon="5.76464">
        <ele>428.4</ele>
        <time>2019-01-06T11:17:17Z</time>
      </trkpt>
      <trkpt lat="43.34977" lon="5.7646">
        <ele>427.44</ele>
        <time>2019-01-06T11:17:28Z</time>
      </trkpt>
      <trkpt lat="43.34973" lon="5.7646">
        <ele>427.44</ele>
        <time>2019-01-06T11:17:34Z</time>
      </trkpt>
      <trkpt lat="43.34972" lon="5.76459">
        <ele>427.44</ele>
        <time>2019-01-06T11:17:35Z</time>
      </trkpt>
      <trkpt lat="43.34971" lon="5.76458">
        <ele>427.44</ele>
        <time>2019-01-06T11:17:36Z</time>
      </trkpt>
      <trkpt lat="43.34967" lon="5.76461">
        <ele>427.44</ele>
        <time>2019-01-06T11:17:51Z</time>
      </trkpt>
      <trkpt lat="43.34965" lon="5.76463">
        <ele>428.89</ele>
        <time>2019-01-06T11:17:58Z</time>
      </trkpt>
      <trkpt lat="43.34964" lon="5.76463">
        <ele>428.89</ele>
        <time>2019-01-06T11:17:59Z</time>
      </trkpt>
      <trkpt lat="43.34964" lon="5.76455">
        <ele>427.44</ele>
        <time>2019-01-06T11:18:10Z</time>
      </trkpt>
      <trkpt lat="43.34962" lon="5.76449">
        <ele>426</ele>
        <time>2019-01-06T11:18:21Z</time>
      </trkpt>
      <trkpt lat="43.34957" lon="5.76441">
        <ele>423.6</ele>
        <time>2019-01-06T11:18:38Z</time>
      </trkpt>
      <trkpt lat="43.34953" lon="5.76432">
        <ele>421.19</ele>
        <time>2019-01-06T11:18:53Z</time>
      </trkpt>
      <trkpt lat="43.34948" lon="5.76433">
        <ele>419.75</ele>
        <time>2019-01-06T11:19:10Z</time>
      </trkpt>
      <trkpt lat="43.34946" lon="5.76432">
        <ele>421.19</ele>
        <time>2019-01-06T11:19:33Z</time>
      </trkpt>
      <trkpt lat="43.34946" lon="5.76432">
        <ele>421.19</ele>
        <time>2019-01-06T11:19:34Z</time>
      </trkpt>
      <trkpt lat="43.34946" lon="5.76433">
        <ele>419.27</ele>
        <time>2019-01-06T11:19:37Z</time>
      </trkpt>
      <trkpt lat="43.34948" lon="5.76436">
        <ele>418.79</ele>
        <time>2019-01-06T11:19:42Z</time>
      </trkpt>
      <trkpt lat="43.34955" lon="5.76416">
        <ele>421.19</ele>
        <time>2019-01-06T11:20:31Z</time>
      </trkpt>
      <trkpt lat="43.34947" lon="5.76413">
        <ele>413.5</ele>
        <time>2019-01-06T11:20:39Z</time>
      </trkpt>
      <trkpt lat="43.34946" lon="5.76413">
        <ele>416.87</ele>
        <time>2019-01-06T11:20:40Z</time>
      </trkpt>
      <trkpt lat="43.34946" lon="5.76412">
        <ele>419.75</ele>
        <time>2019-01-06T11:20:41Z</time>
      </trkpt>
      <trkpt lat="43.34946" lon="5.76412">
        <ele>419.75</ele>
        <time>2019-01-06T11:20:42Z</time>
      </trkpt>
      <trkpt lat="43.34945" lon="5.76409">
        <ele>424.56</ele>
        <time>2019-01-06T11:20:46Z</time>
      </trkpt>
      <trkpt lat="43.34943" lon="5.76404">
        <ele>420.71</ele>
        <time>2019-01-06T11:20:51Z</time>
      </trkpt>
      <trkpt lat="43.34947" lon="5.76422">
        <ele>420.71</ele>
        <time>2019-01-06T11:21:08Z</time>
      </trkpt>
      <trkpt lat="43.3495" lon="5.76431">
        <ele>421.19</ele>
        <time>2019-01-06T11:21:36Z</time>
      </trkpt>
      <trkpt lat="43.34953" lon="5.76428">
        <ele>420.23</ele>
        <time>2019-01-06T11:21:59Z</time>
      </trkpt>
      <trkpt lat="43.34953" lon="5.76426">
        <ele>420.23</ele>
        <time>2019-01-06T11:22:00Z</time>
      </trkpt>
      <trkpt lat="43.3495" lon="5.76424">
        <ele>421.68</ele>
        <time>2019-01-06T11:22:24Z</time>
      </trkpt>
      <trkpt lat="43.34949" lon="5.76428">
        <ele>422.16</ele>
        <time>2019-01-06T11:22:51Z</time>
      </trkpt>
      <trkpt lat="43.34948" lon="5.76426">
        <ele>420.71</ele>
        <time>2019-01-06T11:23:14Z</time>
      </trkpt>
      <trkpt lat="43.34948" lon="5.7644">
        <ele>421.68</ele>
        <time>2019-01-06T11:23:37Z</time>
      </trkpt>
      <trkpt lat="43.34952" lon="5.76432">
        <ele>423.12</ele>
        <time>2019-01-06T11:24:00Z</time>
      </trkpt>
      <trkpt lat="43.34959" lon="5.76422">
        <ele>423.6</ele>
        <time>2019-01-06T11:24:21Z</time>
      </trkpt>
      <trkpt lat="43.34958" lon="5.7643">
        <ele>426.96</ele>
        <time>2019-01-06T11:24:36Z</time>
      </trkpt>
      <trkpt lat="43.34961" lon="5.76442">
        <ele>429.85</ele>
        <time>2019-01-06T11:24:56Z</time>
      </trkpt>
      <trkpt lat="43.34961" lon="5.76447">
        <ele>433.69</ele>
        <time>2019-01-06T11:25:09Z</time>
      </trkpt>
      <trkpt lat="43.34964" lon="5.76448">
        <ele>433.21</ele>
        <time>2019-01-06T11:25:20Z</time>
      </trkpt>
      <trkpt lat="43.34953" lon="5.76451">
        <ele>435.13</ele>
        <time>2019-01-06T11:25:33Z</time>
      </trkpt>
      <trkpt lat="43.34952" lon="5.7645">
        <ele>433.21</ele>
        <time>2019-01-06T11:25:35Z</time>
      </trkpt>
      <trkpt lat="43.34951" lon="5.76449">
        <ele>435.61</ele>
        <time>2019-01-06T11:25:37Z</time>
      </trkpt>
      <trkpt lat="43.34938" lon="5.76444">
        <ele>435.61</ele>
        <time>2019-01-06T11:25:51Z</time>
      </trkpt>
      <trkpt lat="43.34928" lon="5.76438">
        <ele>434.17</ele>
        <time>2019-01-06T11:26:14Z</time>
      </trkpt>
      <trkpt lat="43.34911" lon="5.76437">
        <ele>433.69</ele>
        <time>2019-01-06T11:26:35Z</time>
      </trkpt>
      <trkpt lat="43.34908" lon="5.76436">
        <ele>433.69</ele>
        <time>2019-01-06T11:26:37Z</time>
      </trkpt>
      <trkpt lat="43.34895" lon="5.7643">
        <ele>433.21</ele>
        <time>2019-01-06T11:26:44Z</time>
      </trkpt>
      <trkpt lat="43.34894" lon="5.76429">
        <ele>433.21</ele>
        <time>2019-01-06T11:26:45Z</time>
      </trkpt>
      <trkpt lat="43.34889" lon="5.76425">
        <ele>433.21</ele>
        <time>2019-01-06T11:26:50Z</time>
      </trkpt>
      <trkpt lat="43.34873" lon="5.76425">
        <ele>433.21</ele>
        <time>2019-01-06T11:27:06Z</time>
      </trkpt>
      <trkpt lat="43.34869" lon="5.76423">
        <ele>434.17</ele>
        <time>2019-01-06T11:27:29Z</time>
      </trkpt>
      <trkpt lat="43.3487" lon="5.76418">
        <ele>433.21</ele>
        <time>2019-01-06T11:27:50Z</time>
      </trkpt>
      <trkpt lat="43.34865" lon="5.76424">
        <ele>435.13</ele>
        <time>2019-01-06T11:28:06Z</time>
      </trkpt>
      <trkpt lat="43.34861" lon="5.76424">
        <ele>435.61</ele>
        <time>2019-01-06T11:28:20Z</time>
      </trkpt>
      <trkpt lat="43.34847" lon="5.76419">
        <ele>440.9</ele>
        <time>2019-01-06T11:28:41Z</time>
      </trkpt>
      <trkpt lat="43.34846" lon="5.7642">
        <ele>440.9</ele>
        <time>2019-01-06T11:28:42Z</time>
      </trkpt>
      <trkpt lat="43.34839" lon="5.76423">
        <ele>439.46</ele>
        <time>2019-01-06T11:28:45Z</time>
      </trkpt>
      <trkpt lat="43.34836" lon="5.76425">
        <ele>440.42</ele>
        <time>2019-01-06T11:28:47Z</time>
      </trkpt>
      <trkpt lat="43.34806" lon="5.76432">
        <ele>442.82</ele>
        <time>2019-01-06T11:29:09Z</time>
      </trkpt>
      <trkpt lat="43.34777" lon="5.76428">
        <ele>442.82</ele>
        <time>2019-01-06T11:29:29Z</time>
      </trkpt>
      <trkpt lat="43.34766" lon="5.76426">
        <ele>442.34</ele>
        <time>2019-01-06T11:29:38Z</time>
      </trkpt>
      <trkpt lat="43.34743" lon="5.76408">
        <ele>443.79</ele>
        <time>2019-01-06T11:30:01Z</time>
      </trkpt>
      <trkpt lat="43.34738" lon="5.76393">
        <ele>445.23</ele>
        <time>2019-01-06T11:30:13Z</time>
      </trkpt>
      <trkpt lat="43.34737" lon="5.76392">
        <ele>443.79</ele>
        <time>2019-01-06T11:30:15Z</time>
      </trkpt>
      <trkpt lat="43.34732" lon="5.76386">
        <ele>445.23</ele>
        <time>2019-01-06T11:30:21Z</time>
      </trkpt>
      <trkpt lat="43.34722" lon="5.7638">
        <ele>446.67</ele>
        <time>2019-01-06T11:30:44Z</time>
      </trkpt>
      <trkpt lat="43.34721" lon="5.76378">
        <ele>443.79</ele>
        <time>2019-01-06T11:30:50Z</time>
      </trkpt>
      <trkpt lat="43.3472" lon="5.76376">
        <ele>448.59</ele>
        <time>2019-01-06T11:30:54Z</time>
      </trkpt>
      <trkpt lat="43.34719" lon="5.76376">
        <ele>448.59</ele>
        <time>2019-01-06T11:30:55Z</time>
      </trkpt>
      <trkpt lat="43.34718" lon="5.76376">
        <ele>444.75</ele>
        <time>2019-01-06T11:30:56Z</time>
      </trkpt>
      <trkpt lat="43.34717" lon="5.76376">
        <ele>448.11</ele>
        <time>2019-01-06T11:30:57Z</time>
      </trkpt>
      <trkpt lat="43.34713" lon="5.76375">
        <ele>446.19</ele>
        <time>2019-01-06T11:31:00Z</time>
      </trkpt>
      <trkpt lat="43.34705" lon="5.76371">
        <ele>446.19</ele>
        <time>2019-01-06T11:31:09Z</time>
      </trkpt>
      <trkpt lat="43.34704" lon="5.76371">
        <ele>448.11</ele>
        <time>2019-01-06T11:31:11Z</time>
      </trkpt>
      <trkpt lat="43.34696" lon="5.76364">
        <ele>448.59</ele>
        <time>2019-01-06T11:31:23Z</time>
      </trkpt>
      <trkpt lat="43.34693" lon="5.76351">
        <ele>448.59</ele>
        <time>2019-01-06T11:31:36Z</time>
      </trkpt>
      <trkpt lat="43.34692" lon="5.7635">
        <ele>450.52</ele>
        <time>2019-01-06T11:31:38Z</time>
      </trkpt>
      <trkpt lat="43.34672" lon="5.76321">
        <ele>451.48</ele>
        <time>2019-01-06T11:31:55Z</time>
      </trkpt>
      <trkpt lat="43.34671" lon="5.76319">
        <ele>451.48</ele>
        <time>2019-01-06T11:31:57Z</time>
      </trkpt>
      <trkpt lat="43.34666" lon="5.76313">
        <ele>451.48</ele>
        <time>2019-01-06T11:32:03Z</time>
      </trkpt>
      <trkpt lat="43.34657" lon="5.76293">
        <ele>452.44</ele>
        <time>2019-01-06T11:32:19Z</time>
      </trkpt>
      <trkpt lat="43.34645" lon="5.76281">
        <ele>451.48</ele>
        <time>2019-01-06T11:32:35Z</time>
      </trkpt>
      <trkpt lat="43.34627" lon="5.76277">
        <ele>454.36</ele>
        <time>2019-01-06T11:32:56Z</time>
      </trkpt>
      <trkpt lat="43.3462" lon="5.76278">
        <ele>454.36</ele>
        <time>2019-01-06T11:33:06Z</time>
      </trkpt>
      <trkpt lat="43.34614" lon="5.76282">
        <ele>450.52</ele>
        <time>2019-01-06T11:33:16Z</time>
      </trkpt>
      <trkpt lat="43.34613" lon="5.76283">
        <ele>450.52</ele>
        <time>2019-01-06T11:33:17Z</time>
      </trkpt>
      <trkpt lat="43.34613" lon="5.76284">
        <ele>456.76</ele>
        <time>2019-01-06T11:33:18Z</time>
      </trkpt>
      <trkpt lat="43.34612" lon="5.76284">
        <ele>455.32</ele>
        <time>2019-01-06T11:33:19Z</time>
      </trkpt>
      <trkpt lat="43.34612" lon="5.76286">
        <ele>453.88</ele>
        <time>2019-01-06T11:33:21Z</time>
      </trkpt>
      <trkpt lat="43.3461" lon="5.76287">
        <ele>450.03</ele>
        <time>2019-01-06T11:33:25Z</time>
      </trkpt>
      <trkpt lat="43.3461" lon="5.76287">
        <ele>453.4</ele>
        <time>2019-01-06T11:33:26Z</time>
      </trkpt>
      <trkpt lat="43.3461" lon="5.76288">
        <ele>453.4</ele>
        <time>2019-01-06T11:33:27Z</time>
      </trkpt>
      <trkpt lat="43.34606" lon="5.76281">
        <ele>463.01</ele>
        <time>2019-01-06T11:33:45Z</time>
      </trkpt>
      <trkpt lat="43.34605" lon="5.7628">
        <ele>463.01</ele>
        <time>2019-01-06T11:33:46Z</time>
      </trkpt>
      <trkpt lat="43.34605" lon="5.7628">
        <ele>454.84</ele>
        <time>2019-01-06T11:33:47Z</time>
      </trkpt>
      <trkpt lat="43.346" lon="5.76275">
        <ele>456.28</ele>
        <time>2019-01-06T11:33:52Z</time>
      </trkpt>
      <trkpt lat="43.34599" lon="5.76279">
        <ele>457.24</ele>
        <time>2019-01-06T11:33:57Z</time>
      </trkpt>
      <trkpt lat="43.34595" lon="5.76291">
        <ele>460.61</ele>
        <time>2019-01-06T11:34:05Z</time>
      </trkpt>
      <trkpt lat="43.34596" lon="5.76294">
        <ele>457.72</ele>
        <time>2019-01-06T11:34:08Z</time>
      </trkpt>
      <trkpt lat="43.34596" lon="5.76297">
        <ele>462.05</ele>
        <time>2019-01-06T11:34:11Z</time>
      </trkpt>
      <trkpt lat="43.3459" lon="5.76295">
        <ele>458.69</ele>
        <time>2019-01-06T11:34:22Z</time>
      </trkpt>
      <trkpt lat="43.34585" lon="5.76296">
        <ele>462.53</ele>
        <time>2019-01-06T11:34:32Z</time>
      </trkpt>
      <trkpt lat="43.34587" lon="5.76296">
        <ele>461.09</ele>
        <time>2019-01-06T11:34:50Z</time>
      </trkpt>
      <trkpt lat="43.34591" lon="5.76297">
        <ele>462.05</ele>
        <time>2019-01-06T11:35:11Z</time>
      </trkpt>
      <trkpt lat="43.34592" lon="5.76299">
        <ele>462.53</ele>
        <time>2019-01-06T11:35:39Z</time>
      </trkpt>
      <trkpt lat="43.34588" lon="5.76297">
        <ele>463.01</ele>
        <time>2019-01-06T11:35:59Z</time>
      </trkpt>
      <trkpt lat="43.3459" lon="5.76299">
        <ele>463.01</ele>
        <time>2019-01-06T11:36:17Z</time>
      </trkpt>
      <trkpt lat="43.34592" lon="5.763">
        <ele>461.57</ele>
        <time>2019-01-06T11:36:36Z</time>
      </trkpt>
      <trkpt lat="43.34592" lon="5.76295">
        <ele>461.09</ele>
        <time>2019-01-06T11:36:50Z</time>
      </trkpt>
      <trkpt lat="43.34592" lon="5.76294">
        <ele>460.61</ele>
        <time>2019-01-06T11:37:07Z</time>
      </trkpt>
      <trkpt lat="43.34592" lon="5.76295">
        <ele>461.09</ele>
        <time>2019-01-06T11:37:26Z</time>
      </trkpt>
      <trkpt lat="43.34593" lon="5.76292">
        <ele>460.61</ele>
        <time>2019-01-06T11:37:42Z</time>
      </trkpt>
      <trkpt lat="43.34596" lon="5.76293">
        <ele>460.61</ele>
        <time>2019-01-06T11:38:04Z</time>
      </trkpt>
      <trkpt lat="43.34595" lon="5.76301">
        <ele>461.09</ele>
        <time>2019-01-06T11:38:22Z</time>
      </trkpt>
      <trkpt lat="43.34595" lon="5.76302">
        <ele>457.24</ele>
        <time>2019-01-06T11:38:23Z</time>
      </trkpt>
      <trkpt lat="43.34595" lon="5.76302">
        <ele>463.49</ele>
        <time>2019-01-06T11:38:24Z</time>
      </trkpt>
      <trkpt lat="43.34595" lon="5.76303">
        <ele>459.65</ele>
        <time>2019-01-06T11:38:25Z</time>
      </trkpt>
      <trkpt lat="43.34602" lon="5.76294">
        <ele>461.09</ele>
        <time>2019-01-06T11:38:44Z</time>
      </trkpt>
      <trkpt lat="43.34603" lon="5.76295">
        <ele>459.65</ele>
        <time>2019-01-06T11:38:46Z</time>
      </trkpt>
      <trkpt lat="43.34604" lon="5.76295">
        <ele>455.32</ele>
        <time>2019-01-06T11:38:48Z</time>
      </trkpt>
      <trkpt lat="43.34604" lon="5.76295">
        <ele>458.69</ele>
        <time>2019-01-06T11:38:49Z</time>
      </trkpt>
      <trkpt lat="43.34604" lon="5.76295">
        <ele>458.69</ele>
        <time>2019-01-06T11:38:50Z</time>
      </trkpt>
      <trkpt lat="43.34607" lon="5.76294">
        <ele>461.09</ele>
        <time>2019-01-06T11:38:55Z</time>
      </trkpt>
      <trkpt lat="43.34609" lon="5.76295">
        <ele>462.05</ele>
        <time>2019-01-06T11:38:58Z</time>
      </trkpt>
      <trkpt lat="43.34609" lon="5.76295">
        <ele>459.17</ele>
        <time>2019-01-06T11:38:59Z</time>
      </trkpt>
      <trkpt lat="43.3461" lon="5.76295">
        <ele>460.61</ele>
        <time>2019-01-06T11:39:00Z</time>
      </trkpt>
      <trkpt lat="43.34612" lon="5.76295">
        <ele>461.57</ele>
        <time>2019-01-06T11:39:02Z</time>
      </trkpt>
      <trkpt lat="43.34613" lon="5.76295">
        <ele>460.13</ele>
        <time>2019-01-06T11:39:03Z</time>
      </trkpt>
      <trkpt lat="43.34615" lon="5.76297">
        <ele>454.36</ele>
        <time>2019-01-06T11:39:06Z</time>
      </trkpt>
      <trkpt lat="43.34615" lon="5.76297">
        <ele>458.21</ele>
        <time>2019-01-06T11:39:07Z</time>
      </trkpt>
      <trkpt lat="43.34619" lon="5.76299">
        <ele>453.4</ele>
        <time>2019-01-06T11:39:16Z</time>
      </trkpt>
      <trkpt lat="43.34619" lon="5.76299">
        <ele>453.4</ele>
        <time>2019-01-06T11:39:17Z</time>
      </trkpt>
      <trkpt lat="43.34619" lon="5.76298">
        <ele>463.01</ele>
        <time>2019-01-06T11:39:18Z</time>
      </trkpt>
      <trkpt lat="43.34619" lon="5.76297">
        <ele>460.61</ele>
        <time>2019-01-06T11:39:19Z</time>
      </trkpt>
      <trkpt lat="43.34618" lon="5.76296">
        <ele>460.13</ele>
        <time>2019-01-06T11:39:21Z</time>
      </trkpt>
      <trkpt lat="43.34616" lon="5.76289">
        <ele>464.45</ele>
        <time>2019-01-06T11:39:28Z</time>
      </trkpt>
      <trkpt lat="43.34614" lon="5.76286">
        <ele>460.61</ele>
        <time>2019-01-06T11:39:31Z</time>
      </trkpt>
      <trkpt lat="43.34596" lon="5.7629">
        <ele>460.13</ele>
        <time>2019-01-06T11:39:50Z</time>
      </trkpt>
      <trkpt lat="43.34596" lon="5.76292">
        <ele>453.88</ele>
        <time>2019-01-06T11:39:53Z</time>
      </trkpt>
      <trkpt lat="43.34597" lon="5.76293">
        <ele>453.88</ele>
        <time>2019-01-06T11:39:54Z</time>
      </trkpt>
      <trkpt lat="43.34597" lon="5.76293">
        <ele>466.38</ele>
        <time>2019-01-06T11:39:55Z</time>
      </trkpt>
      <trkpt lat="43.34597" lon="5.76293">
        <ele>461.09</ele>
        <time>2019-01-06T11:39:56Z</time>
      </trkpt>
      <trkpt lat="43.34599" lon="5.76294">
        <ele>459.65</ele>
        <time>2019-01-06T11:40:05Z</time>
      </trkpt>
      <trkpt lat="43.34601" lon="5.76292">
        <ele>462.53</ele>
        <time>2019-01-06T11:40:13Z</time>
      </trkpt>
      <trkpt lat="43.34601" lon="5.76292">
        <ele>458.21</ele>
        <time>2019-01-06T11:40:14Z</time>
      </trkpt>
      <trkpt lat="43.34602" lon="5.76292">
        <ele>457.72</ele>
        <time>2019-01-06T11:40:16Z</time>
      </trkpt>
      <trkpt lat="43.34602" lon="5.76292">
        <ele>464.45</ele>
        <time>2019-01-06T11:40:17Z</time>
      </trkpt>
      <trkpt lat="43.34603" lon="5.76288">
        <ele>457.72</ele>
        <time>2019-01-06T11:40:22Z</time>
      </trkpt>
      <trkpt lat="43.34602" lon="5.76288">
        <ele>463.01</ele>
        <time>2019-01-06T11:40:23Z</time>
      </trkpt>
      <trkpt lat="43.34602" lon="5.76288">
        <ele>460.61</ele>
        <time>2019-01-06T11:40:24Z</time>
      </trkpt>
      <trkpt lat="43.34599" lon="5.76288">
        <ele>455.32</ele>
        <time>2019-01-06T11:40:34Z</time>
      </trkpt>
      <trkpt lat="43.34598" lon="5.76288">
        <ele>464.93</ele>
        <time>2019-01-06T11:40:35Z</time>
      </trkpt>
      <trkpt lat="43.34598" lon="5.76289">
        <ele>460.61</ele>
        <time>2019-01-06T11:40:36Z</time>
      </trkpt>
      <trkpt lat="43.346" lon="5.76289">
        <ele>460.13</ele>
        <time>2019-01-06T11:40:56Z</time>
      </trkpt>
      <trkpt lat="43.34605" lon="5.76278">
        <ele>457.72</ele>
        <time>2019-01-06T11:41:19Z</time>
      </trkpt>
      <trkpt lat="43.34618" lon="5.76279">
        <ele>456.28</ele>
        <time>2019-01-06T11:41:40Z</time>
      </trkpt>
      <trkpt lat="43.34643" lon="5.76275">
        <ele>455.8</ele>
        <time>2019-01-06T11:42:00Z</time>
      </trkpt>
      <trkpt lat="43.34629" lon="5.76269">
        <ele>457.72</ele>
        <time>2019-01-06T11:42:20Z</time>
      </trkpt>
      <trkpt lat="43.34624" lon="5.7627">
        <ele>459.17</ele>
        <time>2019-01-06T11:42:25Z</time>
      </trkpt>
      <trkpt lat="43.34622" lon="5.76271">
        <ele>457.72</ele>
        <time>2019-01-06T11:42:27Z</time>
      </trkpt>
      <trkpt lat="43.34615" lon="5.76275">
        <ele>459.17</ele>
        <time>2019-01-06T11:42:34Z</time>
      </trkpt>
      <trkpt lat="43.34611" lon="5.76271">
        <ele>457.72</ele>
        <time>2019-01-06T11:42:41Z</time>
      </trkpt>
      <trkpt lat="43.34616" lon="5.76257">
        <ele>457.24</ele>
        <time>2019-01-06T11:43:02Z</time>
      </trkpt>
      <trkpt lat="43.34622" lon="5.76259">
        <ele>456.76</ele>
        <time>2019-01-06T11:43:23Z</time>
      </trkpt>
      <trkpt lat="43.3463" lon="5.76256">
        <ele>457.72</ele>
        <time>2019-01-06T11:43:41Z</time>
      </trkpt>
      <trkpt lat="43.34633" lon="5.76256">
        <ele>456.28</ele>
        <time>2019-01-06T11:43:43Z</time>
      </trkpt>
      <trkpt lat="43.34639" lon="5.76257">
        <ele>457.72</ele>
        <time>2019-01-06T11:43:45Z</time>
      </trkpt>
      <trkpt lat="43.34655" lon="5.76262">
        <ele>456.28</ele>
        <time>2019-01-06T11:44:02Z</time>
      </trkpt>
      <trkpt lat="43.34664" lon="5.76268">
        <ele>455.8</ele>
        <time>2019-01-06T11:44:14Z</time>
      </trkpt>
      <trkpt lat="43.34676" lon="5.76277">
        <ele>454.84</ele>
        <time>2019-01-06T11:44:29Z</time>
      </trkpt>
      <trkpt lat="43.34683" lon="5.76286">
        <ele>453.88</ele>
        <time>2019-01-06T11:44:41Z</time>
      </trkpt>
      <trkpt lat="43.34687" lon="5.76294">
        <ele>452.92</ele>
        <time>2019-01-06T11:44:51Z</time>
      </trkpt>
      <trkpt lat="43.34688" lon="5.76297">
        <ele>452.44</ele>
        <time>2019-01-06T11:45:12Z</time>
      </trkpt>
      <trkpt lat="43.34692" lon="5.76302">
        <ele>453.4</ele>
        <time>2019-01-06T11:45:29Z</time>
      </trkpt>
      <trkpt lat="43.34699" lon="5.76311">
        <ele>453.88</ele>
        <time>2019-01-06T11:45:42Z</time>
      </trkpt>
      <trkpt lat="43.347" lon="5.76313">
        <ele>453.88</ele>
        <time>2019-01-06T11:45:44Z</time>
      </trkpt>
      <trkpt lat="43.34707" lon="5.76322">
        <ele>452.44</ele>
        <time>2019-01-06T11:45:52Z</time>
      </trkpt>
      <trkpt lat="43.3471" lon="5.76333">
        <ele>451.96</ele>
        <time>2019-01-06T11:46:02Z</time>
      </trkpt>
      <trkpt lat="43.34716" lon="5.76342">
        <ele>451.48</ele>
        <time>2019-01-06T11:46:18Z</time>
      </trkpt>
      <trkpt lat="43.34712" lon="5.76341">
        <ele>450.52</ele>
        <time>2019-01-06T11:46:33Z</time>
      </trkpt>
      <trkpt lat="43.34713" lon="5.7634">
        <ele>451.96</ele>
        <time>2019-01-06T11:46:35Z</time>
      </trkpt>
      <trkpt lat="43.34726" lon="5.76347">
        <ele>451</ele>
        <time>2019-01-06T11:46:50Z</time>
      </trkpt>
      <trkpt lat="43.34738" lon="5.7636">
        <ele>449.07</ele>
        <time>2019-01-06T11:47:06Z</time>
      </trkpt>
      <trkpt lat="43.34745" lon="5.76368">
        <ele>448.59</ele>
        <time>2019-01-06T11:47:16Z</time>
      </trkpt>
      <trkpt lat="43.34744" lon="5.76371">
        <ele>444.75</ele>
        <time>2019-01-06T11:47:19Z</time>
      </trkpt>
      <trkpt lat="43.34744" lon="5.76371">
        <ele>438.98</ele>
        <time>2019-01-06T11:47:20Z</time>
      </trkpt>
      <trkpt lat="43.34744" lon="5.76371">
        <ele>450.03</ele>
        <time>2019-01-06T11:47:21Z</time>
      </trkpt>
      <trkpt lat="43.34743" lon="5.76371">
        <ele>449.07</ele>
        <time>2019-01-06T11:47:22Z</time>
      </trkpt>
      <trkpt lat="43.34743" lon="5.76371">
        <ele>448.11</ele>
        <time>2019-01-06T11:47:24Z</time>
      </trkpt>
      <trkpt lat="43.3475" lon="5.76382">
        <ele>447.15</ele>
        <time>2019-01-06T11:47:46Z</time>
      </trkpt>
      <trkpt lat="43.34751" lon="5.76385">
        <ele>453.88</ele>
        <time>2019-01-06T11:47:48Z</time>
      </trkpt>
      <trkpt lat="43.34742" lon="5.76378">
        <ele>449.07</ele>
        <time>2019-01-06T11:47:49Z</time>
      </trkpt>
      <trkpt lat="43.34735" lon="5.76372">
        <ele>448.11</ele>
        <time>2019-01-06T11:47:59Z</time>
      </trkpt>
      <trkpt lat="43.34736" lon="5.76372">
        <ele>450.03</ele>
        <time>2019-01-06T11:48:02Z</time>
      </trkpt>
      <trkpt lat="43.34737" lon="5.76371">
        <ele>449.07</ele>
        <time>2019-01-06T11:48:04Z</time>
      </trkpt>
      <trkpt lat="43.3475" lon="5.76382">
        <ele>447.63</ele>
        <time>2019-01-06T11:48:18Z</time>
      </trkpt>
      <trkpt lat="43.34757" lon="5.76389">
        <ele>448.59</ele>
        <time>2019-01-06T11:48:29Z</time>
      </trkpt>
      <trkpt lat="43.34772" lon="5.76403">
        <ele>445.23</ele>
        <time>2019-01-06T11:48:44Z</time>
      </trkpt>
      <trkpt lat="43.34773" lon="5.76408">
        <ele>441.86</ele>
        <time>2019-01-06T11:48:51Z</time>
      </trkpt>
      <trkpt lat="43.34773" lon="5.76407">
        <ele>446.19</ele>
        <time>2019-01-06T11:48:52Z</time>
      </trkpt>
      <trkpt lat="43.34773" lon="5.76406">
        <ele>444.75</ele>
        <time>2019-01-06T11:48:53Z</time>
      </trkpt>
      <trkpt lat="43.34772" lon="5.76401">
        <ele>451.96</ele>
        <time>2019-01-06T11:49:01Z</time>
      </trkpt>
      <trkpt lat="43.34772" lon="5.76401">
        <ele>446.19</ele>
        <time>2019-01-06T11:49:02Z</time>
      </trkpt>
      <trkpt lat="43.3477" lon="5.76402">
        <ele>445.71</ele>
        <time>2019-01-06T11:49:04Z</time>
      </trkpt>
      <trkpt lat="43.34789" lon="5.764">
        <ele>445.71</ele>
        <time>2019-01-06T11:49:21Z</time>
      </trkpt>
      <trkpt lat="43.34806" lon="5.76406">
        <ele>443.79</ele>
        <time>2019-01-06T11:49:39Z</time>
      </trkpt>
      <trkpt lat="43.34808" lon="5.76406">
        <ele>445.23</ele>
        <time>2019-01-06T11:49:42Z</time>
      </trkpt>
      <trkpt lat="43.34814" lon="5.7641">
        <ele>441.86</ele>
        <time>2019-01-06T11:49:52Z</time>
      </trkpt>
      <trkpt lat="43.34818" lon="5.76424">
        <ele>438.98</ele>
        <time>2019-01-06T11:50:07Z</time>
      </trkpt>
      <trkpt lat="43.34818" lon="5.76425">
        <ele>441.38</ele>
        <time>2019-01-06T11:50:09Z</time>
      </trkpt>
      <trkpt lat="43.34818" lon="5.76427">
        <ele>444.27</ele>
        <time>2019-01-06T11:50:12Z</time>
      </trkpt>
      <trkpt lat="43.34818" lon="5.76426">
        <ele>442.34</ele>
        <time>2019-01-06T11:50:14Z</time>
      </trkpt>
      <trkpt lat="43.34819" lon="5.76424">
        <ele>440.42</ele>
        <time>2019-01-06T11:50:16Z</time>
      </trkpt>
      <trkpt lat="43.34819" lon="5.76424">
        <ele>440.9</ele>
        <time>2019-01-06T11:50:20Z</time>
      </trkpt>
      <trkpt lat="43.34819" lon="5.76424">
        <ele>446.19</ele>
        <time>2019-01-06T11:50:21Z</time>
      </trkpt>
      <trkpt lat="43.34819" lon="5.76425">
        <ele>441.86</ele>
        <time>2019-01-06T11:50:25Z</time>
      </trkpt>
      <trkpt lat="43.3482" lon="5.76419">
        <ele>445.23</ele>
        <time>2019-01-06T11:50:33Z</time>
      </trkpt>
      <trkpt lat="43.34822" lon="5.76403">
        <ele>444.75</ele>
        <time>2019-01-06T11:50:44Z</time>
      </trkpt>
      <trkpt lat="43.34828" lon="5.764">
        <ele>444.27</ele>
        <time>2019-01-06T11:50:51Z</time>
      </trkpt>
      <trkpt lat="43.34836" lon="5.764">
        <ele>444.75</ele>
        <time>2019-01-06T11:51:00Z</time>
      </trkpt>
      <trkpt lat="43.3486" lon="5.76395">
        <ele>445.23</ele>
        <time>2019-01-06T11:51:21Z</time>
      </trkpt>
      <trkpt lat="43.34867" lon="5.76397">
        <ele>444.27</ele>
        <time>2019-01-06T11:51:28Z</time>
      </trkpt>
      <trkpt lat="43.34871" lon="5.76397">
        <ele>445.23</ele>
        <time>2019-01-06T11:51:31Z</time>
      </trkpt>
      <trkpt lat="43.3489" lon="5.76397">
        <ele>446.19</ele>
        <time>2019-01-06T11:51:45Z</time>
      </trkpt>
      <trkpt lat="43.34901" lon="5.76399">
        <ele>446.19</ele>
        <time>2019-01-06T11:51:55Z</time>
      </trkpt>
      <trkpt lat="43.34912" lon="5.76398">
        <ele>446.67</ele>
        <time>2019-01-06T11:52:07Z</time>
      </trkpt>
      <trkpt lat="43.34926" lon="5.76396">
        <ele>448.11</ele>
        <time>2019-01-06T11:52:21Z</time>
      </trkpt>
      <trkpt lat="43.34938" lon="5.76392">
        <ele>449.55</ele>
        <time>2019-01-06T11:52:34Z</time>
      </trkpt>
      <trkpt lat="43.34939" lon="5.76391">
        <ele>449.55</ele>
        <time>2019-01-06T11:52:35Z</time>
      </trkpt>
      <trkpt lat="43.34948" lon="5.76389">
        <ele>448.59</ele>
        <time>2019-01-06T11:52:43Z</time>
      </trkpt>
      <trkpt lat="43.34953" lon="5.76387">
        <ele>448.11</ele>
        <time>2019-01-06T11:52:52Z</time>
      </trkpt>
      <trkpt lat="43.34959" lon="5.76383">
        <ele>447.63</ele>
        <time>2019-01-06T11:53:00Z</time>
      </trkpt>
      <trkpt lat="43.34962" lon="5.76378">
        <ele>447.15</ele>
        <time>2019-01-06T11:53:06Z</time>
      </trkpt>
      <trkpt lat="43.34975" lon="5.76365">
        <ele>448.59</ele>
        <time>2019-01-06T11:53:21Z</time>
      </trkpt>
      <trkpt lat="43.34979" lon="5.7636">
        <ele>448.59</ele>
        <time>2019-01-06T11:53:30Z</time>
      </trkpt>
      <trkpt lat="43.3498" lon="5.76357">
        <ele>447.63</ele>
        <time>2019-01-06T11:53:34Z</time>
      </trkpt>
      <trkpt lat="43.34988" lon="5.7635">
        <ele>445.23</ele>
        <time>2019-01-06T11:53:46Z</time>
      </trkpt>
      <trkpt lat="43.3499" lon="5.7635">
        <ele>445.23</ele>
        <time>2019-01-06T11:53:47Z</time>
      </trkpt>
      <trkpt lat="43.34997" lon="5.76345">
        <ele>444.75</ele>
        <time>2019-01-06T11:53:57Z</time>
      </trkpt>
      <trkpt lat="43.35005" lon="5.76338">
        <ele>442.34</ele>
        <time>2019-01-06T11:54:09Z</time>
      </trkpt>
      <trkpt lat="43.35007" lon="5.76328">
        <ele>440.42</ele>
        <time>2019-01-06T11:54:20Z</time>
      </trkpt>
      <trkpt lat="43.35009" lon="5.7632">
        <ele>439.46</ele>
        <time>2019-01-06T11:54:27Z</time>
      </trkpt>
      <trkpt lat="43.35009" lon="5.76316">
        <ele>438.98</ele>
        <time>2019-01-06T11:54:30Z</time>
      </trkpt>
      <trkpt lat="43.35014" lon="5.76304">
        <ele>436.58</ele>
        <time>2019-01-06T11:54:42Z</time>
      </trkpt>
      <trkpt lat="43.35012" lon="5.76301">
        <ele>436.58</ele>
        <time>2019-01-06T11:54:53Z</time>
      </trkpt>
      <trkpt lat="43.35012" lon="5.76298">
        <ele>436.58</ele>
        <time>2019-01-06T11:54:56Z</time>
      </trkpt>
      <trkpt lat="43.35012" lon="5.76285">
        <ele>435.61</ele>
        <time>2019-01-06T11:55:09Z</time>
      </trkpt>
      <trkpt lat="43.35011" lon="5.76266">
        <ele>434.17</ele>
        <time>2019-01-06T11:55:24Z</time>
      </trkpt>
      <trkpt lat="43.35013" lon="5.76251">
        <ele>431.77</ele>
        <time>2019-01-06T11:55:39Z</time>
      </trkpt>
      <trkpt lat="43.35014" lon="5.76245">
        <ele>431.29</ele>
        <time>2019-01-06T11:55:44Z</time>
      </trkpt>
      <trkpt lat="43.35019" lon="5.76232">
        <ele>429.85</ele>
        <time>2019-01-06T11:55:58Z</time>
      </trkpt>
      <trkpt lat="43.35023" lon="5.76231">
        <ele>428.4</ele>
        <time>2019-01-06T11:56:03Z</time>
      </trkpt>
      <trkpt lat="43.3503" lon="5.76234">
        <ele>426.96</ele>
        <time>2019-01-06T11:56:16Z</time>
      </trkpt>
      <trkpt lat="43.35031" lon="5.76236">
        <ele>426</ele>
        <time>2019-01-06T11:56:36Z</time>
      </trkpt>
      <trkpt lat="43.35031" lon="5.76234">
        <ele>426</ele>
        <time>2019-01-06T11:56:52Z</time>
      </trkpt>
      <trkpt lat="43.35036" lon="5.76235">
        <ele>425.04</ele>
        <time>2019-01-06T11:57:03Z</time>
      </trkpt>
      <trkpt lat="43.35037" lon="5.76234">
        <ele>425.52</ele>
        <time>2019-01-06T11:57:31Z</time>
      </trkpt>
      <trkpt lat="43.35038" lon="5.7623">
        <ele>425.52</ele>
        <time>2019-01-06T11:57:53Z</time>
      </trkpt>
      <trkpt lat="43.3504" lon="5.7623">
        <ele>427.44</ele>
        <time>2019-01-06T11:57:55Z</time>
      </trkpt>
      <trkpt lat="43.35045" lon="5.76226">
        <ele>427.44</ele>
        <time>2019-01-06T11:58:02Z</time>
      </trkpt>
      <trkpt lat="43.35049" lon="5.76211">
        <ele>428.4</ele>
        <time>2019-01-06T11:58:14Z</time>
      </trkpt>
      <trkpt lat="43.35049" lon="5.76211">
        <ele>428.4</ele>
        <time>2019-01-06T11:58:15Z</time>
      </trkpt>
      <trkpt lat="43.35051" lon="5.76203">
        <ele>428.4</ele>
        <time>2019-01-06T11:58:20Z</time>
      </trkpt>
      <trkpt lat="43.35055" lon="5.76188">
        <ele>428.89</ele>
        <time>2019-01-06T11:58:30Z</time>
      </trkpt>
      <trkpt lat="43.35057" lon="5.7618">
        <ele>428.89</ele>
        <time>2019-01-06T11:58:37Z</time>
      </trkpt>
      <trkpt lat="43.3506" lon="5.76168">
        <ele>427.44</ele>
        <time>2019-01-06T11:58:44Z</time>
      </trkpt>
      <trkpt lat="43.35064" lon="5.76153">
        <ele>426</ele>
        <time>2019-01-06T11:58:54Z</time>
      </trkpt>
      <trkpt lat="43.35071" lon="5.7614">
        <ele>424.56</ele>
        <time>2019-01-06T11:59:04Z</time>
      </trkpt>
      <trkpt lat="43.35074" lon="5.7613">
        <ele>422.64</ele>
        <time>2019-01-06T11:59:15Z</time>
      </trkpt>
      <trkpt lat="43.3508" lon="5.76126">
        <ele>416.39</ele>
        <time>2019-01-06T11:59:32Z</time>
      </trkpt>
      <trkpt lat="43.35081" lon="5.76126">
        <ele>419.75</ele>
        <time>2019-01-06T11:59:33Z</time>
      </trkpt>
      <trkpt lat="43.35082" lon="5.76125">
        <ele>423.12</ele>
        <time>2019-01-06T11:59:37Z</time>
      </trkpt>
      <trkpt lat="43.35083" lon="5.76123">
        <ele>419.27</ele>
        <time>2019-01-06T11:59:42Z</time>
      </trkpt>
      <trkpt lat="43.35084" lon="5.76117">
        <ele>421.68</ele>
        <time>2019-01-06T11:59:45Z</time>
      </trkpt>
      <trkpt lat="43.35084" lon="5.76113">
        <ele>421.68</ele>
        <time>2019-01-06T11:59:49Z</time>
      </trkpt>
      <trkpt lat="43.35091" lon="5.76094">
        <ele>420.23</ele>
        <time>2019-01-06T12:00:07Z</time>
      </trkpt>
      <trkpt lat="43.35094" lon="5.76074">
        <ele>420.23</ele>
        <time>2019-01-06T12:00:27Z</time>
      </trkpt>
      <trkpt lat="43.351" lon="5.76052">
        <ele>419.75</ele>
        <time>2019-01-06T12:00:44Z</time>
      </trkpt>
      <trkpt lat="43.35105" lon="5.76048">
        <ele>419.75</ele>
        <time>2019-01-06T12:00:56Z</time>
      </trkpt>
      <trkpt lat="43.35118" lon="5.76044">
        <ele>419.75</ele>
        <time>2019-01-06T12:01:13Z</time>
      </trkpt>
      <trkpt lat="43.35124" lon="5.7604">
        <ele>421.19</ele>
        <time>2019-01-06T12:01:29Z</time>
      </trkpt>
      <trkpt lat="43.3513" lon="5.76046">
        <ele>421.68</ele>
        <time>2019-01-06T12:01:44Z</time>
      </trkpt>
      <trkpt lat="43.3513" lon="5.76046">
        <ele>421.68</ele>
        <time>2019-01-06T12:02:06Z</time>
      </trkpt>
      <trkpt lat="43.35123" lon="5.76045">
        <ele>422.16</ele>
        <time>2019-01-06T12:02:17Z</time>
      </trkpt>
      <trkpt lat="43.35107" lon="5.76044">
        <ele>423.12</ele>
        <time>2019-01-06T12:02:31Z</time>
      </trkpt>
      <trkpt lat="43.35102" lon="5.76045">
        <ele>423.6</ele>
        <time>2019-01-06T12:02:44Z</time>
      </trkpt>
      <trkpt lat="43.35113" lon="5.76046">
        <ele>423.6</ele>
        <time>2019-01-06T12:03:00Z</time>
      </trkpt>
      <trkpt lat="43.35125" lon="5.76043">
        <ele>422.64</ele>
        <time>2019-01-06T12:03:16Z</time>
      </trkpt>
      <trkpt lat="43.35135" lon="5.76042">
        <ele>422.16</ele>
        <time>2019-01-06T12:03:27Z</time>
      </trkpt>
      <trkpt lat="43.35149" lon="5.76037">
        <ele>421.19</ele>
        <time>2019-01-06T12:03:40Z</time>
      </trkpt>
      <trkpt lat="43.3516" lon="5.76027">
        <ele>421.19</ele>
        <time>2019-01-06T12:03:55Z</time>
      </trkpt>
      <trkpt lat="43.35165" lon="5.76018">
        <ele>420.23</ele>
        <time>2019-01-06T12:04:08Z</time>
      </trkpt>
      <trkpt lat="43.35173" lon="5.76009">
        <ele>420.23</ele>
        <time>2019-01-06T12:04:18Z</time>
      </trkpt>
      <trkpt lat="43.35179" lon="5.76004">
        <ele>420.23</ele>
        <time>2019-01-06T12:04:29Z</time>
      </trkpt>
      <trkpt lat="43.35185" lon="5.75991">
        <ele>419.75</ele>
        <time>2019-01-06T12:04:42Z</time>
      </trkpt>
      <trkpt lat="43.35191" lon="5.75987">
        <ele>419.75</ele>
        <time>2019-01-06T12:04:50Z</time>
      </trkpt>
      <trkpt lat="43.352" lon="5.75979">
        <ele>419.27</ele>
        <time>2019-01-06T12:05:05Z</time>
      </trkpt>
      <trkpt lat="43.35204" lon="5.75969">
        <ele>418.79</ele>
        <time>2019-01-06T12:05:15Z</time>
      </trkpt>
      <trkpt lat="43.35213" lon="5.7596">
        <ele>419.27</ele>
        <time>2019-01-06T12:05:25Z</time>
      </trkpt>
      <trkpt lat="43.35217" lon="5.75956">
        <ele>419.27</ele>
        <time>2019-01-06T12:05:31Z</time>
      </trkpt>
      <trkpt lat="43.3522" lon="5.75954">
        <ele>418.79</ele>
        <time>2019-01-06T12:05:35Z</time>
      </trkpt>
      <trkpt lat="43.35227" lon="5.7595">
        <ele>418.31</ele>
        <time>2019-01-06T12:05:41Z</time>
      </trkpt>
      <trkpt lat="43.35237" lon="5.75945">
        <ele>418.31</ele>
        <time>2019-01-06T12:05:53Z</time>
      </trkpt>
      <trkpt lat="43.35242" lon="5.75941">
        <ele>418.31</ele>
        <time>2019-01-06T12:06:07Z</time>
      </trkpt>
      <trkpt lat="43.35251" lon="5.75937">
        <ele>418.31</ele>
        <time>2019-01-06T12:06:20Z</time>
      </trkpt>
      <trkpt lat="43.35257" lon="5.75933">
        <ele>418.31</ele>
        <time>2019-01-06T12:06:26Z</time>
      </trkpt>
      <trkpt lat="43.3526" lon="5.75931">
        <ele>419.75</ele>
        <time>2019-01-06T12:06:29Z</time>
      </trkpt>
      <trkpt lat="43.35267" lon="5.7593">
        <ele>419.75</ele>
        <time>2019-01-06T12:06:35Z</time>
      </trkpt>
      <trkpt lat="43.35277" lon="5.75927">
        <ele>420.71</ele>
        <time>2019-01-06T12:06:46Z</time>
      </trkpt>
      <trkpt lat="43.35278" lon="5.7592">
        <ele>421.19</ele>
        <time>2019-01-06T12:06:50Z</time>
      </trkpt>
      <trkpt lat="43.35279" lon="5.75918">
        <ele>422.64</ele>
        <time>2019-01-06T12:06:58Z</time>
      </trkpt>
      <trkpt lat="43.35277" lon="5.75921">
        <ele>422.64</ele>
        <time>2019-01-06T12:07:00Z</time>
      </trkpt>
      <trkpt lat="43.35278" lon="5.75923">
        <ele>421.19</ele>
        <time>2019-01-06T12:07:02Z</time>
      </trkpt>
      <trkpt lat="43.35279" lon="5.75923">
        <ele>421.19</ele>
        <time>2019-01-06T12:07:03Z</time>
      </trkpt>
      <trkpt lat="43.35282" lon="5.75925">
        <ele>420.71</ele>
        <time>2019-01-06T12:07:06Z</time>
      </trkpt>
      <trkpt lat="43.35284" lon="5.75925">
        <ele>420.71</ele>
        <time>2019-01-06T12:07:07Z</time>
      </trkpt>
      <trkpt lat="43.35286" lon="5.75924">
        <ele>420.71</ele>
        <time>2019-01-06T12:07:08Z</time>
      </trkpt>
      <trkpt lat="43.35289" lon="5.75925">
        <ele>420.23</ele>
        <time>2019-01-06T12:07:13Z</time>
      </trkpt>
      <trkpt lat="43.35291" lon="5.75925">
        <ele>420.23</ele>
        <time>2019-01-06T12:07:14Z</time>
      </trkpt>
      <trkpt lat="43.35296" lon="5.75925">
        <ele>419.27</ele>
        <time>2019-01-06T12:07:22Z</time>
      </trkpt>
      <trkpt lat="43.3531" lon="5.75926">
        <ele>418.31</ele>
        <time>2019-01-06T12:07:38Z</time>
      </trkpt>
      <trkpt lat="43.35318" lon="5.75928">
        <ele>416.39</ele>
        <time>2019-01-06T12:07:50Z</time>
      </trkpt>
      <trkpt lat="43.35319" lon="5.75929">
        <ele>416.39</ele>
        <time>2019-01-06T12:08:03Z</time>
      </trkpt>
      <trkpt lat="43.35318" lon="5.75931">
        <ele>416.39</ele>
        <time>2019-01-06T12:08:04Z</time>
      </trkpt>
      <trkpt lat="43.35315" lon="5.75942">
        <ele>416.39</ele>
        <time>2019-01-06T12:08:17Z</time>
      </trkpt>
      <trkpt lat="43.35315" lon="5.75944">
        <ele>416.39</ele>
        <time>2019-01-06T12:08:26Z</time>
      </trkpt>
      <trkpt lat="43.35316" lon="5.75949">
        <ele>416.39</ele>
        <time>2019-01-06T12:08:38Z</time>
      </trkpt>
      <trkpt lat="43.35316" lon="5.7595">
        <ele>416.39</ele>
        <time>2019-01-06T12:08:57Z</time>
      </trkpt>
      <trkpt lat="43.35319" lon="5.75951">
        <ele>416.39</ele>
        <time>2019-01-06T12:09:04Z</time>
      </trkpt>
      <trkpt lat="43.35325" lon="5.75951">
        <ele>416.39</ele>
        <time>2019-01-06T12:09:17Z</time>
      </trkpt>
      <trkpt lat="43.35328" lon="5.7595">
        <ele>416.39</ele>
        <time>2019-01-06T12:09:26Z</time>
      </trkpt>
      <trkpt lat="43.35338" lon="5.75947">
        <ele>417.35</ele>
        <time>2019-01-06T12:09:38Z</time>
      </trkpt>
      <trkpt lat="43.35341" lon="5.75947">
        <ele>417.35</ele>
        <time>2019-01-06T12:09:41Z</time>
      </trkpt>
      <trkpt lat="43.35345" lon="5.75946">
        <ele>417.35</ele>
        <time>2019-01-06T12:09:46Z</time>
      </trkpt>
      <trkpt lat="43.35347" lon="5.75945">
        <ele>417.35</ele>
        <time>2019-01-06T12:09:47Z</time>
      </trkpt>
      <trkpt lat="43.35348" lon="5.75945">
        <ele>417.35</ele>
        <time>2019-01-06T12:09:48Z</time>
      </trkpt>
      <trkpt lat="43.3535" lon="5.75945">
        <ele>417.35</ele>
        <time>2019-01-06T12:09:51Z</time>
      </trkpt>
      <trkpt lat="43.35352" lon="5.75946">
        <ele>417.35</ele>
        <time>2019-01-06T12:09:52Z</time>
      </trkpt>
      <trkpt lat="43.35359" lon="5.75947">
        <ele>417.35</ele>
        <time>2019-01-06T12:10:01Z</time>
      </trkpt>
      <trkpt lat="43.3536" lon="5.75947">
        <ele>417.35</ele>
        <time>2019-01-06T12:10:02Z</time>
      </trkpt>
      <trkpt lat="43.35363" lon="5.75943">
        <ele>417.35</ele>
        <time>2019-01-06T12:10:07Z</time>
      </trkpt>
      <trkpt lat="43.35364" lon="5.75942">
        <ele>417.35</ele>
        <time>2019-01-06T12:10:08Z</time>
      </trkpt>
      <trkpt lat="43.35366" lon="5.7594">
        <ele>417.35</ele>
        <time>2019-01-06T12:10:09Z</time>
      </trkpt>
      <trkpt lat="43.35367" lon="5.75937">
        <ele>417.35</ele>
        <time>2019-01-06T12:10:10Z</time>
      </trkpt>
      <trkpt lat="43.35367" lon="5.75935">
        <ele>417.35</ele>
        <time>2019-01-06T12:10:11Z</time>
      </trkpt>
      <trkpt lat="43.35376" lon="5.75933">
        <ele>415.91</ele>
        <time>2019-01-06T12:10:18Z</time>
      </trkpt>
      <trkpt lat="43.35378" lon="5.75932">
        <ele>415.43</ele>
        <time>2019-01-06T12:10:19Z</time>
      </trkpt>
      <trkpt lat="43.35379" lon="5.75931">
        <ele>415.43</ele>
        <time>2019-01-06T12:10:20Z</time>
      </trkpt>
      <trkpt lat="43.3538" lon="5.7593">
        <ele>415.43</ele>
        <time>2019-01-06T12:10:21Z</time>
      </trkpt>
      <trkpt lat="43.35383" lon="5.75927">
        <ele>415.43</ele>
        <time>2019-01-06T12:10:26Z</time>
      </trkpt>
      <trkpt lat="43.35385" lon="5.75926">
        <ele>415.43</ele>
        <time>2019-01-06T12:10:27Z</time>
      </trkpt>
      <trkpt lat="43.35387" lon="5.75925">
        <ele>414.95</ele>
        <time>2019-01-06T12:10:29Z</time>
      </trkpt>
      <trkpt lat="43.35392" lon="5.75922">
        <ele>414.95</ele>
        <time>2019-01-06T12:10:34Z</time>
      </trkpt>
      <trkpt lat="43.35393" lon="5.75921">
        <ele>414.95</ele>
        <time>2019-01-06T12:10:35Z</time>
      </trkpt>
      <trkpt lat="43.35399" lon="5.75911">
        <ele>413.5</ele>
        <time>2019-01-06T12:10:42Z</time>
      </trkpt>
      <trkpt lat="43.35401" lon="5.7591">
        <ele>413.98</ele>
        <time>2019-01-06T12:10:43Z</time>
      </trkpt>
      <trkpt lat="43.35402" lon="5.75908">
        <ele>413.98</ele>
        <time>2019-01-06T12:10:44Z</time>
      </trkpt>
      <trkpt lat="43.35404" lon="5.75906">
        <ele>413.5</ele>
        <time>2019-01-06T12:10:47Z</time>
      </trkpt>
      <trkpt lat="43.35405" lon="5.75905">
        <ele>413.5</ele>
        <time>2019-01-06T12:10:48Z</time>
      </trkpt>
      <trkpt lat="43.35406" lon="5.75904">
        <ele>413.02</ele>
        <time>2019-01-06T12:10:49Z</time>
      </trkpt>
      <trkpt lat="43.35408" lon="5.75902">
        <ele>413.02</ele>
        <time>2019-01-06T12:10:53Z</time>
      </trkpt>
      <trkpt lat="43.35409" lon="5.759">
        <ele>413.02</ele>
        <time>2019-01-06T12:10:54Z</time>
      </trkpt>
      <trkpt lat="43.3541" lon="5.75899">
        <ele>413.02</ele>
        <time>2019-01-06T12:10:55Z</time>
      </trkpt>
      <trkpt lat="43.3541" lon="5.75898">
        <ele>413.02</ele>
        <time>2019-01-06T12:10:56Z</time>
      </trkpt>
      <trkpt lat="43.35411" lon="5.75895">
        <ele>412.06</ele>
        <time>2019-01-06T12:11:00Z</time>
      </trkpt>
      <trkpt lat="43.35412" lon="5.75893">
        <ele>412.06</ele>
        <time>2019-01-06T12:11:01Z</time>
      </trkpt>
      <trkpt lat="43.35412" lon="5.75891">
        <ele>412.06</ele>
        <time>2019-01-06T12:11:02Z</time>
      </trkpt>
      <trkpt lat="43.35414" lon="5.75887">
        <ele>413.98</ele>
        <time>2019-01-06T12:11:15Z</time>
      </trkpt>
      <trkpt lat="43.35418" lon="5.7588">
        <ele>412.54</ele>
        <time>2019-01-06T12:11:20Z</time>
      </trkpt>
      <trkpt lat="43.35429" lon="5.75863">
        <ele>412.54</ele>
        <time>2019-01-06T12:11:36Z</time>
      </trkpt>
      <trkpt lat="43.35434" lon="5.75856">
        <ele>412.54</ele>
        <time>2019-01-06T12:11:41Z</time>
      </trkpt>
      <trkpt lat="43.35438" lon="5.75853">
        <ele>412.06</ele>
        <time>2019-01-06T12:11:46Z</time>
      </trkpt>
      <trkpt lat="43.35441" lon="5.75851">
        <ele>411.58</ele>
        <time>2019-01-06T12:11:48Z</time>
      </trkpt>
      <trkpt lat="43.35441" lon="5.7585">
        <ele>411.58</ele>
        <time>2019-01-06T12:11:49Z</time>
      </trkpt>
      <trkpt lat="43.3545" lon="5.75838">
        <ele>411.1</ele>
        <time>2019-01-06T12:12:01Z</time>
      </trkpt>
      <trkpt lat="43.35459" lon="5.75826">
        <ele>411.1</ele>
        <time>2019-01-06T12:12:16Z</time>
      </trkpt>
      <trkpt lat="43.35463" lon="5.75824">
        <ele>411.1</ele>
        <time>2019-01-06T12:12:28Z</time>
      </trkpt>
      <trkpt lat="43.35469" lon="5.75818">
        <ele>412.54</ele>
        <time>2019-01-06T12:12:44Z</time>
      </trkpt>
      <trkpt lat="43.3548" lon="5.75811">
        <ele>412.06</ele>
        <time>2019-01-06T12:12:56Z</time>
      </trkpt>
      <trkpt lat="43.35483" lon="5.75809">
        <ele>412.06</ele>
        <time>2019-01-06T12:13:00Z</time>
      </trkpt>
      <trkpt lat="43.35485" lon="5.75808">
        <ele>412.06</ele>
        <time>2019-01-06T12:13:01Z</time>
      </trkpt>
      <trkpt lat="43.3549" lon="5.75804">
        <ele>412.54</ele>
        <time>2019-01-06T12:13:06Z</time>
      </trkpt>
      <trkpt lat="43.35498" lon="5.75796">
        <ele>412.06</ele>
        <time>2019-01-06T12:13:16Z</time>
      </trkpt>
      <trkpt lat="43.35512" lon="5.75788">
        <ele>412.06</ele>
        <time>2019-01-06T12:13:30Z</time>
      </trkpt>
      <trkpt lat="43.35521" lon="5.75784">
        <ele>412.06</ele>
        <time>2019-01-06T12:13:40Z</time>
      </trkpt>
      <trkpt lat="43.3553" lon="5.75777">
        <ele>412.06</ele>
        <time>2019-01-06T12:13:50Z</time>
      </trkpt>
      <trkpt lat="43.35539" lon="5.75771">
        <ele>412.06</ele>
        <time>2019-01-06T12:14:01Z</time>
      </trkpt>
      <trkpt lat="43.35541" lon="5.7577">
        <ele>412.06</ele>
        <time>2019-01-06T12:14:02Z</time>
      </trkpt>
      <trkpt lat="43.35542" lon="5.75768">
        <ele>412.06</ele>
        <time>2019-01-06T12:14:03Z</time>
      </trkpt>
      <trkpt lat="43.35548" lon="5.75763">
        <ele>412.06</ele>
        <time>2019-01-06T12:14:08Z</time>
      </trkpt>
      <trkpt lat="43.35549" lon="5.75763">
        <ele>412.06</ele>
        <time>2019-01-06T12:14:09Z</time>
      </trkpt>
      <trkpt lat="43.35551" lon="5.75762">
        <ele>412.06</ele>
        <time>2019-01-06T12:14:13Z</time>
      </trkpt>
      <trkpt lat="43.35552" lon="5.75761">
        <ele>412.06</ele>
        <time>2019-01-06T12:14:14Z</time>
      </trkpt>
      <trkpt lat="43.35554" lon="5.75756">
        <ele>412.06</ele>
        <time>2019-01-06T12:14:18Z</time>
      </trkpt>
      <trkpt lat="43.35555" lon="5.75754">
        <ele>412.06</ele>
        <time>2019-01-06T12:14:19Z</time>
      </trkpt>
      <trkpt lat="43.3556" lon="5.75748">
        <ele>411.1</ele>
        <time>2019-01-06T12:14:28Z</time>
      </trkpt>
      <trkpt lat="43.35562" lon="5.75747">
        <ele>411.1</ele>
        <time>2019-01-06T12:14:30Z</time>
      </trkpt>
      <trkpt lat="43.35563" lon="5.75746">
        <ele>411.1</ele>
        <time>2019-01-06T12:14:31Z</time>
      </trkpt>
      <trkpt lat="43.35566" lon="5.75744">
        <ele>410.62</ele>
        <time>2019-01-06T12:14:36Z</time>
      </trkpt>
      <trkpt lat="43.35575" lon="5.75742">
        <ele>410.62</ele>
        <time>2019-01-06T12:14:46Z</time>
      </trkpt>
      <trkpt lat="43.35579" lon="5.75741">
        <ele>410.62</ele>
        <time>2019-01-06T12:14:49Z</time>
      </trkpt>
      <trkpt lat="43.3558" lon="5.7574">
        <ele>410.62</ele>
        <time>2019-01-06T12:14:50Z</time>
      </trkpt>
      <trkpt lat="43.35586" lon="5.75738">
        <ele>410.62</ele>
        <time>2019-01-06T12:14:55Z</time>
      </trkpt>
      <trkpt lat="43.35587" lon="5.75738">
        <ele>410.62</ele>
        <time>2019-01-06T12:14:56Z</time>
      </trkpt>
      <trkpt lat="43.35596" lon="5.75729">
        <ele>410.62</ele>
        <time>2019-01-06T12:15:07Z</time>
      </trkpt>
      <trkpt lat="43.35604" lon="5.75717">
        <ele>409.66</ele>
        <time>2019-01-06T12:15:21Z</time>
      </trkpt>
      <trkpt lat="43.35618" lon="5.75704">
        <ele>408.7</ele>
        <time>2019-01-06T12:15:36Z</time>
      </trkpt>
      <trkpt lat="43.35625" lon="5.75696">
        <ele>408.22</ele>
        <time>2019-01-06T12:15:46Z</time>
      </trkpt>
      <trkpt lat="43.3563" lon="5.75688">
        <ele>408.22</ele>
        <time>2019-01-06T12:15:56Z</time>
      </trkpt>
      <trkpt lat="43.35632" lon="5.75685">
        <ele>408.22</ele>
        <time>2019-01-06T12:15:58Z</time>
      </trkpt>
      <trkpt lat="43.35636" lon="5.75682">
        <ele>407.74</ele>
        <time>2019-01-06T12:16:04Z</time>
      </trkpt>
      <trkpt lat="43.35638" lon="5.75681">
        <ele>406.77</ele>
        <time>2019-01-06T12:16:05Z</time>
      </trkpt>
      <trkpt lat="43.3564" lon="5.75679">
        <ele>406.77</ele>
        <time>2019-01-06T12:16:06Z</time>
      </trkpt>
      <trkpt lat="43.3564" lon="5.75676">
        <ele>406.77</ele>
        <time>2019-01-06T12:16:13Z</time>
      </trkpt>
      <trkpt lat="43.35641" lon="5.75674">
        <ele>406.77</ele>
        <time>2019-01-06T12:16:14Z</time>
      </trkpt>
      <trkpt lat="43.35643" lon="5.75672">
        <ele>406.77</ele>
        <time>2019-01-06T12:16:15Z</time>
      </trkpt>
      <trkpt lat="43.35644" lon="5.75671">
        <ele>406.77</ele>
        <time>2019-01-06T12:16:16Z</time>
      </trkpt>
      <trkpt lat="43.35644" lon="5.7567">
        <ele>406.77</ele>
        <time>2019-01-06T12:16:17Z</time>
      </trkpt>
      <trkpt lat="43.35647" lon="5.75668">
        <ele>406.77</ele>
        <time>2019-01-06T12:16:21Z</time>
      </trkpt>
      <trkpt lat="43.35648" lon="5.75667">
        <ele>406.77</ele>
        <time>2019-01-06T12:16:22Z</time>
      </trkpt>
      <trkpt lat="43.3565" lon="5.75666">
        <ele>406.77</ele>
        <time>2019-01-06T12:16:23Z</time>
      </trkpt>
      <trkpt lat="43.35652" lon="5.75665">
        <ele>406.77</ele>
        <time>2019-01-06T12:16:24Z</time>
      </trkpt>
      <trkpt lat="43.35655" lon="5.75661">
        <ele>406.77</ele>
        <time>2019-01-06T12:16:29Z</time>
      </trkpt>
      <trkpt lat="43.35656" lon="5.75661">
        <ele>406.77</ele>
        <time>2019-01-06T12:16:30Z</time>
      </trkpt>
      <trkpt lat="43.35658" lon="5.7566">
        <ele>406.77</ele>
        <time>2019-01-06T12:16:31Z</time>
      </trkpt>
      <trkpt lat="43.35659" lon="5.75659">
        <ele>406.77</ele>
        <time>2019-01-06T12:16:32Z</time>
      </trkpt>
      <trkpt lat="43.35668" lon="5.75656">
        <ele>406.77</ele>
        <time>2019-01-06T12:16:42Z</time>
      </trkpt>
      <trkpt lat="43.35669" lon="5.75655">
        <ele>406.77</ele>
        <time>2019-01-06T12:16:43Z</time>
      </trkpt>
      <trkpt lat="43.35671" lon="5.75654">
        <ele>406.77</ele>
        <time>2019-01-06T12:16:44Z</time>
      </trkpt>
      <trkpt lat="43.35677" lon="5.75649">
        <ele>406.29</ele>
        <time>2019-01-06T12:16:50Z</time>
      </trkpt>
      <trkpt lat="43.3568" lon="5.75646">
        <ele>406.29</ele>
        <time>2019-01-06T12:16:55Z</time>
      </trkpt>
      <trkpt lat="43.35682" lon="5.75645">
        <ele>406.29</ele>
        <time>2019-01-06T12:16:56Z</time>
      </trkpt>
      <trkpt lat="43.35684" lon="5.75644">
        <ele>405.81</ele>
        <time>2019-01-06T12:16:57Z</time>
      </trkpt>
      <trkpt lat="43.35687" lon="5.75642">
        <ele>406.29</ele>
        <time>2019-01-06T12:17:01Z</time>
      </trkpt>
      <trkpt lat="43.35693" lon="5.75641">
        <ele>405.81</ele>
        <time>2019-01-06T12:17:08Z</time>
      </trkpt>
      <trkpt lat="43.35695" lon="5.7564">
        <ele>405.81</ele>
        <time>2019-01-06T12:17:09Z</time>
      </trkpt>
      <trkpt lat="43.35699" lon="5.75639">
        <ele>405.81</ele>
        <time>2019-01-06T12:17:17Z</time>
      </trkpt>
      <trkpt lat="43.35704" lon="5.75636">
        <ele>405.81</ele>
        <time>2019-01-06T12:17:27Z</time>
      </trkpt>
      <trkpt lat="43.35706" lon="5.75633">
        <ele>405.33</ele>
        <time>2019-01-06T12:17:31Z</time>
      </trkpt>
      <trkpt lat="43.35707" lon="5.75634">
        <ele>405.33</ele>
        <time>2019-01-06T12:17:44Z</time>
      </trkpt>
      <trkpt lat="43.35709" lon="5.75635">
        <ele>405.33</ele>
        <time>2019-01-06T12:18:04Z</time>
      </trkpt>
      <trkpt lat="43.35717" lon="5.75631">
        <ele>406.77</ele>
        <time>2019-01-06T12:18:21Z</time>
      </trkpt>
      <trkpt lat="43.35725" lon="5.75626">
        <ele>406.77</ele>
        <time>2019-01-06T12:18:32Z</time>
      </trkpt>
      <trkpt lat="43.35731" lon="5.75616">
        <ele>406.77</ele>
        <time>2019-01-06T12:18:42Z</time>
      </trkpt>
      <trkpt lat="43.35733" lon="5.75613">
        <ele>406.77</ele>
        <time>2019-01-06T12:18:49Z</time>
      </trkpt>
      <trkpt lat="43.35739" lon="5.75598">
        <ele>406.77</ele>
        <time>2019-01-06T12:18:59Z</time>
      </trkpt>
      <trkpt lat="43.35744" lon="5.75588">
        <ele>407.26</ele>
        <time>2019-01-06T12:19:09Z</time>
      </trkpt>
      <trkpt lat="43.35745" lon="5.75587">
        <ele>407.26</ele>
        <time>2019-01-06T12:19:10Z</time>
      </trkpt>
      <trkpt lat="43.35746" lon="5.75585">
        <ele>407.26</ele>
        <time>2019-01-06T12:19:11Z</time>
      </trkpt>
      <trkpt lat="43.35747" lon="5.75584">
        <ele>407.26</ele>
        <time>2019-01-06T12:19:12Z</time>
      </trkpt>
      <trkpt lat="43.35748" lon="5.75582">
        <ele>407.26</ele>
        <time>2019-01-06T12:19:13Z</time>
      </trkpt>
      <trkpt lat="43.35757" lon="5.75564">
        <ele>407.26</ele>
        <time>2019-01-06T12:19:29Z</time>
      </trkpt>
      <trkpt lat="43.35763" lon="5.75551">
        <ele>407.26</ele>
        <time>2019-01-06T12:19:40Z</time>
      </trkpt>
      <trkpt lat="43.35764" lon="5.75551">
        <ele>407.26</ele>
        <time>2019-01-06T12:19:41Z</time>
      </trkpt>
      <trkpt lat="43.35767" lon="5.75547">
        <ele>407.26</ele>
        <time>2019-01-06T12:19:45Z</time>
      </trkpt>
      <trkpt lat="43.35768" lon="5.75546">
        <ele>407.26</ele>
        <time>2019-01-06T12:19:46Z</time>
      </trkpt>
      <trkpt lat="43.35773" lon="5.75539">
        <ele>407.26</ele>
        <time>2019-01-06T12:19:58Z</time>
      </trkpt>
      <trkpt lat="43.35778" lon="5.75523">
        <ele>405.33</ele>
        <time>2019-01-06T12:20:11Z</time>
      </trkpt>
      <trkpt lat="43.35779" lon="5.75521">
        <ele>406.77</ele>
        <time>2019-01-06T12:20:13Z</time>
      </trkpt>
      <trkpt lat="43.35792" lon="5.755">
        <ele>405.81</ele>
        <time>2019-01-06T12:20:35Z</time>
      </trkpt>
      <trkpt lat="43.35796" lon="5.75494">
        <ele>406.29</ele>
        <time>2019-01-06T12:20:41Z</time>
      </trkpt>
      <trkpt lat="43.35802" lon="5.75484">
        <ele>405.33</ele>
        <time>2019-01-06T12:20:49Z</time>
      </trkpt>
      <trkpt lat="43.35807" lon="5.75469">
        <ele>405.33</ele>
        <time>2019-01-06T12:21:09Z</time>
      </trkpt>
      <trkpt lat="43.35815" lon="5.75456">
        <ele>406.29</ele>
        <time>2019-01-06T12:21:22Z</time>
      </trkpt>
      <trkpt lat="43.35817" lon="5.7545">
        <ele>404.85</ele>
        <time>2019-01-06T12:21:26Z</time>
      </trkpt>
      <trkpt lat="43.35821" lon="5.75444">
        <ele>404.37</ele>
        <time>2019-01-06T12:21:43Z</time>
      </trkpt>
      <trkpt lat="43.35822" lon="5.7544">
        <ele>405.81</ele>
        <time>2019-01-06T12:21:52Z</time>
      </trkpt>
      <trkpt lat="43.35821" lon="5.75437">
        <ele>404.37</ele>
        <time>2019-01-06T12:21:55Z</time>
      </trkpt>
      <trkpt lat="43.35828" lon="5.7543">
        <ele>405.81</ele>
        <time>2019-01-06T12:22:15Z</time>
      </trkpt>
      <trkpt lat="43.35831" lon="5.75426">
        <ele>405.33</ele>
        <time>2019-01-06T12:22:20Z</time>
      </trkpt>
      <trkpt lat="43.35834" lon="5.75423">
        <ele>405.33</ele>
        <time>2019-01-06T12:22:25Z</time>
      </trkpt>
      <trkpt lat="43.35835" lon="5.75422">
        <ele>405.81</ele>
        <time>2019-01-06T12:22:26Z</time>
      </trkpt>
      <trkpt lat="43.35837" lon="5.7542">
        <ele>405.81</ele>
        <time>2019-01-06T12:22:27Z</time>
      </trkpt>
      <trkpt lat="43.3584" lon="5.75416">
        <ele>405.33</ele>
        <time>2019-01-06T12:22:32Z</time>
      </trkpt>
      <trkpt lat="43.35847" lon="5.75405">
        <ele>405.33</ele>
        <time>2019-01-06T12:22:41Z</time>
      </trkpt>
      <trkpt lat="43.35847" lon="5.75401">
        <ele>404.37</ele>
        <time>2019-01-06T12:22:46Z</time>
      </trkpt>
      <trkpt lat="43.35849" lon="5.75399">
        <ele>404.37</ele>
        <time>2019-01-06T12:22:47Z</time>
      </trkpt>
      <trkpt lat="43.3585" lon="5.75396">
        <ele>404.37</ele>
        <time>2019-01-06T12:22:48Z</time>
      </trkpt>
      <trkpt lat="43.35851" lon="5.75394">
        <ele>404.37</ele>
        <time>2019-01-06T12:22:49Z</time>
      </trkpt>
      <trkpt lat="43.35858" lon="5.75383">
        <ele>404.37</ele>
        <time>2019-01-06T12:22:57Z</time>
      </trkpt>
      <trkpt lat="43.35859" lon="5.75383">
        <ele>404.37</ele>
        <time>2019-01-06T12:22:58Z</time>
      </trkpt>
      <trkpt lat="43.35861" lon="5.75382">
        <ele>404.37</ele>
        <time>2019-01-06T12:22:59Z</time>
      </trkpt>
      <trkpt lat="43.35863" lon="5.75381">
        <ele>404.37</ele>
        <time>2019-01-06T12:23:00Z</time>
      </trkpt>
      <trkpt lat="43.35864" lon="5.7538">
        <ele>404.37</ele>
        <time>2019-01-06T12:23:01Z</time>
      </trkpt>
      <trkpt lat="43.35866" lon="5.75377">
        <ele>404.37</ele>
        <time>2019-01-06T12:23:04Z</time>
      </trkpt>
      <trkpt lat="43.35868" lon="5.75375">
        <ele>403.89</ele>
        <time>2019-01-06T12:23:05Z</time>
      </trkpt>
      <trkpt lat="43.35871" lon="5.75374">
        <ele>403.89</ele>
        <time>2019-01-06T12:23:09Z</time>
      </trkpt>
      <trkpt lat="43.35872" lon="5.75375">
        <ele>403.89</ele>
        <time>2019-01-06T12:23:10Z</time>
      </trkpt>
      <trkpt lat="43.35874" lon="5.75375">
        <ele>403.89</ele>
        <time>2019-01-06T12:23:11Z</time>
      </trkpt>
      <trkpt lat="43.35877" lon="5.75375">
        <ele>404.37</ele>
        <time>2019-01-06T12:23:13Z</time>
      </trkpt>
      <trkpt lat="43.35877" lon="5.75371">
        <ele>403.89</ele>
        <time>2019-01-06T12:23:17Z</time>
      </trkpt>
      <trkpt lat="43.35878" lon="5.75367">
        <ele>405.33</ele>
        <time>2019-01-06T12:23:20Z</time>
      </trkpt>
      <trkpt lat="43.35879" lon="5.75366">
        <ele>405.33</ele>
        <time>2019-01-06T12:23:21Z</time>
      </trkpt>
      <trkpt lat="43.35887" lon="5.75353">
        <ele>405.81</ele>
        <time>2019-01-06T12:23:38Z</time>
      </trkpt>
      <trkpt lat="43.35888" lon="5.7535">
        <ele>405.81</ele>
        <time>2019-01-06T12:23:40Z</time>
      </trkpt>
      <trkpt lat="43.35895" lon="5.75341">
        <ele>405.81</ele>
        <time>2019-01-06T12:23:49Z</time>
      </trkpt>
      <trkpt lat="43.359" lon="5.75336">
        <ele>405.81</ele>
        <time>2019-01-06T12:23:54Z</time>
      </trkpt>
      <trkpt lat="43.35902" lon="5.75336">
        <ele>405.81</ele>
        <time>2019-01-06T12:23:55Z</time>
      </trkpt>
      <trkpt lat="43.35905" lon="5.75334">
        <ele>405.81</ele>
        <time>2019-01-06T12:23:58Z</time>
      </trkpt>
      <trkpt lat="43.35912" lon="5.75325">
        <ele>406.29</ele>
        <time>2019-01-06T12:24:06Z</time>
      </trkpt>
      <trkpt lat="43.35915" lon="5.75322">
        <ele>406.77</ele>
        <time>2019-01-06T12:24:10Z</time>
      </trkpt>
      <trkpt lat="43.35913" lon="5.75317">
        <ele>406.77</ele>
        <time>2019-01-06T12:24:16Z</time>
      </trkpt>
      <trkpt lat="43.35912" lon="5.75314">
        <ele>406.77</ele>
        <time>2019-01-06T12:24:17Z</time>
      </trkpt>
      <trkpt lat="43.35912" lon="5.75312">
        <ele>406.77</ele>
        <time>2019-01-06T12:24:18Z</time>
      </trkpt>
      <trkpt lat="43.35915" lon="5.75309">
        <ele>406.77</ele>
        <time>2019-01-06T12:24:21Z</time>
      </trkpt>
      <trkpt lat="43.35922" lon="5.75299">
        <ele>406.77</ele>
        <time>2019-01-06T12:24:39Z</time>
      </trkpt>
      <trkpt lat="43.35927" lon="5.75291">
        <ele>406.29</ele>
        <time>2019-01-06T12:25:02Z</time>
      </trkpt>
      <trkpt lat="43.35929" lon="5.75288">
        <ele>406.29</ele>
        <time>2019-01-06T12:25:18Z</time>
      </trkpt>
      <trkpt lat="43.35935" lon="5.75295">
        <ele>406.29</ele>
        <time>2019-01-06T12:25:31Z</time>
      </trkpt>
      <trkpt lat="43.35934" lon="5.75307">
        <ele>407.26</ele>
        <time>2019-01-06T12:25:42Z</time>
      </trkpt>
      <trkpt lat="43.35932" lon="5.75317">
        <ele>408.22</ele>
        <time>2019-01-06T12:25:47Z</time>
      </trkpt>
      <trkpt lat="43.35934" lon="5.75332">
        <ele>408.7</ele>
        <time>2019-01-06T12:26:03Z</time>
      </trkpt>
      <trkpt lat="43.35938" lon="5.75348">
        <ele>410.14</ele>
        <time>2019-01-06T12:26:14Z</time>
      </trkpt>
      <trkpt lat="43.35942" lon="5.75361">
        <ele>411.1</ele>
        <time>2019-01-06T12:26:23Z</time>
      </trkpt>
      <trkpt lat="43.3595" lon="5.75374">
        <ele>413.98</ele>
        <time>2019-01-06T12:26:37Z</time>
      </trkpt>
      <trkpt lat="43.35954" lon="5.7539">
        <ele>415.91</ele>
        <time>2019-01-06T12:26:51Z</time>
      </trkpt>
      <trkpt lat="43.35956" lon="5.75403">
        <ele>416.87</ele>
        <time>2019-01-06T12:27:06Z</time>
      </trkpt>
      <trkpt lat="43.35956" lon="5.75405">
        <ele>416.87</ele>
        <time>2019-01-06T12:27:07Z</time>
      </trkpt>
      <trkpt lat="43.35956" lon="5.75407">
        <ele>416.87</ele>
        <time>2019-01-06T12:27:08Z</time>
      </trkpt>
      <trkpt lat="43.35959" lon="5.75423">
        <ele>418.31</ele>
        <time>2019-01-06T12:27:23Z</time>
      </trkpt>
      <trkpt lat="43.35958" lon="5.75425">
        <ele>418.31</ele>
        <time>2019-01-06T12:27:25Z</time>
      </trkpt>
      <trkpt lat="43.35958" lon="5.75427">
        <ele>418.31</ele>
        <time>2019-01-06T12:27:26Z</time>
      </trkpt>
      <trkpt lat="43.35957" lon="5.75429">
        <ele>418.31</ele>
        <time>2019-01-06T12:27:27Z</time>
      </trkpt>
      <trkpt lat="43.35955" lon="5.75433">
        <ele>418.31</ele>
        <time>2019-01-06T12:27:35Z</time>
      </trkpt>
      <trkpt lat="43.35954" lon="5.75433">
        <ele>418.31</ele>
        <time>2019-01-06T12:27:42Z</time>
      </trkpt>
      <trkpt lat="43.35952" lon="5.75435">
        <ele>418.31</ele>
        <time>2019-01-06T12:27:43Z</time>
      </trkpt>
      <trkpt lat="43.35951" lon="5.75437">
        <ele>418.31</ele>
        <time>2019-01-06T12:27:44Z</time>
      </trkpt>
      <trkpt lat="43.3595" lon="5.75439">
        <ele>418.31</ele>
        <time>2019-01-06T12:27:45Z</time>
      </trkpt>
      <trkpt lat="43.3595" lon="5.75439">
        <ele>418.31</ele>
        <time>2019-01-06T12:27:46Z</time>
      </trkpt>
      <trkpt lat="43.35947" lon="5.75447">
        <ele>418.31</ele>
        <time>2019-01-06T12:27:53Z</time>
      </trkpt>
      <trkpt lat="43.35946" lon="5.75451">
        <ele>418.79</ele>
        <time>2019-01-06T12:28:07Z</time>
      </trkpt>
      <trkpt lat="43.35945" lon="5.75453">
        <ele>418.79</ele>
        <time>2019-01-06T12:28:11Z</time>
      </trkpt>
      <trkpt lat="43.35943" lon="5.75459">
        <ele>419.27</ele>
        <time>2019-01-06T12:28:22Z</time>
      </trkpt>
      <trkpt lat="43.35943" lon="5.7546">
        <ele>419.27</ele>
        <time>2019-01-06T12:28:27Z</time>
      </trkpt>
      <trkpt lat="43.35941" lon="5.75464">
        <ele>419.27</ele>
        <time>2019-01-06T12:28:32Z</time>
      </trkpt>
      <trkpt lat="43.3594" lon="5.75465">
        <ele>419.27</ele>
        <time>2019-01-06T12:28:33Z</time>
      </trkpt>
      <trkpt lat="43.35937" lon="5.75469">
        <ele>420.23</ele>
        <time>2019-01-06T12:28:43Z</time>
      </trkpt>
      <trkpt lat="43.35935" lon="5.75473">
        <ele>420.23</ele>
        <time>2019-01-06T12:28:47Z</time>
      </trkpt>
      <trkpt lat="43.35928" lon="5.75487">
        <ele>422.16</ele>
        <time>2019-01-06T12:28:58Z</time>
      </trkpt>
      <trkpt lat="43.35928" lon="5.75489">
        <ele>422.16</ele>
        <time>2019-01-06T12:29:00Z</time>
      </trkpt>
      <trkpt lat="43.35927" lon="5.75491">
        <ele>422.16</ele>
        <time>2019-01-06T12:29:02Z</time>
      </trkpt>
      <trkpt lat="43.35926" lon="5.75494">
        <ele>422.64</ele>
        <time>2019-01-06T12:29:03Z</time>
      </trkpt>
      <trkpt lat="43.35924" lon="5.75496">
        <ele>422.64</ele>
        <time>2019-01-06T12:29:06Z</time>
      </trkpt>
      <trkpt lat="43.35925" lon="5.75498">
        <ele>422.64</ele>
        <time>2019-01-06T12:29:07Z</time>
      </trkpt>
      <trkpt lat="43.35924" lon="5.75501">
        <ele>423.12</ele>
        <time>2019-01-06T12:29:10Z</time>
      </trkpt>
      <trkpt lat="43.35923" lon="5.75503">
        <ele>423.12</ele>
        <time>2019-01-06T12:29:11Z</time>
      </trkpt>
      <trkpt lat="43.35922" lon="5.75509">
        <ele>423.6</ele>
        <time>2019-01-06T12:29:17Z</time>
      </trkpt>
      <trkpt lat="43.35922" lon="5.75511">
        <ele>424.08</ele>
        <time>2019-01-06T12:29:18Z</time>
      </trkpt>
      <trkpt lat="43.35924" lon="5.75521">
        <ele>425.04</ele>
        <time>2019-01-06T12:29:29Z</time>
      </trkpt>
      <trkpt lat="43.35921" lon="5.75522">
        <ele>424.56</ele>
        <time>2019-01-06T12:29:46Z</time>
      </trkpt>
      <trkpt lat="43.35921" lon="5.75522">
        <ele>424.56</ele>
        <time>2019-01-06T12:29:47Z</time>
      </trkpt>
      <trkpt lat="43.35921" lon="5.75523">
        <ele>426.48</ele>
        <time>2019-01-06T12:29:49Z</time>
      </trkpt>
      <trkpt lat="43.35922" lon="5.7553">
        <ele>424.56</ele>
        <time>2019-01-06T12:29:57Z</time>
      </trkpt>
      <trkpt lat="43.35923" lon="5.75531">
        <ele>428.89</ele>
        <time>2019-01-06T12:29:58Z</time>
      </trkpt>
      <trkpt lat="43.35922" lon="5.75538">
        <ele>425.52</ele>
        <time>2019-01-06T12:30:08Z</time>
      </trkpt>
      <trkpt lat="43.35922" lon="5.7554">
        <ele>425.52</ele>
        <time>2019-01-06T12:30:14Z</time>
      </trkpt>
      <trkpt lat="43.35922" lon="5.7554">
        <ele>424.08</ele>
        <time>2019-01-06T12:30:16Z</time>
      </trkpt>
      <trkpt lat="43.35922" lon="5.75541">
        <ele>428.89</ele>
        <time>2019-01-06T12:30:18Z</time>
      </trkpt>
      <trkpt lat="43.35921" lon="5.75541">
        <ele>426.96</ele>
        <time>2019-01-06T12:30:19Z</time>
      </trkpt>
      <trkpt lat="43.35922" lon="5.75539">
        <ele>426.48</ele>
        <time>2019-01-06T12:30:41Z</time>
      </trkpt>
      <trkpt lat="43.35925" lon="5.75535">
        <ele>426</ele>
        <time>2019-01-06T12:30:43Z</time>
      </trkpt>
      <trkpt lat="43.35929" lon="5.75526">
        <ele>425.52</ele>
        <time>2019-01-06T12:31:10Z</time>
      </trkpt>
      <trkpt lat="43.3592" lon="5.75522">
        <ele>426</ele>
        <time>2019-01-06T12:31:26Z</time>
      </trkpt>
      <trkpt lat="43.35921" lon="5.75522">
        <ele>425.52</ele>
        <time>2019-01-06T12:31:41Z</time>
      </trkpt>
      <trkpt lat="43.35922" lon="5.75524">
        <ele>426.48</ele>
        <time>2019-01-06T12:32:00Z</time>
      </trkpt>
      <trkpt lat="43.3592" lon="5.75522">
        <ele>425.04</ele>
        <time>2019-01-06T12:32:13Z</time>
      </trkpt>
      <trkpt lat="43.3592" lon="5.75523">
        <ele>426.48</ele>
        <time>2019-01-06T12:32:15Z</time>
      </trkpt>
      <trkpt lat="43.35923" lon="5.75532">
        <ele>427.92</ele>
        <time>2019-01-06T12:32:25Z</time>
      </trkpt>
      <trkpt lat="43.35926" lon="5.75545">
        <ele>426.96</ele>
        <time>2019-01-06T12:32:41Z</time>
      </trkpt>
      <trkpt lat="43.35926" lon="5.75546">
        <ele>426.96</ele>
        <time>2019-01-06T12:32:42Z</time>
      </trkpt>
      <trkpt lat="43.35926" lon="5.75547">
        <ele>429.37</ele>
        <time>2019-01-06T12:32:43Z</time>
      </trkpt>
      <trkpt lat="43.35927" lon="5.75549">
        <ele>429.37</ele>
        <time>2019-01-06T12:32:44Z</time>
      </trkpt>
      <trkpt lat="43.35929" lon="5.75554">
        <ele>428.89</ele>
        <time>2019-01-06T12:32:59Z</time>
      </trkpt>
      <trkpt lat="43.35929" lon="5.75556">
        <ele>431.77</ele>
        <time>2019-01-06T12:33:02Z</time>
      </trkpt>
      <trkpt lat="43.3593" lon="5.75569">
        <ele>433.69</ele>
        <time>2019-01-06T12:33:11Z</time>
      </trkpt>
      <trkpt lat="43.35937" lon="5.7558">
        <ele>432.73</ele>
        <time>2019-01-06T12:33:23Z</time>
      </trkpt>
      <trkpt lat="43.35942" lon="5.75589">
        <ele>433.21</ele>
        <time>2019-01-06T12:33:31Z</time>
      </trkpt>
      <trkpt lat="43.35944" lon="5.75596">
        <ele>434.17</ele>
        <time>2019-01-06T12:33:40Z</time>
      </trkpt>
      <trkpt lat="43.35946" lon="5.756">
        <ele>435.61</ele>
        <time>2019-01-06T12:33:44Z</time>
      </trkpt>
      <trkpt lat="43.35947" lon="5.75604">
        <ele>436.1</ele>
        <time>2019-01-06T12:33:51Z</time>
      </trkpt>
      <trkpt lat="43.35948" lon="5.75609">
        <ele>437.06</ele>
        <time>2019-01-06T12:34:00Z</time>
      </trkpt>
      <trkpt lat="43.35948" lon="5.75612">
        <ele>436.1</ele>
        <time>2019-01-06T12:34:09Z</time>
      </trkpt>
      <trkpt lat="43.35949" lon="5.75619">
        <ele>437.54</ele>
        <time>2019-01-06T12:34:25Z</time>
      </trkpt>
      <trkpt lat="43.35959" lon="5.75628">
        <ele>438.5</ele>
        <time>2019-01-06T12:34:45Z</time>
      </trkpt>
      <trkpt lat="43.35968" lon="5.7563">
        <ele>438.98</ele>
        <time>2019-01-06T12:35:05Z</time>
      </trkpt>
      <trkpt lat="43.3596" lon="5.75635">
        <ele>439.94</ele>
        <time>2019-01-06T12:35:23Z</time>
      </trkpt>
      <trkpt lat="43.35959" lon="5.75645">
        <ele>442.34</ele>
        <time>2019-01-06T12:35:42Z</time>
      </trkpt>
      <trkpt lat="43.3596" lon="5.75652">
        <ele>442.82</ele>
        <time>2019-01-06T12:35:59Z</time>
      </trkpt>
      <trkpt lat="43.35962" lon="5.75655">
        <ele>444.27</ele>
        <time>2019-01-06T12:36:11Z</time>
      </trkpt>
      <trkpt lat="43.35964" lon="5.75662">
        <ele>442.82</ele>
        <time>2019-01-06T12:36:16Z</time>
      </trkpt>
      <trkpt lat="43.35965" lon="5.75664">
        <ele>444.75</ele>
        <time>2019-01-06T12:36:18Z</time>
      </trkpt>
      <trkpt lat="43.35971" lon="5.75682">
        <ele>446.67</ele>
        <time>2019-01-06T12:36:34Z</time>
      </trkpt>
      <trkpt lat="43.35974" lon="5.75693">
        <ele>447.15</ele>
        <time>2019-01-06T12:36:47Z</time>
      </trkpt>
      <trkpt lat="43.35975" lon="5.75706">
        <ele>448.59</ele>
        <time>2019-01-06T12:36:58Z</time>
      </trkpt>
      <trkpt lat="43.35974" lon="5.75716">
        <ele>451</ele>
        <time>2019-01-06T12:37:06Z</time>
      </trkpt>
      <trkpt lat="43.35974" lon="5.75718">
        <ele>451</ele>
        <time>2019-01-06T12:37:07Z</time>
      </trkpt>
      <trkpt lat="43.35975" lon="5.75723">
        <ele>451.48</ele>
        <time>2019-01-06T12:37:11Z</time>
      </trkpt>
      <trkpt lat="43.35979" lon="5.75727">
        <ele>451.96</ele>
        <time>2019-01-06T12:37:25Z</time>
      </trkpt>
      <trkpt lat="43.3598" lon="5.75728">
        <ele>451.96</ele>
        <time>2019-01-06T12:37:28Z</time>
      </trkpt>
      <trkpt lat="43.35981" lon="5.75729">
        <ele>451.96</ele>
        <time>2019-01-06T12:37:29Z</time>
      </trkpt>
      <trkpt lat="43.35984" lon="5.75738">
        <ele>453.88</ele>
        <time>2019-01-06T12:37:41Z</time>
      </trkpt>
      <trkpt lat="43.35987" lon="5.75745">
        <ele>454.36</ele>
        <time>2019-01-06T12:37:52Z</time>
      </trkpt>
      <trkpt lat="43.35987" lon="5.75747">
        <ele>453.88</ele>
        <time>2019-01-06T12:37:53Z</time>
      </trkpt>
      <trkpt lat="43.35987" lon="5.75749">
        <ele>454.36</ele>
        <time>2019-01-06T12:37:54Z</time>
      </trkpt>
      <trkpt lat="43.3599" lon="5.75762">
        <ele>456.28</ele>
        <time>2019-01-06T12:38:04Z</time>
      </trkpt>
      <trkpt lat="43.35991" lon="5.75766">
        <ele>456.76</ele>
        <time>2019-01-06T12:38:08Z</time>
      </trkpt>
      <trkpt lat="43.35993" lon="5.75771">
        <ele>458.21</ele>
        <time>2019-01-06T12:38:20Z</time>
      </trkpt>
      <trkpt lat="43.35993" lon="5.75779">
        <ele>459.17</ele>
        <time>2019-01-06T12:38:32Z</time>
      </trkpt>
      <trkpt lat="43.35993" lon="5.75783">
        <ele>459.17</ele>
        <time>2019-01-06T12:38:36Z</time>
      </trkpt>
      <trkpt lat="43.35995" lon="5.75786">
        <ele>459.17</ele>
        <time>2019-01-06T12:38:39Z</time>
      </trkpt>
      <trkpt lat="43.35996" lon="5.75788">
        <ele>459.17</ele>
        <time>2019-01-06T12:38:40Z</time>
      </trkpt>
      <trkpt lat="43.36003" lon="5.75799">
        <ele>460.61</ele>
        <time>2019-01-06T12:38:50Z</time>
      </trkpt>
      <trkpt lat="43.36011" lon="5.75808">
        <ele>463.01</ele>
        <time>2019-01-06T12:39:01Z</time>
      </trkpt>
      <trkpt lat="43.36012" lon="5.75809">
        <ele>463.49</ele>
        <time>2019-01-06T12:39:15Z</time>
      </trkpt>
      <trkpt lat="43.36015" lon="5.75821">
        <ele>464.93</ele>
        <time>2019-01-06T12:39:30Z</time>
      </trkpt>
      <trkpt lat="43.36015" lon="5.75831">
        <ele>466.86</ele>
        <time>2019-01-06T12:39:43Z</time>
      </trkpt>
      <trkpt lat="43.36015" lon="5.75837">
        <ele>466.86</ele>
        <time>2019-01-06T12:39:48Z</time>
      </trkpt>
      <trkpt lat="43.36017" lon="5.75854">
        <ele>470.22</ele>
        <time>2019-01-06T12:40:02Z</time>
      </trkpt>
      <trkpt lat="43.3602" lon="5.75874">
        <ele>473.59</ele>
        <time>2019-01-06T12:40:21Z</time>
      </trkpt>
      <trkpt lat="43.36019" lon="5.75878">
        <ele>473.59</ele>
        <time>2019-01-06T12:40:25Z</time>
      </trkpt>
      <trkpt lat="43.36021" lon="5.75891">
        <ele>475.51</ele>
        <time>2019-01-06T12:40:41Z</time>
      </trkpt>
      <trkpt lat="43.36022" lon="5.75894">
        <ele>476.47</ele>
        <time>2019-01-06T12:40:52Z</time>
      </trkpt>
      <trkpt lat="43.36024" lon="5.75907">
        <ele>477.91</ele>
        <time>2019-01-06T12:41:00Z</time>
      </trkpt>
      <trkpt lat="43.36029" lon="5.75918">
        <ele>479.84</ele>
        <time>2019-01-06T12:41:12Z</time>
      </trkpt>
      <trkpt lat="43.36032" lon="5.75924">
        <ele>480.8</ele>
        <time>2019-01-06T12:41:17Z</time>
      </trkpt>
      <trkpt lat="43.36034" lon="5.75927">
        <ele>480.32</ele>
        <time>2019-01-06T12:41:20Z</time>
      </trkpt>
      <trkpt lat="43.36039" lon="5.75935">
        <ele>481.76</ele>
        <time>2019-01-06T12:41:28Z</time>
      </trkpt>
      <trkpt lat="43.36041" lon="5.75949">
        <ele>483.2</ele>
        <time>2019-01-06T12:41:41Z</time>
      </trkpt>
      <trkpt lat="43.36043" lon="5.75958">
        <ele>484.16</ele>
        <time>2019-01-06T12:41:54Z</time>
      </trkpt>
      <trkpt lat="43.36044" lon="5.75959">
        <ele>484.16</ele>
        <time>2019-01-06T12:41:55Z</time>
      </trkpt>
      <trkpt lat="43.36045" lon="5.75962">
        <ele>484.64</ele>
        <time>2019-01-06T12:41:58Z</time>
      </trkpt>
      <trkpt lat="43.36046" lon="5.75965">
        <ele>485.12</ele>
        <time>2019-01-06T12:42:02Z</time>
      </trkpt>
      <trkpt lat="43.36052" lon="5.75967">
        <ele>485.6</ele>
        <time>2019-01-06T12:42:10Z</time>
      </trkpt>
      <trkpt lat="43.36058" lon="5.75968">
        <ele>486.08</ele>
        <time>2019-01-06T12:42:19Z</time>
      </trkpt>
      <trkpt lat="43.36062" lon="5.75969">
        <ele>487.05</ele>
        <time>2019-01-06T12:42:35Z</time>
      </trkpt>
      <trkpt lat="43.36056" lon="5.7597">
        <ele>487.05</ele>
        <time>2019-01-06T12:42:52Z</time>
      </trkpt>
      <trkpt lat="43.36054" lon="5.75968">
        <ele>486.56</ele>
        <time>2019-01-06T12:43:17Z</time>
      </trkpt>
      <trkpt lat="43.36056" lon="5.75971">
        <ele>487.05</ele>
        <time>2019-01-06T12:43:24Z</time>
      </trkpt>
      <trkpt lat="43.36058" lon="5.75982">
        <ele>488.97</ele>
        <time>2019-01-06T12:43:45Z</time>
      </trkpt>
      <trkpt lat="43.36059" lon="5.76003">
        <ele>490.41</ele>
        <time>2019-01-06T12:43:59Z</time>
      </trkpt>
      <trkpt lat="43.36061" lon="5.76005">
        <ele>490.41</ele>
        <time>2019-01-06T12:44:03Z</time>
      </trkpt>
      <trkpt lat="43.36064" lon="5.76006">
        <ele>490.89</ele>
        <time>2019-01-06T12:44:07Z</time>
      </trkpt>
      <trkpt lat="43.36069" lon="5.76011">
        <ele>491.85</ele>
        <time>2019-01-06T12:44:12Z</time>
      </trkpt>
      <trkpt lat="43.36078" lon="5.76014">
        <ele>492.81</ele>
        <time>2019-01-06T12:44:24Z</time>
      </trkpt>
      <trkpt lat="43.36082" lon="5.76015">
        <ele>492.81</ele>
        <time>2019-01-06T12:44:28Z</time>
      </trkpt>
      <trkpt lat="43.36088" lon="5.76015">
        <ele>494.26</ele>
        <time>2019-01-06T12:44:33Z</time>
      </trkpt>
      <trkpt lat="43.361" lon="5.76016">
        <ele>494.74</ele>
        <time>2019-01-06T12:44:45Z</time>
      </trkpt>
      <trkpt lat="43.36108" lon="5.76016">
        <ele>495.22</ele>
        <time>2019-01-06T12:44:56Z</time>
      </trkpt>
      <trkpt lat="43.36113" lon="5.76013">
        <ele>495.7</ele>
        <time>2019-01-06T12:45:02Z</time>
      </trkpt>
      <trkpt lat="43.36118" lon="5.76015">
        <ele>495.7</ele>
        <time>2019-01-06T12:45:06Z</time>
      </trkpt>
      <trkpt lat="43.36122" lon="5.76015">
        <ele>496.18</ele>
        <time>2019-01-06T12:45:11Z</time>
      </trkpt>
      <trkpt lat="43.36129" lon="5.76013">
        <ele>497.14</ele>
        <time>2019-01-06T12:45:20Z</time>
      </trkpt>
      <trkpt lat="43.36127" lon="5.75995">
        <ele>497.14</ele>
        <time>2019-01-06T12:45:39Z</time>
      </trkpt>
      <trkpt lat="43.36126" lon="5.75983">
        <ele>495.7</ele>
        <time>2019-01-06T12:46:01Z</time>
      </trkpt>
      <trkpt lat="43.36126" lon="5.75982">
        <ele>495.7</ele>
        <time>2019-01-06T12:46:20Z</time>
      </trkpt>
      <trkpt lat="43.36127" lon="5.75989">
        <ele>495.7</ele>
        <time>2019-01-06T12:46:41Z</time>
      </trkpt>
      <trkpt lat="43.36129" lon="5.75993">
        <ele>497.14</ele>
        <time>2019-01-06T12:46:45Z</time>
      </trkpt>
      <trkpt lat="43.36128" lon="5.76007">
        <ele>497.14</ele>
        <time>2019-01-06T12:47:13Z</time>
      </trkpt>
      <trkpt lat="43.36129" lon="5.76011">
        <ele>498.1</ele>
        <time>2019-01-06T12:47:39Z</time>
      </trkpt>
      <trkpt lat="43.36132" lon="5.76019">
        <ele>498.1</ele>
        <time>2019-01-06T12:47:58Z</time>
      </trkpt>
      <trkpt lat="43.36133" lon="5.76019">
        <ele>500.02</ele>
        <time>2019-01-06T12:48:01Z</time>
      </trkpt>
      <trkpt lat="43.36137" lon="5.76022">
        <ele>498.58</ele>
        <time>2019-01-06T12:48:04Z</time>
      </trkpt>
      <trkpt lat="43.36139" lon="5.76023">
        <ele>498.58</ele>
        <time>2019-01-06T12:48:05Z</time>
      </trkpt>
      <trkpt lat="43.36147" lon="5.76028">
        <ele>499.54</ele>
        <time>2019-01-06T12:48:13Z</time>
      </trkpt>
      <trkpt lat="43.36149" lon="5.76031">
        <ele>500.98</ele>
        <time>2019-01-06T12:48:18Z</time>
      </trkpt>
      <trkpt lat="43.3615" lon="5.76038">
        <ele>501.46</ele>
        <time>2019-01-06T12:48:24Z</time>
      </trkpt>
      <trkpt lat="43.36155" lon="5.76057">
        <ele>501.95</ele>
        <time>2019-01-06T12:48:37Z</time>
      </trkpt>
      <trkpt lat="43.36157" lon="5.76069">
        <ele>502.43</ele>
        <time>2019-01-06T12:48:48Z</time>
      </trkpt>
      <trkpt lat="43.36158" lon="5.76072">
        <ele>502.43</ele>
        <time>2019-01-06T12:48:50Z</time>
      </trkpt>
      <trkpt lat="43.36159" lon="5.76074">
        <ele>502.43</ele>
        <time>2019-01-06T12:48:51Z</time>
      </trkpt>
      <trkpt lat="43.36161" lon="5.7608">
        <ele>502.43</ele>
        <time>2019-01-06T12:48:56Z</time>
      </trkpt>
      <trkpt lat="43.36162" lon="5.76082">
        <ele>502.91</ele>
        <time>2019-01-06T12:48:57Z</time>
      </trkpt>
      <trkpt lat="43.36166" lon="5.76092">
        <ele>504.35</ele>
        <time>2019-01-06T12:49:03Z</time>
      </trkpt>
      <trkpt lat="43.36178" lon="5.76106">
        <ele>504.83</ele>
        <time>2019-01-06T12:49:23Z</time>
      </trkpt>
      <trkpt lat="43.36191" lon="5.76118">
        <ele>506.27</ele>
        <time>2019-01-06T12:49:45Z</time>
      </trkpt>
      <trkpt lat="43.36205" lon="5.76147">
        <ele>508.67</ele>
        <time>2019-01-06T12:50:04Z</time>
      </trkpt>
      <trkpt lat="43.36207" lon="5.76152">
        <ele>508.67</ele>
        <time>2019-01-06T12:50:05Z</time>
      </trkpt>
      <trkpt lat="43.3621" lon="5.76163">
        <ele>508.67</ele>
        <time>2019-01-06T12:50:11Z</time>
      </trkpt>
      <trkpt lat="43.36218" lon="5.76177">
        <ele>509.64</ele>
        <time>2019-01-06T12:50:25Z</time>
      </trkpt>
      <trkpt lat="43.3622" lon="5.76179">
        <ele>509.64</ele>
        <time>2019-01-06T12:50:36Z</time>
      </trkpt>
      <trkpt lat="43.36219" lon="5.76185">
        <ele>510.12</ele>
        <time>2019-01-06T12:50:52Z</time>
      </trkpt>
      <trkpt lat="43.3622" lon="5.76183">
        <ele>510.12</ele>
        <time>2019-01-06T12:51:05Z</time>
      </trkpt>
      <trkpt lat="43.36219" lon="5.7618">
        <ele>509.16</ele>
        <time>2019-01-06T12:51:13Z</time>
      </trkpt>
      <trkpt lat="43.36218" lon="5.76178">
        <ele>509.16</ele>
        <time>2019-01-06T12:51:14Z</time>
      </trkpt>
      <trkpt lat="43.36215" lon="5.76175">
        <ele>509.16</ele>
        <time>2019-01-06T12:51:23Z</time>
      </trkpt>
      <trkpt lat="43.36217" lon="5.76172">
        <ele>508.67</ele>
        <time>2019-01-06T12:51:35Z</time>
      </trkpt>
      <trkpt lat="43.3622" lon="5.76176">
        <ele>508.67</ele>
        <time>2019-01-06T12:51:39Z</time>
      </trkpt>
      <trkpt lat="43.36221" lon="5.76177">
        <ele>508.67</ele>
        <time>2019-01-06T12:51:40Z</time>
      </trkpt>
      <trkpt lat="43.36222" lon="5.76179">
        <ele>508.67</ele>
        <time>2019-01-06T12:51:41Z</time>
      </trkpt>
      <trkpt lat="43.36227" lon="5.76184">
        <ele>508.19</ele>
        <time>2019-01-06T12:51:49Z</time>
      </trkpt>
      <trkpt lat="43.36225" lon="5.76184">
        <ele>508.19</ele>
        <time>2019-01-06T12:52:01Z</time>
      </trkpt>
      <trkpt lat="43.36223" lon="5.76185">
        <ele>508.19</ele>
        <time>2019-01-06T12:52:02Z</time>
      </trkpt>
      <trkpt lat="43.3622" lon="5.7619">
        <ele>509.64</ele>
        <time>2019-01-06T12:52:09Z</time>
      </trkpt>
      <trkpt lat="43.3622" lon="5.7619">
        <ele>509.64</ele>
        <time>2019-01-06T12:52:10Z</time>
      </trkpt>
      <trkpt lat="43.36225" lon="5.76201">
        <ele>510.6</ele>
        <time>2019-01-06T12:52:24Z</time>
      </trkpt>
      <trkpt lat="43.36225" lon="5.76201">
        <ele>510.6</ele>
        <time>2019-01-06T12:52:40Z</time>
      </trkpt>
      <trkpt lat="43.36226" lon="5.76208">
        <ele>511.08</ele>
        <time>2019-01-06T12:52:55Z</time>
      </trkpt>
      <trkpt lat="43.36233" lon="5.76218">
        <ele>511.08</ele>
        <time>2019-01-06T12:53:15Z</time>
      </trkpt>
      <trkpt lat="43.3624" lon="5.76229">
        <ele>511.08</ele>
        <time>2019-01-06T12:53:27Z</time>
      </trkpt>
      <trkpt lat="43.36242" lon="5.76231">
        <ele>509.64</ele>
        <time>2019-01-06T12:53:29Z</time>
      </trkpt>
      <trkpt lat="43.36246" lon="5.76242">
        <ele>509.64</ele>
        <time>2019-01-06T12:53:40Z</time>
      </trkpt>
      <trkpt lat="43.36248" lon="5.76244">
        <ele>509.64</ele>
        <time>2019-01-06T12:53:43Z</time>
      </trkpt>
      <trkpt lat="43.36248" lon="5.76245">
        <ele>509.16</ele>
        <time>2019-01-06T12:53:44Z</time>
      </trkpt>
      <trkpt lat="43.3625" lon="5.76251">
        <ele>509.16</ele>
        <time>2019-01-06T12:53:50Z</time>
      </trkpt>
      <trkpt lat="43.36251" lon="5.76256">
        <ele>509.16</ele>
        <time>2019-01-06T12:54:02Z</time>
      </trkpt>
      <trkpt lat="43.36256" lon="5.76274">
        <ele>509.16</ele>
        <time>2019-01-06T12:54:19Z</time>
      </trkpt>
      <trkpt lat="43.36258" lon="5.76281">
        <ele>509.16</ele>
        <time>2019-01-06T12:54:25Z</time>
      </trkpt>
      <trkpt lat="43.3626" lon="5.76285">
        <ele>509.16</ele>
        <time>2019-01-06T12:54:28Z</time>
      </trkpt>
      <trkpt lat="43.3626" lon="5.76287">
        <ele>509.16</ele>
        <time>2019-01-06T12:54:29Z</time>
      </trkpt>
      <trkpt lat="43.36263" lon="5.76303">
        <ele>509.16</ele>
        <time>2019-01-06T12:54:41Z</time>
      </trkpt>
      <trkpt lat="43.36268" lon="5.76316">
        <ele>509.16</ele>
        <time>2019-01-06T12:54:51Z</time>
      </trkpt>
      <trkpt lat="43.36273" lon="5.76331">
        <ele>509.16</ele>
        <time>2019-01-06T12:55:00Z</time>
      </trkpt>
      <trkpt lat="43.3628" lon="5.76345">
        <ele>510.6</ele>
        <time>2019-01-06T12:55:10Z</time>
      </trkpt>
      <trkpt lat="43.36285" lon="5.76353">
        <ele>510.12</ele>
        <time>2019-01-06T12:55:19Z</time>
      </trkpt>
      <trkpt lat="43.36287" lon="5.76356">
        <ele>510.12</ele>
        <time>2019-01-06T12:55:22Z</time>
      </trkpt>
      <trkpt lat="43.36288" lon="5.76357">
        <ele>510.12</ele>
        <time>2019-01-06T12:55:23Z</time>
      </trkpt>
      <trkpt lat="43.36294" lon="5.7637">
        <ele>510.12</ele>
        <time>2019-01-06T12:55:34Z</time>
      </trkpt>
      <trkpt lat="43.36297" lon="5.76374">
        <ele>510.12</ele>
        <time>2019-01-06T12:55:38Z</time>
      </trkpt>
      <trkpt lat="43.36297" lon="5.76376">
        <ele>510.12</ele>
        <time>2019-01-06T12:55:39Z</time>
      </trkpt>
      <trkpt lat="43.36298" lon="5.76378">
        <ele>510.12</ele>
        <time>2019-01-06T12:55:40Z</time>
      </trkpt>
      <trkpt lat="43.36299" lon="5.7638">
        <ele>510.12</ele>
        <time>2019-01-06T12:55:41Z</time>
      </trkpt>
      <trkpt lat="43.36305" lon="5.76393">
        <ele>510.12</ele>
        <time>2019-01-06T12:55:50Z</time>
      </trkpt>
      <trkpt lat="43.36304" lon="5.76395">
        <ele>510.12</ele>
        <time>2019-01-06T12:55:53Z</time>
      </trkpt>
      <trkpt lat="43.36305" lon="5.76396">
        <ele>510.6</ele>
        <time>2019-01-06T12:55:54Z</time>
      </trkpt>
      <trkpt lat="43.36308" lon="5.76404">
        <ele>510.6</ele>
        <time>2019-01-06T12:55:59Z</time>
      </trkpt>
      <trkpt lat="43.36309" lon="5.76405">
        <ele>510.6</ele>
        <time>2019-01-06T12:56:00Z</time>
      </trkpt>
      <trkpt lat="43.36311" lon="5.76411">
        <ele>510.6</ele>
        <time>2019-01-06T12:56:05Z</time>
      </trkpt>
      <trkpt lat="43.36313" lon="5.76417">
        <ele>510.6</ele>
        <time>2019-01-06T12:56:10Z</time>
      </trkpt>
      <trkpt lat="43.36314" lon="5.76418">
        <ele>510.6</ele>
        <time>2019-01-06T12:56:11Z</time>
      </trkpt>
      <trkpt lat="43.36318" lon="5.76428">
        <ele>509.64</ele>
        <time>2019-01-06T12:56:18Z</time>
      </trkpt>
      <trkpt lat="43.36317" lon="5.76429">
        <ele>509.64</ele>
        <time>2019-01-06T12:56:21Z</time>
      </trkpt>
      <trkpt lat="43.36319" lon="5.76439">
        <ele>508.67</ele>
        <time>2019-01-06T12:56:31Z</time>
      </trkpt>
      <trkpt lat="43.36319" lon="5.76442">
        <ele>508.19</ele>
        <time>2019-01-06T12:56:32Z</time>
      </trkpt>
      <trkpt lat="43.36319" lon="5.76444">
        <ele>508.19</ele>
        <time>2019-01-06T12:56:33Z</time>
      </trkpt>
      <trkpt lat="43.36322" lon="5.76452">
        <ele>508.19</ele>
        <time>2019-01-06T12:56:40Z</time>
      </trkpt>
      <trkpt lat="43.36327" lon="5.76459">
        <ele>507.23</ele>
        <time>2019-01-06T12:56:48Z</time>
      </trkpt>
      <trkpt lat="43.36329" lon="5.7646">
        <ele>507.23</ele>
        <time>2019-01-06T12:56:49Z</time>
      </trkpt>
      <trkpt lat="43.36331" lon="5.76461">
        <ele>507.23</ele>
        <time>2019-01-06T12:56:50Z</time>
      </trkpt>
      <trkpt lat="43.36332" lon="5.76462">
        <ele>507.23</ele>
        <time>2019-01-06T12:56:51Z</time>
      </trkpt>
      <trkpt lat="43.36334" lon="5.76462">
        <ele>507.23</ele>
        <time>2019-01-06T12:56:52Z</time>
      </trkpt>
      <trkpt lat="43.36337" lon="5.76465">
        <ele>507.23</ele>
        <time>2019-01-06T12:56:57Z</time>
      </trkpt>
      <trkpt lat="43.36339" lon="5.76468">
        <ele>507.23</ele>
        <time>2019-01-06T12:56:59Z</time>
      </trkpt>
      <trkpt lat="43.36343" lon="5.7647">
        <ele>507.23</ele>
        <time>2019-01-06T12:57:04Z</time>
      </trkpt>
      <trkpt lat="43.36344" lon="5.76471">
        <ele>507.23</ele>
        <time>2019-01-06T12:57:05Z</time>
      </trkpt>
      <trkpt lat="43.36357" lon="5.76475">
        <ele>509.64</ele>
        <time>2019-01-06T12:57:16Z</time>
      </trkpt>
      <trkpt lat="43.3636" lon="5.76475">
        <ele>510.12</ele>
        <time>2019-01-06T12:57:20Z</time>
      </trkpt>
      <trkpt lat="43.36361" lon="5.76475">
        <ele>510.12</ele>
        <time>2019-01-06T12:57:21Z</time>
      </trkpt>
      <trkpt lat="43.36365" lon="5.76473">
        <ele>510.6</ele>
        <time>2019-01-06T12:57:25Z</time>
      </trkpt>
      <trkpt lat="43.36366" lon="5.76472">
        <ele>511.08</ele>
        <time>2019-01-06T12:57:26Z</time>
      </trkpt>
      <trkpt lat="43.36369" lon="5.76472">
        <ele>511.56</ele>
        <time>2019-01-06T12:57:29Z</time>
      </trkpt>
      <trkpt lat="43.36374" lon="5.76474">
        <ele>511.56</ele>
        <time>2019-01-06T12:57:34Z</time>
      </trkpt>
      <trkpt lat="43.36376" lon="5.76474">
        <ele>512.52</ele>
        <time>2019-01-06T12:57:36Z</time>
      </trkpt>
      <trkpt lat="43.36378" lon="5.76475">
        <ele>512.52</ele>
        <time>2019-01-06T12:57:38Z</time>
      </trkpt>
      <trkpt lat="43.36379" lon="5.76476">
        <ele>512.52</ele>
        <time>2019-01-06T12:57:39Z</time>
      </trkpt>
      <trkpt lat="43.36381" lon="5.76477">
        <ele>512.52</ele>
        <time>2019-01-06T12:57:40Z</time>
      </trkpt>
      <trkpt lat="43.36383" lon="5.76479">
        <ele>512.52</ele>
        <time>2019-01-06T12:57:43Z</time>
      </trkpt>
      <trkpt lat="43.36387" lon="5.76483">
        <ele>513</ele>
        <time>2019-01-06T12:57:53Z</time>
      </trkpt>
      <trkpt lat="43.36389" lon="5.76485">
        <ele>513</ele>
        <time>2019-01-06T12:58:00Z</time>
      </trkpt>
      <trkpt lat="43.36391" lon="5.76489">
        <ele>513</ele>
        <time>2019-01-06T12:58:04Z</time>
      </trkpt>
      <trkpt lat="43.36398" lon="5.76497">
        <ele>511.56</ele>
        <time>2019-01-06T12:58:15Z</time>
      </trkpt>
      <trkpt lat="43.36399" lon="5.76498">
        <ele>513</ele>
        <time>2019-01-06T12:58:17Z</time>
      </trkpt>
      <trkpt lat="43.36405" lon="5.76507">
        <ele>512.52</ele>
        <time>2019-01-06T12:58:30Z</time>
      </trkpt>
      <trkpt lat="43.36413" lon="5.76513">
        <ele>513.48</ele>
        <time>2019-01-06T12:58:37Z</time>
      </trkpt>
      <trkpt lat="43.36418" lon="5.76521">
        <ele>513.48</ele>
        <time>2019-01-06T12:58:43Z</time>
      </trkpt>
      <trkpt lat="43.36431" lon="5.7654">
        <ele>513.48</ele>
        <time>2019-01-06T12:58:57Z</time>
      </trkpt>
      <trkpt lat="43.36433" lon="5.76543">
        <ele>512.52</ele>
        <time>2019-01-06T12:59:02Z</time>
      </trkpt>
      <trkpt lat="43.36435" lon="5.76544">
        <ele>512.04</ele>
        <time>2019-01-06T12:59:03Z</time>
      </trkpt>
      <trkpt lat="43.36437" lon="5.76546">
        <ele>511.56</ele>
        <time>2019-01-06T12:59:07Z</time>
      </trkpt>
      <trkpt lat="43.3644" lon="5.76546">
        <ele>511.56</ele>
        <time>2019-01-06T12:59:08Z</time>
      </trkpt>
      <trkpt lat="43.36443" lon="5.76547">
        <ele>511.08</ele>
        <time>2019-01-06T12:59:12Z</time>
      </trkpt>
      <trkpt lat="43.36445" lon="5.76548">
        <ele>511.08</ele>
        <time>2019-01-06T12:59:13Z</time>
      </trkpt>
      <trkpt lat="43.36446" lon="5.76549">
        <ele>511.08</ele>
        <time>2019-01-06T12:59:14Z</time>
      </trkpt>
      <trkpt lat="43.36448" lon="5.76551">
        <ele>510.6</ele>
        <time>2019-01-06T12:59:18Z</time>
      </trkpt>
      <trkpt lat="43.36449" lon="5.76553">
        <ele>510.6</ele>
        <time>2019-01-06T12:59:19Z</time>
      </trkpt>
      <trkpt lat="43.36452" lon="5.76556">
        <ele>510.6</ele>
        <time>2019-01-06T12:59:22Z</time>
      </trkpt>
      <trkpt lat="43.36452" lon="5.76557">
        <ele>510.6</ele>
        <time>2019-01-06T12:59:23Z</time>
      </trkpt>
      <trkpt lat="43.36454" lon="5.76559">
        <ele>510.6</ele>
        <time>2019-01-06T12:59:25Z</time>
      </trkpt>
      <trkpt lat="43.3646" lon="5.76567">
        <ele>510.6</ele>
        <time>2019-01-06T12:59:33Z</time>
      </trkpt>
      <trkpt lat="43.36467" lon="5.76578">
        <ele>510.6</ele>
        <time>2019-01-06T12:59:45Z</time>
      </trkpt>
      <trkpt lat="43.36477" lon="5.76591">
        <ele>510.6</ele>
        <time>2019-01-06T13:00:03Z</time>
      </trkpt>
      <trkpt lat="43.36483" lon="5.76599">
        <ele>510.6</ele>
        <time>2019-01-06T13:00:11Z</time>
      </trkpt>
      <trkpt lat="43.36483" lon="5.766">
        <ele>510.6</ele>
        <time>2019-01-06T13:00:12Z</time>
      </trkpt>
      <trkpt lat="43.36493" lon="5.76612">
        <ele>511.56</ele>
        <time>2019-01-06T13:00:25Z</time>
      </trkpt>
      <trkpt lat="43.36495" lon="5.76615">
        <ele>511.56</ele>
        <time>2019-01-06T13:00:28Z</time>
      </trkpt>
      <trkpt lat="43.36496" lon="5.76616">
        <ele>511.56</ele>
        <time>2019-01-06T13:00:29Z</time>
      </trkpt>
      <trkpt lat="43.36497" lon="5.76618">
        <ele>511.56</ele>
        <time>2019-01-06T13:00:30Z</time>
      </trkpt>
      <trkpt lat="43.365" lon="5.76621">
        <ele>511.56</ele>
        <time>2019-01-06T13:00:35Z</time>
      </trkpt>
      <trkpt lat="43.36503" lon="5.76625">
        <ele>511.56</ele>
        <time>2019-01-06T13:00:40Z</time>
      </trkpt>
      <trkpt lat="43.36506" lon="5.76631">
        <ele>510.12</ele>
        <time>2019-01-06T13:00:45Z</time>
      </trkpt>
      <trkpt lat="43.36507" lon="5.76633">
        <ele>510.12</ele>
        <time>2019-01-06T13:00:46Z</time>
      </trkpt>
      <trkpt lat="43.36509" lon="5.76636">
        <ele>510.12</ele>
        <time>2019-01-06T13:00:50Z</time>
      </trkpt>
      <trkpt lat="43.36509" lon="5.76638">
        <ele>510.12</ele>
        <time>2019-01-06T13:00:51Z</time>
      </trkpt>
      <trkpt lat="43.36513" lon="5.76654">
        <ele>510.12</ele>
        <time>2019-01-06T13:01:04Z</time>
      </trkpt>
      <trkpt lat="43.36515" lon="5.76669">
        <ele>510.12</ele>
        <time>2019-01-06T13:01:18Z</time>
      </trkpt>
      <trkpt lat="43.36521" lon="5.76687">
        <ele>508.67</ele>
        <time>2019-01-06T13:01:33Z</time>
      </trkpt>
      <trkpt lat="43.36526" lon="5.76701">
        <ele>508.19</ele>
        <time>2019-01-06T13:01:44Z</time>
      </trkpt>
      <trkpt lat="43.3653" lon="5.76714">
        <ele>507.23</ele>
        <time>2019-01-06T13:01:57Z</time>
      </trkpt>
      <trkpt lat="43.36531" lon="5.76735">
        <ele>506.27</ele>
        <time>2019-01-06T13:02:12Z</time>
      </trkpt>
      <trkpt lat="43.36531" lon="5.76754">
        <ele>505.79</ele>
        <time>2019-01-06T13:02:26Z</time>
      </trkpt>
      <trkpt lat="43.36528" lon="5.76769">
        <ele>505.79</ele>
        <time>2019-01-06T13:02:39Z</time>
      </trkpt>
      <trkpt lat="43.36531" lon="5.76797">
        <ele>503.87</ele>
        <time>2019-01-06T13:03:01Z</time>
      </trkpt>
      <trkpt lat="43.36539" lon="5.7682">
        <ele>502.43</ele>
        <time>2019-01-06T13:03:19Z</time>
      </trkpt>
      <trkpt lat="43.36544" lon="5.76843">
        <ele>502.43</ele>
        <time>2019-01-06T13:03:37Z</time>
      </trkpt>
      <trkpt lat="43.36544" lon="5.76851">
        <ele>502.43</ele>
        <time>2019-01-06T13:03:40Z</time>
      </trkpt>
      <trkpt lat="43.36544" lon="5.76855">
        <ele>502.43</ele>
        <time>2019-01-06T13:03:41Z</time>
      </trkpt>
      <trkpt lat="43.36551" lon="5.76878">
        <ele>504.83</ele>
        <time>2019-01-06T13:03:57Z</time>
      </trkpt>
      <trkpt lat="43.36554" lon="5.76894">
        <ele>504.83</ele>
        <time>2019-01-06T13:04:08Z</time>
      </trkpt>
      <trkpt lat="43.36555" lon="5.76914">
        <ele>504.83</ele>
        <time>2019-01-06T13:04:24Z</time>
      </trkpt>
      <trkpt lat="43.36557" lon="5.76936">
        <ele>505.31</ele>
        <time>2019-01-06T13:04:38Z</time>
      </trkpt>
      <trkpt lat="43.36558" lon="5.7695">
        <ele>505.79</ele>
        <time>2019-01-06T13:04:50Z</time>
      </trkpt>
      <trkpt lat="43.36558" lon="5.76952">
        <ele>505.79</ele>
        <time>2019-01-06T13:04:51Z</time>
      </trkpt>
      <trkpt lat="43.36558" lon="5.76954">
        <ele>505.79</ele>
        <time>2019-01-06T13:04:52Z</time>
      </trkpt>
      <trkpt lat="43.36562" lon="5.76963">
        <ele>504.83</ele>
        <time>2019-01-06T13:04:58Z</time>
      </trkpt>
      <trkpt lat="43.36566" lon="5.76981">
        <ele>504.35</ele>
        <time>2019-01-06T13:05:11Z</time>
      </trkpt>
      <trkpt lat="43.36576" lon="5.77">
        <ele>504.35</ele>
        <time>2019-01-06T13:05:25Z</time>
      </trkpt>
      <trkpt lat="43.36577" lon="5.77001">
        <ele>504.35</ele>
        <time>2019-01-06T13:05:26Z</time>
      </trkpt>
      <trkpt lat="43.36577" lon="5.77003">
        <ele>504.35</ele>
        <time>2019-01-06T13:05:27Z</time>
      </trkpt>
      <trkpt lat="43.36585" lon="5.77019">
        <ele>503.39</ele>
        <time>2019-01-06T13:05:42Z</time>
      </trkpt>
      <trkpt lat="43.36586" lon="5.77021">
        <ele>502.91</ele>
        <time>2019-01-06T13:05:43Z</time>
      </trkpt>
      <trkpt lat="43.3659" lon="5.77028">
        <ele>503.39</ele>
        <time>2019-01-06T13:05:49Z</time>
      </trkpt>
      <trkpt lat="43.36591" lon="5.7703">
        <ele>502.91</ele>
        <time>2019-01-06T13:05:50Z</time>
      </trkpt>
      <trkpt lat="43.36593" lon="5.77032">
        <ele>502.91</ele>
        <time>2019-01-06T13:05:51Z</time>
      </trkpt>
      <trkpt lat="43.36595" lon="5.77034">
        <ele>502.91</ele>
        <time>2019-01-06T13:05:52Z</time>
      </trkpt>
      <trkpt lat="43.36596" lon="5.77036">
        <ele>502.91</ele>
        <time>2019-01-06T13:05:53Z</time>
      </trkpt>
      <trkpt lat="43.36604" lon="5.77044">
        <ele>502.91</ele>
        <time>2019-01-06T13:06:02Z</time>
      </trkpt>
      <trkpt lat="43.36605" lon="5.77053">
        <ele>502.43</ele>
        <time>2019-01-06T13:06:11Z</time>
      </trkpt>
      <trkpt lat="43.36605" lon="5.77063">
        <ele>500.5</ele>
        <time>2019-01-06T13:06:20Z</time>
      </trkpt>
      <trkpt lat="43.36608" lon="5.77075">
        <ele>499.54</ele>
        <time>2019-01-06T13:06:29Z</time>
      </trkpt>
      <trkpt lat="43.36608" lon="5.77077">
        <ele>499.06</ele>
        <time>2019-01-06T13:06:30Z</time>
      </trkpt>
      <trkpt lat="43.3661" lon="5.77086">
        <ele>498.58</ele>
        <time>2019-01-06T13:06:34Z</time>
      </trkpt>
      <trkpt lat="43.3661" lon="5.77092">
        <ele>498.58</ele>
        <time>2019-01-06T13:06:45Z</time>
      </trkpt>
      <trkpt lat="43.36614" lon="5.77097">
        <ele>497.62</ele>
        <time>2019-01-06T13:06:55Z</time>
      </trkpt>
      <trkpt lat="43.36615" lon="5.77099">
        <ele>497.62</ele>
        <time>2019-01-06T13:06:56Z</time>
      </trkpt>
      <trkpt lat="43.36616" lon="5.77101">
        <ele>497.14</ele>
        <time>2019-01-06T13:06:57Z</time>
      </trkpt>
      <trkpt lat="43.36618" lon="5.77103">
        <ele>497.14</ele>
        <time>2019-01-06T13:06:58Z</time>
      </trkpt>
      <trkpt lat="43.36619" lon="5.77105">
        <ele>497.14</ele>
        <time>2019-01-06T13:06:59Z</time>
      </trkpt>
      <trkpt lat="43.36627" lon="5.77117">
        <ele>495.7</ele>
        <time>2019-01-06T13:07:10Z</time>
      </trkpt>
      <trkpt lat="43.36633" lon="5.77131">
        <ele>494.74</ele>
        <time>2019-01-06T13:07:23Z</time>
      </trkpt>
      <trkpt lat="43.36631" lon="5.77133">
        <ele>493.77</ele>
        <time>2019-01-06T13:07:26Z</time>
      </trkpt>
      <trkpt lat="43.36625" lon="5.77146">
        <ele>490.41</ele>
        <time>2019-01-06T13:07:39Z</time>
      </trkpt>
      <trkpt lat="43.36631" lon="5.77159">
        <ele>488.97</ele>
        <time>2019-01-06T13:07:53Z</time>
      </trkpt>
      <trkpt lat="43.36632" lon="5.77165">
        <ele>488.49</ele>
        <time>2019-01-06T13:07:57Z</time>
      </trkpt>
      <trkpt lat="43.3663" lon="5.77183">
        <ele>487.05</ele>
        <time>2019-01-06T13:08:14Z</time>
      </trkpt>
      <trkpt lat="43.36626" lon="5.77186">
        <ele>486.56</ele>
        <time>2019-01-06T13:08:19Z</time>
      </trkpt>
      <trkpt lat="43.3662" lon="5.7719">
        <ele>486.08</ele>
        <time>2019-01-06T13:08:26Z</time>
      </trkpt>
      <trkpt lat="43.36612" lon="5.772">
        <ele>486.08</ele>
        <time>2019-01-06T13:08:39Z</time>
      </trkpt>
      <trkpt lat="43.36613" lon="5.77201">
        <ele>486.08</ele>
        <time>2019-01-06T13:08:46Z</time>
      </trkpt>
      <trkpt lat="43.36613" lon="5.77203">
        <ele>486.08</ele>
        <time>2019-01-06T13:08:47Z</time>
      </trkpt>
      <trkpt lat="43.36614" lon="5.77206">
        <ele>485.6</ele>
        <time>2019-01-06T13:08:52Z</time>
      </trkpt>
      <trkpt lat="43.36614" lon="5.77213">
        <ele>485.12</ele>
        <time>2019-01-06T13:08:57Z</time>
      </trkpt>
      <trkpt lat="43.36615" lon="5.77224">
        <ele>484.64</ele>
        <time>2019-01-06T13:09:06Z</time>
      </trkpt>
      <trkpt lat="43.36615" lon="5.77229">
        <ele>484.64</ele>
        <time>2019-01-06T13:09:09Z</time>
      </trkpt>
      <trkpt lat="43.36617" lon="5.77243">
        <ele>483.68</ele>
        <time>2019-01-06T13:09:21Z</time>
      </trkpt>
      <trkpt lat="43.3662" lon="5.77261">
        <ele>482.72</ele>
        <time>2019-01-06T13:09:40Z</time>
      </trkpt>
      <trkpt lat="43.36621" lon="5.7728">
        <ele>480.8</ele>
        <time>2019-01-06T13:09:57Z</time>
      </trkpt>
      <trkpt lat="43.3662" lon="5.77302">
        <ele>479.35</ele>
        <time>2019-01-06T13:10:14Z</time>
      </trkpt>
      <trkpt lat="43.36621" lon="5.77304">
        <ele>479.35</ele>
        <time>2019-01-06T13:10:15Z</time>
      </trkpt>
      <trkpt lat="43.3662" lon="5.77321">
        <ele>476.95</ele>
        <time>2019-01-06T13:10:31Z</time>
      </trkpt>
      <trkpt lat="43.36621" lon="5.77335">
        <ele>476.47</ele>
        <time>2019-01-06T13:10:39Z</time>
      </trkpt>
      <trkpt lat="43.36628" lon="5.7735">
        <ele>475.51</ele>
        <time>2019-01-06T13:10:51Z</time>
      </trkpt>
      <trkpt lat="43.36629" lon="5.77356">
        <ele>475.03</ele>
        <time>2019-01-06T13:10:54Z</time>
      </trkpt>
      <trkpt lat="43.3663" lon="5.77358">
        <ele>475.03</ele>
        <time>2019-01-06T13:10:55Z</time>
      </trkpt>
      <trkpt lat="43.3663" lon="5.7736">
        <ele>475.03</ele>
        <time>2019-01-06T13:10:56Z</time>
      </trkpt>
      <trkpt lat="43.36632" lon="5.77383">
        <ele>474.07</ele>
        <time>2019-01-06T13:11:12Z</time>
      </trkpt>
      <trkpt lat="43.36632" lon="5.77399">
        <ele>473.11</ele>
        <time>2019-01-06T13:11:27Z</time>
      </trkpt>
      <trkpt lat="43.36637" lon="5.77417">
        <ele>472.14</ele>
        <time>2019-01-06T13:11:42Z</time>
      </trkpt>
      <trkpt lat="43.36642" lon="5.77433">
        <ele>471.18</ele>
        <time>2019-01-06T13:11:58Z</time>
      </trkpt>
      <trkpt lat="43.36649" lon="5.77448">
        <ele>470.22</ele>
        <time>2019-01-06T13:12:17Z</time>
      </trkpt>
      <trkpt lat="43.36656" lon="5.77453">
        <ele>468.3</ele>
        <time>2019-01-06T13:12:30Z</time>
      </trkpt>
      <trkpt lat="43.36659" lon="5.77465">
        <ele>468.3</ele>
        <time>2019-01-06T13:12:47Z</time>
      </trkpt>
      <trkpt lat="43.36664" lon="5.77488">
        <ele>466.86</ele>
        <time>2019-01-06T13:13:02Z</time>
      </trkpt>
      <trkpt lat="43.36674" lon="5.77502">
        <ele>464.93</ele>
        <time>2019-01-06T13:13:16Z</time>
      </trkpt>
      <trkpt lat="43.36684" lon="5.77514">
        <ele>463.01</ele>
        <time>2019-01-06T13:13:32Z</time>
      </trkpt>
      <trkpt lat="43.36689" lon="5.77518">
        <ele>462.53</ele>
        <time>2019-01-06T13:13:49Z</time>
      </trkpt>
      <trkpt lat="43.36688" lon="5.77518">
        <ele>462.05</ele>
        <time>2019-01-06T13:13:56Z</time>
      </trkpt>
      <trkpt lat="43.36684" lon="5.7752">
        <ele>462.53</ele>
        <time>2019-01-06T13:14:06Z</time>
      </trkpt>
      <trkpt lat="43.36681" lon="5.77536">
        <ele>462.53</ele>
        <time>2019-01-06T13:14:22Z</time>
      </trkpt>
      <trkpt lat="43.36677" lon="5.77552">
        <ele>462.53</ele>
        <time>2019-01-06T13:14:33Z</time>
      </trkpt>
      <trkpt lat="43.36668" lon="5.77562">
        <ele>462.53</ele>
        <time>2019-01-06T13:14:45Z</time>
      </trkpt>
      <trkpt lat="43.36656" lon="5.77576">
        <ele>461.09</ele>
        <time>2019-01-06T13:14:58Z</time>
      </trkpt>
      <trkpt lat="43.36654" lon="5.7758">
        <ele>461.09</ele>
        <time>2019-01-06T13:15:01Z</time>
      </trkpt>
      <trkpt lat="43.36654" lon="5.77586">
        <ele>461.57</ele>
        <time>2019-01-06T13:15:06Z</time>
      </trkpt>
      <trkpt lat="43.36653" lon="5.77599">
        <ele>461.09</ele>
        <time>2019-01-06T13:15:16Z</time>
      </trkpt>
      <trkpt lat="43.36656" lon="5.77622">
        <ele>461.09</ele>
        <time>2019-01-06T13:15:30Z</time>
      </trkpt>
      <trkpt lat="43.36658" lon="5.77627">
        <ele>459.17</ele>
        <time>2019-01-06T13:15:36Z</time>
      </trkpt>
      <trkpt lat="43.36659" lon="5.77629">
        <ele>459.17</ele>
        <time>2019-01-06T13:15:37Z</time>
      </trkpt>
      <trkpt lat="43.36661" lon="5.7763">
        <ele>459.17</ele>
        <time>2019-01-06T13:15:38Z</time>
      </trkpt>
      <trkpt lat="43.36663" lon="5.77631">
        <ele>459.17</ele>
        <time>2019-01-06T13:15:39Z</time>
      </trkpt>
      <trkpt lat="43.36664" lon="5.77631">
        <ele>458.69</ele>
        <time>2019-01-06T13:15:40Z</time>
      </trkpt>
      <trkpt lat="43.36666" lon="5.77632">
        <ele>458.69</ele>
        <time>2019-01-06T13:15:41Z</time>
      </trkpt>
      <trkpt lat="43.36671" lon="5.77635">
        <ele>457.72</ele>
        <time>2019-01-06T13:15:45Z</time>
      </trkpt>
      <trkpt lat="43.36672" lon="5.77636">
        <ele>457.24</ele>
        <time>2019-01-06T13:15:46Z</time>
      </trkpt>
      <trkpt lat="43.3668" lon="5.77652">
        <ele>456.28</ele>
        <time>2019-01-06T13:15:58Z</time>
      </trkpt>
      <trkpt lat="43.3669" lon="5.77674">
        <ele>454.84</ele>
        <time>2019-01-06T13:16:14Z</time>
      </trkpt>
      <trkpt lat="43.36693" lon="5.77681">
        <ele>453.4</ele>
        <time>2019-01-06T13:16:24Z</time>
      </trkpt>
      <trkpt lat="43.367" lon="5.77693">
        <ele>451</ele>
        <time>2019-01-06T13:16:38Z</time>
      </trkpt>
      <trkpt lat="43.36715" lon="5.77703">
        <ele>447.63</ele>
        <time>2019-01-06T13:16:52Z</time>
      </trkpt>
      <trkpt lat="43.3672" lon="5.77705">
        <ele>447.15</ele>
        <time>2019-01-06T13:16:57Z</time>
      </trkpt>
      <trkpt lat="43.36728" lon="5.77708">
        <ele>445.23</ele>
        <time>2019-01-06T13:17:06Z</time>
      </trkpt>
      <trkpt lat="43.36732" lon="5.77709">
        <ele>444.27</ele>
        <time>2019-01-06T13:17:18Z</time>
      </trkpt>
      <trkpt lat="43.36734" lon="5.77714">
        <ele>443.31</ele>
        <time>2019-01-06T13:17:32Z</time>
      </trkpt>
      <trkpt lat="43.36736" lon="5.77728">
        <ele>441.86</ele>
        <time>2019-01-06T13:17:41Z</time>
      </trkpt>
      <trkpt lat="43.36738" lon="5.77738">
        <ele>441.86</ele>
        <time>2019-01-06T13:17:47Z</time>
      </trkpt>
      <trkpt lat="43.3674" lon="5.7774">
        <ele>440.42</ele>
        <time>2019-01-06T13:17:50Z</time>
      </trkpt>
      <trkpt lat="43.36744" lon="5.7774">
        <ele>439.94</ele>
        <time>2019-01-06T13:18:03Z</time>
      </trkpt>
      <trkpt lat="43.36741" lon="5.77749">
        <ele>440.9</ele>
        <time>2019-01-06T13:18:12Z</time>
      </trkpt>
      <trkpt lat="43.36741" lon="5.77752">
        <ele>440.9</ele>
        <time>2019-01-06T13:18:14Z</time>
      </trkpt>
      <trkpt lat="43.36741" lon="5.77766">
        <ele>439.46</ele>
        <time>2019-01-06T13:18:27Z</time>
      </trkpt>
      <trkpt lat="43.36743" lon="5.77781">
        <ele>438.98</ele>
        <time>2019-01-06T13:18:40Z</time>
      </trkpt>
      <trkpt lat="43.36744" lon="5.77798">
        <ele>437.54</ele>
        <time>2019-01-06T13:18:51Z</time>
      </trkpt>
      <trkpt lat="43.36744" lon="5.77801">
        <ele>438.02</ele>
        <time>2019-01-06T13:18:55Z</time>
      </trkpt>
      <trkpt lat="43.36748" lon="5.77811">
        <ele>437.06</ele>
        <time>2019-01-06T13:19:02Z</time>
      </trkpt>
      <trkpt lat="43.36756" lon="5.77825">
        <ele>435.13</ele>
        <time>2019-01-06T13:19:14Z</time>
      </trkpt>
      <trkpt lat="43.36759" lon="5.77829">
        <ele>434.65</ele>
        <time>2019-01-06T13:19:18Z</time>
      </trkpt>
      <trkpt lat="43.36764" lon="5.77839">
        <ele>434.17</ele>
        <time>2019-01-06T13:19:26Z</time>
      </trkpt>
      <trkpt lat="43.36769" lon="5.77853">
        <ele>433.69</ele>
        <time>2019-01-06T13:19:38Z</time>
      </trkpt>
      <trkpt lat="43.36772" lon="5.77866">
        <ele>432.25</ele>
        <time>2019-01-06T13:19:48Z</time>
      </trkpt>
      <trkpt lat="43.36773" lon="5.77873">
        <ele>431.77</ele>
        <time>2019-01-06T13:19:53Z</time>
      </trkpt>
      <trkpt lat="43.36782" lon="5.77887">
        <ele>429.37</ele>
        <time>2019-01-06T13:20:08Z</time>
      </trkpt>
      <trkpt lat="43.36791" lon="5.77902">
        <ele>426</ele>
        <time>2019-01-06T13:20:28Z</time>
      </trkpt>
      <trkpt lat="43.36797" lon="5.77927">
        <ele>423.6</ele>
        <time>2019-01-06T13:20:48Z</time>
      </trkpt>
      <trkpt lat="43.36796" lon="5.77939">
        <ele>420.71</ele>
        <time>2019-01-06T13:21:05Z</time>
      </trkpt>
      <trkpt lat="43.36801" lon="5.77951">
        <ele>417.83</ele>
        <time>2019-01-06T13:21:20Z</time>
      </trkpt>
      <trkpt lat="43.36818" lon="5.77961">
        <ele>414.95</ele>
        <time>2019-01-06T13:21:38Z</time>
      </trkpt>
      <trkpt lat="43.36826" lon="5.77979">
        <ele>413.5</ele>
        <time>2019-01-06T13:21:54Z</time>
      </trkpt>
      <trkpt lat="43.36837" lon="5.78">
        <ele>411.1</ele>
        <time>2019-01-06T13:22:13Z</time>
      </trkpt>
      <trkpt lat="43.36846" lon="5.78016">
        <ele>410.14</ele>
        <time>2019-01-06T13:22:28Z</time>
      </trkpt>
      <trkpt lat="43.36852" lon="5.78027">
        <ele>408.7</ele>
        <time>2019-01-06T13:22:44Z</time>
      </trkpt>
      <trkpt lat="43.36853" lon="5.78032">
        <ele>408.22</ele>
        <time>2019-01-06T13:22:47Z</time>
      </trkpt>
      <trkpt lat="43.36862" lon="5.7805">
        <ele>405.81</ele>
        <time>2019-01-06T13:23:07Z</time>
      </trkpt>
      <trkpt lat="43.36862" lon="5.78066">
        <ele>404.85</ele>
        <time>2019-01-06T13:23:20Z</time>
      </trkpt>
      <trkpt lat="43.36854" lon="5.78078">
        <ele>404.37</ele>
        <time>2019-01-06T13:23:29Z</time>
      </trkpt>
      <trkpt lat="43.36837" lon="5.78097">
        <ele>404.37</ele>
        <time>2019-01-06T13:23:49Z</time>
      </trkpt>
      <trkpt lat="43.36824" lon="5.78108">
        <ele>405.81</ele>
        <time>2019-01-06T13:24:05Z</time>
      </trkpt>
      <trkpt lat="43.36805" lon="5.7811">
        <ele>406.77</ele>
        <time>2019-01-06T13:24:24Z</time>
      </trkpt>
      <trkpt lat="43.36798" lon="5.7811">
        <ele>406.77</ele>
        <time>2019-01-06T13:24:32Z</time>
      </trkpt>
      <trkpt lat="43.36772" lon="5.78105">
        <ele>407.26</ele>
        <time>2019-01-06T13:24:55Z</time>
      </trkpt>
      <trkpt lat="43.36746" lon="5.78102">
        <ele>407.74</ele>
        <time>2019-01-06T13:25:16Z</time>
      </trkpt>
      <trkpt lat="43.36719" lon="5.78099">
        <ele>408.22</ele>
        <time>2019-01-06T13:25:36Z</time>
      </trkpt>
      <trkpt lat="43.36702" lon="5.78093">
        <ele>408.7</ele>
        <time>2019-01-06T13:25:54Z</time>
      </trkpt>
      <trkpt lat="43.36679" lon="5.78079">
        <ele>410.62</ele>
        <time>2019-01-06T13:26:15Z</time>
      </trkpt>
      <trkpt lat="43.36662" lon="5.78071">
        <ele>411.58</ele>
        <time>2019-01-06T13:26:36Z</time>
      </trkpt>
      <trkpt lat="43.36646" lon="5.78075">
        <ele>413.5</ele>
        <time>2019-01-06T13:26:56Z</time>
      </trkpt>
      <trkpt lat="43.36623" lon="5.78073">
        <ele>413.98</ele>
        <time>2019-01-06T13:27:16Z</time>
      </trkpt>
      <trkpt lat="43.36601" lon="5.78072">
        <ele>414.47</ele>
        <time>2019-01-06T13:27:35Z</time>
      </trkpt>
      <trkpt lat="43.36595" lon="5.78072">
        <ele>414.95</ele>
        <time>2019-01-06T13:27:48Z</time>
      </trkpt>
      <trkpt lat="43.36589" lon="5.78073">
        <ele>414.95</ele>
        <time>2019-01-06T13:27:53Z</time>
      </trkpt>
      <trkpt lat="43.36579" lon="5.78065">
        <ele>414.95</ele>
        <time>2019-01-06T13:28:03Z</time>
      </trkpt>
      <trkpt lat="43.36574" lon="5.78053">
        <ele>415.43</ele>
        <time>2019-01-06T13:28:05Z</time>
      </trkpt>
      <trkpt lat="43.36553" lon="5.78038">
        <ele>415.91</ele>
        <time>2019-01-06T13:28:24Z</time>
      </trkpt>
      <trkpt lat="43.3655" lon="5.78036">
        <ele>416.39</ele>
        <time>2019-01-06T13:28:27Z</time>
      </trkpt>
      <trkpt lat="43.36542" lon="5.7803">
        <ele>416.39</ele>
        <time>2019-01-06T13:28:37Z</time>
      </trkpt>
      <trkpt lat="43.36537" lon="5.78026">
        <ele>417.35</ele>
        <time>2019-01-06T13:28:44Z</time>
      </trkpt>
      <trkpt lat="43.36532" lon="5.7802">
        <ele>417.83</ele>
        <time>2019-01-06T13:28:51Z</time>
      </trkpt>
      <trkpt lat="43.3653" lon="5.78017">
        <ele>417.83</ele>
        <time>2019-01-06T13:28:54Z</time>
      </trkpt>
      <trkpt lat="43.36528" lon="5.78015">
        <ele>417.83</ele>
        <time>2019-01-06T13:28:57Z</time>
      </trkpt>
      <trkpt lat="43.36522" lon="5.78009">
        <ele>418.79</ele>
        <time>2019-01-06T13:29:05Z</time>
      </trkpt>
      <trkpt lat="43.3652" lon="5.78007">
        <ele>419.27</ele>
        <time>2019-01-06T13:29:08Z</time>
      </trkpt>
      <trkpt lat="43.3651" lon="5.77996">
        <ele>421.19</ele>
        <time>2019-01-06T13:29:30Z</time>
      </trkpt>
      <trkpt lat="43.36501" lon="5.77993">
        <ele>424.56</ele>
        <time>2019-01-06T13:29:46Z</time>
      </trkpt>
      <trkpt lat="43.36499" lon="5.77992">
        <ele>424.56</ele>
        <time>2019-01-06T13:29:48Z</time>
      </trkpt>
      <trkpt lat="43.36485" lon="5.77974">
        <ele>426</ele>
        <time>2019-01-06T13:30:09Z</time>
      </trkpt>
      <trkpt lat="43.36477" lon="5.77955">
        <ele>428.4</ele>
        <time>2019-01-06T13:30:28Z</time>
      </trkpt>
      <trkpt lat="43.36467" lon="5.77954">
        <ele>429.37</ele>
        <time>2019-01-06T13:30:46Z</time>
      </trkpt>
      <trkpt lat="43.36455" lon="5.77955">
        <ele>430.81</ele>
        <time>2019-01-06T13:31:03Z</time>
      </trkpt>
      <trkpt lat="43.36443" lon="5.77941">
        <ele>434.17</ele>
        <time>2019-01-06T13:31:22Z</time>
      </trkpt>
      <trkpt lat="43.36436" lon="5.77934">
        <ele>434.17</ele>
        <time>2019-01-06T13:31:31Z</time>
      </trkpt>
      <trkpt lat="43.36415" lon="5.77916">
        <ele>435.13</ele>
        <time>2019-01-06T13:31:44Z</time>
      </trkpt>
      <trkpt lat="43.36404" lon="5.77903">
        <ele>436.58</ele>
        <time>2019-01-06T13:31:59Z</time>
      </trkpt>
      <trkpt lat="43.36394" lon="5.77892">
        <ele>437.06</ele>
        <time>2019-01-06T13:32:15Z</time>
      </trkpt>
      <trkpt lat="43.36384" lon="5.77884">
        <ele>438.02</ele>
        <time>2019-01-06T13:32:30Z</time>
      </trkpt>
      <trkpt lat="43.36378" lon="5.77881">
        <ele>438.5</ele>
        <time>2019-01-06T13:32:39Z</time>
      </trkpt>
      <trkpt lat="43.36374" lon="5.77878">
        <ele>438.98</ele>
        <time>2019-01-06T13:32:44Z</time>
      </trkpt>
      <trkpt lat="43.36361" lon="5.77865">
        <ele>439.94</ele>
        <time>2019-01-06T13:33:00Z</time>
      </trkpt>
      <trkpt lat="43.36353" lon="5.77856">
        <ele>439.94</ele>
        <time>2019-01-06T13:33:09Z</time>
      </trkpt>
      <trkpt lat="43.36349" lon="5.77854">
        <ele>439.94</ele>
        <time>2019-01-06T13:33:12Z</time>
      </trkpt>
      <trkpt lat="43.36348" lon="5.77852">
        <ele>439.94</ele>
        <time>2019-01-06T13:33:13Z</time>
      </trkpt>
      <trkpt lat="43.36345" lon="5.77849">
        <ele>439.94</ele>
        <time>2019-01-06T13:33:18Z</time>
      </trkpt>
      <trkpt lat="43.36343" lon="5.77848">
        <ele>439.94</ele>
        <time>2019-01-06T13:33:19Z</time>
      </trkpt>
      <trkpt lat="43.36338" lon="5.77845">
        <ele>439.94</ele>
        <time>2019-01-06T13:33:24Z</time>
      </trkpt>
      <trkpt lat="43.36337" lon="5.77844">
        <ele>439.94</ele>
        <time>2019-01-06T13:33:25Z</time>
      </trkpt>
      <trkpt lat="43.3633" lon="5.77842">
        <ele>439.94</ele>
        <time>2019-01-06T13:33:33Z</time>
      </trkpt>
      <trkpt lat="43.36329" lon="5.77843">
        <ele>439.94</ele>
        <time>2019-01-06T13:33:34Z</time>
      </trkpt>
      <trkpt lat="43.36327" lon="5.77844">
        <ele>439.94</ele>
        <time>2019-01-06T13:33:36Z</time>
      </trkpt>
      <trkpt lat="43.36326" lon="5.77843">
        <ele>439.94</ele>
        <time>2019-01-06T13:33:37Z</time>
      </trkpt>
      <trkpt lat="43.36315" lon="5.7784">
        <ele>440.42</ele>
        <time>2019-01-06T13:33:50Z</time>
      </trkpt>
      <trkpt lat="43.36305" lon="5.77839">
        <ele>440.9</ele>
        <time>2019-01-06T13:34:00Z</time>
      </trkpt>
      <trkpt lat="43.36302" lon="5.77839">
        <ele>440.9</ele>
        <time>2019-01-06T13:34:02Z</time>
      </trkpt>
      <trkpt lat="43.363" lon="5.77839">
        <ele>440.9</ele>
        <time>2019-01-06T13:34:04Z</time>
      </trkpt>
      <trkpt lat="43.36299" lon="5.77839">
        <ele>440.9</ele>
        <time>2019-01-06T13:34:05Z</time>
      </trkpt>
      <trkpt lat="43.36298" lon="5.77838">
        <ele>440.9</ele>
        <time>2019-01-06T13:34:06Z</time>
      </trkpt>
      <trkpt lat="43.36296" lon="5.77838">
        <ele>440.9</ele>
        <time>2019-01-06T13:34:07Z</time>
      </trkpt>
      <trkpt lat="43.36295" lon="5.77838">
        <ele>440.9</ele>
        <time>2019-01-06T13:34:08Z</time>
      </trkpt>
      <trkpt lat="43.36283" lon="5.77839">
        <ele>441.86</ele>
        <time>2019-01-06T13:34:20Z</time>
      </trkpt>
      <trkpt lat="43.36269" lon="5.77841">
        <ele>441.86</ele>
        <time>2019-01-06T13:34:36Z</time>
      </trkpt>
      <trkpt lat="43.36266" lon="5.77842">
        <ele>441.86</ele>
        <time>2019-01-06T13:34:40Z</time>
      </trkpt>
      <trkpt lat="43.36265" lon="5.77843">
        <ele>441.86</ele>
        <time>2019-01-06T13:34:41Z</time>
      </trkpt>
      <trkpt lat="43.36262" lon="5.77843">
        <ele>441.86</ele>
        <time>2019-01-06T13:34:44Z</time>
      </trkpt>
      <trkpt lat="43.36261" lon="5.77844">
        <ele>441.86</ele>
        <time>2019-01-06T13:34:45Z</time>
      </trkpt>
      <trkpt lat="43.36259" lon="5.77844">
        <ele>441.86</ele>
        <time>2019-01-06T13:34:46Z</time>
      </trkpt>
      <trkpt lat="43.36248" lon="5.77847">
        <ele>442.82</ele>
        <time>2019-01-06T13:34:58Z</time>
      </trkpt>
      <trkpt lat="43.36237" lon="5.77847">
        <ele>442.82</ele>
        <time>2019-01-06T13:35:11Z</time>
      </trkpt>
      <trkpt lat="43.36234" lon="5.77846">
        <ele>442.82</ele>
        <time>2019-01-06T13:35:34Z</time>
      </trkpt>
      <trkpt lat="43.36233" lon="5.77849">
        <ele>442.82</ele>
        <time>2019-01-06T13:35:42Z</time>
      </trkpt>
      <trkpt lat="43.36216" lon="5.77857">
        <ele>442.82</ele>
        <time>2019-01-06T13:36:26Z</time>
      </trkpt>
      <trkpt lat="43.36209" lon="5.77867">
        <ele>441.86</ele>
        <time>2019-01-06T13:36:39Z</time>
      </trkpt>
      <trkpt lat="43.36196" lon="5.77869">
        <ele>441.38</ele>
        <time>2019-01-06T13:36:51Z</time>
      </trkpt>
      <trkpt lat="43.36185" lon="5.77869">
        <ele>441.38</ele>
        <time>2019-01-06T13:37:04Z</time>
      </trkpt>
      <trkpt lat="43.36181" lon="5.77871">
        <ele>441.38</ele>
        <time>2019-01-06T13:37:08Z</time>
      </trkpt>
      <trkpt lat="43.36174" lon="5.77874">
        <ele>441.38</ele>
        <time>2019-01-06T13:37:17Z</time>
      </trkpt>
      <trkpt lat="43.36168" lon="5.77876">
        <ele>443.31</ele>
        <time>2019-01-06T13:37:23Z</time>
      </trkpt>
      <trkpt lat="43.36153" lon="5.77878">
        <ele>443.31</ele>
        <time>2019-01-06T13:37:37Z</time>
      </trkpt>
      <trkpt lat="43.36136" lon="5.77887">
        <ele>443.31</ele>
        <time>2019-01-06T13:37:59Z</time>
      </trkpt>
      <trkpt lat="43.36135" lon="5.77887">
        <ele>443.31</ele>
        <time>2019-01-06T13:38:00Z</time>
      </trkpt>
      <trkpt lat="43.36125" lon="5.779">
        <ele>441.86</ele>
        <time>2019-01-06T13:38:20Z</time>
      </trkpt>
      <trkpt lat="43.36112" lon="5.77908">
        <ele>439.46</ele>
        <time>2019-01-06T13:38:43Z</time>
      </trkpt>
      <trkpt lat="43.36097" lon="5.77911">
        <ele>437.54</ele>
        <time>2019-01-06T13:39:01Z</time>
      </trkpt>
      <trkpt lat="43.36074" lon="5.77907">
        <ele>435.13</ele>
        <time>2019-01-06T13:39:22Z</time>
      </trkpt>
      <trkpt lat="43.36066" lon="5.77896">
        <ele>433.69</ele>
        <time>2019-01-06T13:39:41Z</time>
      </trkpt>
      <trkpt lat="43.36047" lon="5.77876">
        <ele>432.25</ele>
        <time>2019-01-06T13:40:07Z</time>
      </trkpt>
      <trkpt lat="43.36035" lon="5.77855">
        <ele>430.33</ele>
        <time>2019-01-06T13:40:29Z</time>
      </trkpt>
      <trkpt lat="43.36018" lon="5.77847">
        <ele>427.92</ele>
        <time>2019-01-06T13:40:51Z</time>
      </trkpt>
      <trkpt lat="43.36008" lon="5.77842">
        <ele>426.48</ele>
        <time>2019-01-06T13:41:10Z</time>
      </trkpt>
      <trkpt lat="43.36003" lon="5.77821">
        <ele>426.48</ele>
        <time>2019-01-06T13:41:29Z</time>
      </trkpt>
      <trkpt lat="43.3599" lon="5.77804">
        <ele>426.48</ele>
        <time>2019-01-06T13:41:50Z</time>
      </trkpt>
      <trkpt lat="43.3598" lon="5.77796">
        <ele>426.48</ele>
        <time>2019-01-06T13:42:10Z</time>
      </trkpt>
      <trkpt lat="43.35971" lon="5.77787">
        <ele>426.48</ele>
        <time>2019-01-06T13:42:29Z</time>
      </trkpt>
      <trkpt lat="43.35952" lon="5.77772">
        <ele>426</ele>
        <time>2019-01-06T13:42:49Z</time>
      </trkpt>
      <trkpt lat="43.35939" lon="5.77762">
        <ele>426</ele>
        <time>2019-01-06T13:43:05Z</time>
      </trkpt>
      <trkpt lat="43.3592" lon="5.77752">
        <ele>426</ele>
        <time>2019-01-06T13:43:21Z</time>
      </trkpt>
      <trkpt lat="43.35905" lon="5.77742">
        <ele>425.04</ele>
        <time>2019-01-06T13:43:40Z</time>
      </trkpt>
      <trkpt lat="43.35888" lon="5.77729">
        <ele>423.6</ele>
        <time>2019-01-06T13:44:00Z</time>
      </trkpt>
      <trkpt lat="43.35871" lon="5.77726">
        <ele>423.6</ele>
        <time>2019-01-06T13:44:19Z</time>
      </trkpt>
      <trkpt lat="43.3586" lon="5.77727">
        <ele>423.6</ele>
        <time>2019-01-06T13:44:38Z</time>
      </trkpt>
      <trkpt lat="43.35857" lon="5.77723">
        <ele>423.6</ele>
        <time>2019-01-06T13:44:55Z</time>
      </trkpt>
      <trkpt lat="43.35848" lon="5.77722">
        <ele>423.6</ele>
        <time>2019-01-06T13:45:09Z</time>
      </trkpt>
      <trkpt lat="43.35845" lon="5.77721">
        <ele>423.6</ele>
        <time>2019-01-06T13:45:12Z</time>
      </trkpt>
      <trkpt lat="43.35826" lon="5.77716">
        <ele>423.6</ele>
        <time>2019-01-06T13:45:30Z</time>
      </trkpt>
      <trkpt lat="43.35816" lon="5.77712">
        <ele>423.12</ele>
        <time>2019-01-06T13:45:48Z</time>
      </trkpt>
      <trkpt lat="43.35801" lon="5.77711">
        <ele>423.6</ele>
        <time>2019-01-06T13:46:05Z</time>
      </trkpt>
      <trkpt lat="43.35791" lon="5.77709">
        <ele>423.6</ele>
        <time>2019-01-06T13:46:22Z</time>
      </trkpt>
      <trkpt lat="43.35788" lon="5.77707">
        <ele>424.08</ele>
        <time>2019-01-06T13:46:34Z</time>
      </trkpt>
      <trkpt lat="43.35774" lon="5.77708">
        <ele>424.56</ele>
        <time>2019-01-06T13:46:54Z</time>
      </trkpt>
      <trkpt lat="43.35762" lon="5.77703">
        <ele>426</ele>
        <time>2019-01-06T13:47:14Z</time>
      </trkpt>
      <trkpt lat="43.35743" lon="5.77698">
        <ele>427.44</ele>
        <time>2019-01-06T13:47:34Z</time>
      </trkpt>
      <trkpt lat="43.35732" lon="5.77696">
        <ele>426</ele>
        <time>2019-01-06T13:47:44Z</time>
      </trkpt>
      <trkpt lat="43.35721" lon="5.77702">
        <ele>424.08</ele>
        <time>2019-01-06T13:48:06Z</time>
      </trkpt>
      <trkpt lat="43.35711" lon="5.77705">
        <ele>422.64</ele>
        <time>2019-01-06T13:48:27Z</time>
      </trkpt>
      <trkpt lat="43.35701" lon="5.77713">
        <ele>421.68</ele>
        <time>2019-01-06T13:48:38Z</time>
      </trkpt>
      <trkpt lat="43.35696" lon="5.77728">
        <ele>420.23</ele>
        <time>2019-01-06T13:48:54Z</time>
      </trkpt>
      <trkpt lat="43.3569" lon="5.77758">
        <ele>419.75</ele>
        <time>2019-01-06T13:49:15Z</time>
      </trkpt>
      <trkpt lat="43.35677" lon="5.77772">
        <ele>419.27</ele>
        <time>2019-01-06T13:49:35Z</time>
      </trkpt>
      <trkpt lat="43.35654" lon="5.7777">
        <ele>419.75</ele>
        <time>2019-01-06T13:49:53Z</time>
      </trkpt>
      <trkpt lat="43.35647" lon="5.77768">
        <ele>420.71</ele>
        <time>2019-01-06T13:49:55Z</time>
      </trkpt>
      <trkpt lat="43.35639" lon="5.77763">
        <ele>420.71</ele>
        <time>2019-01-06T13:50:00Z</time>
      </trkpt>
      <trkpt lat="43.35628" lon="5.77759">
        <ele>419.75</ele>
        <time>2019-01-06T13:50:15Z</time>
      </trkpt>
      <trkpt lat="43.35613" lon="5.77747">
        <ele>419.75</ele>
        <time>2019-01-06T13:50:32Z</time>
      </trkpt>
      <trkpt lat="43.35604" lon="5.77744">
        <ele>419.75</ele>
        <time>2019-01-06T13:50:41Z</time>
      </trkpt>
      <trkpt lat="43.35604" lon="5.77743">
        <ele>419.75</ele>
        <time>2019-01-06T13:50:43Z</time>
      </trkpt>
      <trkpt lat="43.35595" lon="5.77735">
        <ele>418.79</ele>
        <time>2019-01-06T13:50:52Z</time>
      </trkpt>
      <trkpt lat="43.3559" lon="5.77733">
        <ele>417.83</ele>
        <time>2019-01-06T13:51:02Z</time>
      </trkpt>
      <trkpt lat="43.3558" lon="5.77734">
        <ele>416.87</ele>
        <time>2019-01-06T13:51:14Z</time>
      </trkpt>
      <trkpt lat="43.35578" lon="5.77733">
        <ele>416.87</ele>
        <time>2019-01-06T13:51:15Z</time>
      </trkpt>
      <trkpt lat="43.35564" lon="5.77719">
        <ele>416.39</ele>
        <time>2019-01-06T13:51:35Z</time>
      </trkpt>
      <trkpt lat="43.35554" lon="5.77719">
        <ele>415.43</ele>
        <time>2019-01-06T13:51:51Z</time>
      </trkpt>
      <trkpt lat="43.35531" lon="5.77715">
        <ele>417.35</ele>
        <time>2019-01-06T13:52:09Z</time>
      </trkpt>
      <trkpt lat="43.35518" lon="5.77728">
        <ele>417.35</ele>
        <time>2019-01-06T13:52:30Z</time>
      </trkpt>
      <trkpt lat="43.35511" lon="5.77733">
        <ele>416.39</ele>
        <time>2019-01-06T13:52:39Z</time>
      </trkpt>
      <trkpt lat="43.355" lon="5.77739">
        <ele>415.91</ele>
        <time>2019-01-06T13:52:54Z</time>
      </trkpt>
      <trkpt lat="43.35489" lon="5.77736">
        <ele>415.43</ele>
        <time>2019-01-06T13:53:13Z</time>
      </trkpt>
    </trkseg>
  </trk>
</gpx>